<?xml version="1.0" encoding="UTF-8" standalone="no" ?>
<gpx xmlns="http://www.topografix.com/GPX/1/1" xmlns:xsi="http://www.w3.org/2001/XMLSchema-instance" xsi:schemaLocation="http://www.topografix.com/GPX/1/1 http://www.topografix.com/GPX/1/1/gpx.xsd" version="1.1" creator="VisuGPX - https://www.visugpx.com">
  <metadata>
    <name>Tour du Pic 2k25</name>
  </metadata>
  <trk>
    <name><![CDATA[TP_2025]]></name>
    <extensions>
      <line xmlns="http://www.topografix.com/GPX/gpx_style/0/2">
        <width>4</width>
      </line>
    </extensions>
    <trkseg>
      <trkpt lat="43.76214" lon="3.86062">
        <ele>76.8</ele>
        <time>2025-03-25T16:28:17.000Z</time>
      </trkpt>
      <trkpt lat="43.7621" lon="3.86057">
        <ele>92.9</ele>
        <time>2025-03-25T16:28:19.000Z</time>
      </trkpt>
      <trkpt lat="43.76226" lon="3.86076">
        <ele>93.5</ele>
        <time>2025-03-25T16:28:21.000Z</time>
      </trkpt>
      <trkpt lat="43.76235" lon="3.86091">
        <ele>94</ele>
        <time>2025-03-25T16:28:30.000Z</time>
      </trkpt>
      <trkpt lat="43.76244" lon="3.86089">
        <ele>94.1</ele>
        <time>2025-03-25T16:28:41.000Z</time>
      </trkpt>
      <trkpt lat="43.76271" lon="3.86078">
        <ele>94.6</ele>
        <time>2025-03-25T16:28:46.000Z</time>
      </trkpt>
      <trkpt lat="43.76292" lon="3.86063">
        <ele>75.6</ele>
        <time>2025-03-25T16:28:51.000Z</time>
      </trkpt>
      <trkpt lat="43.76307" lon="3.86047">
        <ele>75.2</ele>
        <time>2025-03-25T16:28:58.000Z</time>
      </trkpt>
      <trkpt lat="43.76311" lon="3.86043">
        <ele>75.2</ele>
        <time>2025-03-25T16:29:00.000Z</time>
      </trkpt>
      <trkpt lat="43.76322" lon="3.86036">
        <ele>74.2</ele>
        <time>2025-03-25T16:29:06.000Z</time>
      </trkpt>
      <trkpt lat="43.76336" lon="3.86019">
        <ele>74.2</ele>
        <time>2025-03-25T16:29:13.000Z</time>
      </trkpt>
      <trkpt lat="43.76349" lon="3.86002">
        <ele>74.4</ele>
        <time>2025-03-25T16:29:20.000Z</time>
      </trkpt>
      <trkpt lat="43.76363" lon="3.85985">
        <ele>73.8</ele>
        <time>2025-03-25T16:29:31.000Z</time>
      </trkpt>
      <trkpt lat="43.76378" lon="3.85969">
        <ele>73.6</ele>
        <time>2025-03-25T16:29:44.000Z</time>
      </trkpt>
      <trkpt lat="43.76391" lon="3.85952">
        <ele>73.6</ele>
        <time>2025-03-25T16:29:55.000Z</time>
      </trkpt>
      <trkpt lat="43.76405" lon="3.85934">
        <ele>73.8</ele>
        <time>2025-03-25T16:30:07.000Z</time>
      </trkpt>
      <trkpt lat="43.76421" lon="3.8592">
        <ele>73.8</ele>
        <time>2025-03-25T16:30:19.000Z</time>
      </trkpt>
      <trkpt lat="43.76439" lon="3.85909">
        <ele>74.2</ele>
        <time>2025-03-25T16:30:28.000Z</time>
      </trkpt>
      <trkpt lat="43.76457" lon="3.85905">
        <ele>74.6</ele>
        <time>2025-03-25T16:30:36.000Z</time>
      </trkpt>
      <trkpt lat="43.76475" lon="3.85905">
        <ele>75</ele>
        <time>2025-03-25T16:30:44.000Z</time>
      </trkpt>
      <trkpt lat="43.76485" lon="3.85903">
        <ele>75.2</ele>
        <time>2025-03-25T16:30:48.000Z</time>
      </trkpt>
      <trkpt lat="43.76504" lon="3.85898">
        <ele>75.4</ele>
        <time>2025-03-25T16:30:56.000Z</time>
      </trkpt>
      <trkpt lat="43.76522" lon="3.8589">
        <ele>75.2</ele>
        <time>2025-03-25T16:31:04.000Z</time>
      </trkpt>
      <trkpt lat="43.76529" lon="3.85888">
        <ele>75.4</ele>
        <time>2025-03-25T16:31:07.000Z</time>
      </trkpt>
      <trkpt lat="43.76547" lon="3.85877">
        <ele>75.8</ele>
        <time>2025-03-25T16:31:15.000Z</time>
      </trkpt>
      <trkpt lat="43.76566" lon="3.85867">
        <ele>75.6</ele>
        <time>2025-03-25T16:31:23.000Z</time>
      </trkpt>
      <trkpt lat="43.76583" lon="3.85854">
        <ele>75.8</ele>
        <time>2025-03-25T16:31:31.000Z</time>
      </trkpt>
      <trkpt lat="43.76595" lon="3.85836">
        <ele>76</ele>
        <time>2025-03-25T16:31:39.000Z</time>
      </trkpt>
      <trkpt lat="43.76601" lon="3.8583">
        <ele>76.2</ele>
        <time>2025-03-25T16:31:42.000Z</time>
      </trkpt>
      <trkpt lat="43.76612" lon="3.85819">
        <ele>102.1</ele>
        <time>2025-03-25T16:31:49.000Z</time>
      </trkpt>
      <trkpt lat="43.76623" lon="3.85812">
        <ele>104.4</ele>
        <time>2025-03-25T16:31:50.000Z</time>
      </trkpt>
      <trkpt lat="43.76637" lon="3.85807">
        <ele>106.9</ele>
        <time>2025-03-25T16:31:58.000Z</time>
      </trkpt>
      <trkpt lat="43.76647" lon="3.85806">
        <ele>108.2</ele>
        <time>2025-03-25T16:32:00.000Z</time>
      </trkpt>
      <trkpt lat="43.76655" lon="3.85816">
        <ele>79.4</ele>
        <time>2025-03-25T16:32:09.000Z</time>
      </trkpt>
      <trkpt lat="43.7667" lon="3.85835">
        <ele>79.2</ele>
        <time>2025-03-25T16:32:17.000Z</time>
      </trkpt>
      <trkpt lat="43.76679" lon="3.85846">
        <ele>79.4</ele>
        <time>2025-03-25T16:32:22.000Z</time>
      </trkpt>
      <trkpt lat="43.76696" lon="3.85863">
        <ele>80.2</ele>
        <time>2025-03-25T16:32:29.000Z</time>
      </trkpt>
      <trkpt lat="43.76698" lon="3.85865">
        <ele>80.4</ele>
        <time>2025-03-25T16:32:30.000Z</time>
      </trkpt>
      <trkpt lat="43.76713" lon="3.85881">
        <ele>80.8</ele>
        <time>2025-03-25T16:32:37.000Z</time>
      </trkpt>
      <trkpt lat="43.76727" lon="3.85898">
        <ele>80.4</ele>
        <time>2025-03-25T16:32:44.000Z</time>
      </trkpt>
      <trkpt lat="43.76741" lon="3.85914">
        <ele>81.2</ele>
        <time>2025-03-25T16:32:51.000Z</time>
      </trkpt>
      <trkpt lat="43.76745" lon="3.85919">
        <ele>81.4</ele>
        <time>2025-03-25T16:32:53.000Z</time>
      </trkpt>
      <trkpt lat="43.7676" lon="3.85932">
        <ele>81.2</ele>
        <time>2025-03-25T16:33:00.000Z</time>
      </trkpt>
      <trkpt lat="43.76778" lon="3.85942">
        <ele>82.2</ele>
        <time>2025-03-25T16:33:07.000Z</time>
      </trkpt>
      <trkpt lat="43.76785" lon="3.85946">
        <ele>82.4</ele>
        <time>2025-03-25T16:33:10.000Z</time>
      </trkpt>
      <trkpt lat="43.76789" lon="3.85949">
        <ele>82.6</ele>
        <time>2025-03-25T16:33:12.000Z</time>
      </trkpt>
      <trkpt lat="43.76808" lon="3.85959">
        <ele>83.4</ele>
        <time>2025-03-25T16:33:20.000Z</time>
      </trkpt>
      <trkpt lat="43.76825" lon="3.85968">
        <ele>83.8</ele>
        <time>2025-03-25T16:33:28.000Z</time>
      </trkpt>
      <trkpt lat="43.76833" lon="3.85972">
        <ele>84.6</ele>
        <time>2025-03-25T16:33:31.000Z</time>
      </trkpt>
      <trkpt lat="43.76851" lon="3.85981">
        <ele>85.4</ele>
        <time>2025-03-25T16:33:38.000Z</time>
      </trkpt>
      <trkpt lat="43.76854" lon="3.85982">
        <ele>85.6</ele>
        <time>2025-03-25T16:33:39.000Z</time>
      </trkpt>
      <trkpt lat="43.76872" lon="3.85987">
        <ele>86.4</ele>
        <time>2025-03-25T16:33:46.000Z</time>
      </trkpt>
      <trkpt lat="43.76884" lon="3.8599">
        <ele>86.8</ele>
        <time>2025-03-25T16:33:51.000Z</time>
      </trkpt>
      <trkpt lat="43.76893" lon="3.85992">
        <ele>88</ele>
        <time>2025-03-25T16:33:54.000Z</time>
      </trkpt>
      <trkpt lat="43.76905" lon="3.85994">
        <ele>89</ele>
        <time>2025-03-25T16:33:59.000Z</time>
      </trkpt>
      <trkpt lat="43.76925" lon="3.85999">
        <ele>89.6</ele>
        <time>2025-03-25T16:34:07.000Z</time>
      </trkpt>
      <trkpt lat="43.76933" lon="3.86001">
        <ele>90.2</ele>
        <time>2025-03-25T16:34:10.000Z</time>
      </trkpt>
      <trkpt lat="43.76952" lon="3.86005">
        <ele>90.6</ele>
        <time>2025-03-25T16:34:17.000Z</time>
      </trkpt>
      <trkpt lat="43.7697" lon="3.86007">
        <ele>90.2</ele>
        <time>2025-03-25T16:34:25.000Z</time>
      </trkpt>
      <trkpt lat="43.76991" lon="3.86012">
        <ele>90.4</ele>
        <time>2025-03-25T16:34:32.000Z</time>
      </trkpt>
      <trkpt lat="43.77012" lon="3.86016">
        <ele>89.8</ele>
        <time>2025-03-25T16:34:40.000Z</time>
      </trkpt>
      <trkpt lat="43.77031" lon="3.86021">
        <ele>90.6</ele>
        <time>2025-03-25T16:34:46.000Z</time>
      </trkpt>
      <trkpt lat="43.77049" lon="3.86028">
        <ele>89.4</ele>
        <time>2025-03-25T16:34:53.000Z</time>
      </trkpt>
      <trkpt lat="43.77067" lon="3.86039">
        <ele>90.4</ele>
        <time>2025-03-25T16:35:00.000Z</time>
      </trkpt>
      <trkpt lat="43.77083" lon="3.86052">
        <ele>89.8</ele>
        <time>2025-03-25T16:35:07.000Z</time>
      </trkpt>
      <trkpt lat="43.77101" lon="3.86061">
        <ele>90.4</ele>
        <time>2025-03-25T16:35:13.000Z</time>
      </trkpt>
      <trkpt lat="43.77121" lon="3.86067">
        <ele>90.2</ele>
        <time>2025-03-25T16:35:20.000Z</time>
      </trkpt>
      <trkpt lat="43.77139" lon="3.86073">
        <ele>90.6</ele>
        <time>2025-03-25T16:35:27.000Z</time>
      </trkpt>
      <trkpt lat="43.77144" lon="3.86075">
        <ele>90</ele>
        <time>2025-03-25T16:35:29.000Z</time>
      </trkpt>
      <trkpt lat="43.77163" lon="3.86084">
        <ele>90.2</ele>
        <time>2025-03-25T16:35:36.000Z</time>
      </trkpt>
      <trkpt lat="43.77182" lon="3.86094">
        <ele>89.6</ele>
        <time>2025-03-25T16:35:44.000Z</time>
      </trkpt>
      <trkpt lat="43.77188" lon="3.86096">
        <ele>89</ele>
        <time>2025-03-25T16:35:47.000Z</time>
      </trkpt>
      <trkpt lat="43.77206" lon="3.86101">
        <ele>88.4</ele>
        <time>2025-03-25T16:35:53.000Z</time>
      </trkpt>
      <trkpt lat="43.77226" lon="3.86107">
        <ele>88.2</ele>
        <time>2025-03-25T16:35:59.000Z</time>
      </trkpt>
      <trkpt lat="43.77231" lon="3.86108">
        <ele>87.6</ele>
        <time>2025-03-25T16:36:01.000Z</time>
      </trkpt>
      <trkpt lat="43.77237" lon="3.8611">
        <ele>86.6</ele>
        <time>2025-03-25T16:36:03.000Z</time>
      </trkpt>
      <trkpt lat="43.77256" lon="3.86117">
        <ele>86.2</ele>
        <time>2025-03-25T16:36:09.000Z</time>
      </trkpt>
      <trkpt lat="43.77265" lon="3.86119">
        <ele>85.4</ele>
        <time>2025-03-25T16:36:12.000Z</time>
      </trkpt>
      <trkpt lat="43.77273" lon="3.86123">
        <ele>84.2</ele>
        <time>2025-03-25T16:36:15.000Z</time>
      </trkpt>
      <trkpt lat="43.7729" lon="3.86137">
        <ele>84</ele>
        <time>2025-03-25T16:36:23.000Z</time>
      </trkpt>
      <trkpt lat="43.77293" lon="3.86141">
        <ele>83</ele>
        <time>2025-03-25T16:36:25.000Z</time>
      </trkpt>
      <trkpt lat="43.77308" lon="3.86156">
        <ele>83.6</ele>
        <time>2025-03-25T16:36:32.000Z</time>
      </trkpt>
      <trkpt lat="43.77312" lon="3.8616">
        <ele>84</ele>
        <time>2025-03-25T16:36:34.000Z</time>
      </trkpt>
      <trkpt lat="43.77331" lon="3.86173">
        <ele>85</ele>
        <time>2025-03-25T16:36:41.000Z</time>
      </trkpt>
      <trkpt lat="43.7735" lon="3.86174">
        <ele>84.8</ele>
        <time>2025-03-25T16:36:48.000Z</time>
      </trkpt>
      <trkpt lat="43.77371" lon="3.86167">
        <ele>84.4</ele>
        <time>2025-03-25T16:36:55.000Z</time>
      </trkpt>
      <trkpt lat="43.7738" lon="3.86161">
        <ele>83.8</ele>
        <time>2025-03-25T16:36:58.000Z</time>
      </trkpt>
      <trkpt lat="43.77398" lon="3.86157">
        <ele>83</ele>
        <time>2025-03-25T16:37:04.000Z</time>
      </trkpt>
      <trkpt lat="43.77416" lon="3.86161">
        <ele>83</ele>
        <time>2025-03-25T16:37:10.000Z</time>
      </trkpt>
      <trkpt lat="43.77433" lon="3.86171">
        <ele>83</ele>
        <time>2025-03-25T16:37:16.000Z</time>
      </trkpt>
      <trkpt lat="43.77447" lon="3.8618">
        <ele>82.8</ele>
        <time>2025-03-25T16:37:21.000Z</time>
      </trkpt>
      <trkpt lat="43.77465" lon="3.86192">
        <ele>82.2</ele>
        <time>2025-03-25T16:37:28.000Z</time>
      </trkpt>
      <trkpt lat="43.77484" lon="3.86203">
        <ele>83.2</ele>
        <time>2025-03-25T16:37:35.000Z</time>
      </trkpt>
      <trkpt lat="43.77502" lon="3.86212">
        <ele>82.6</ele>
        <time>2025-03-25T16:37:42.000Z</time>
      </trkpt>
      <trkpt lat="43.7752" lon="3.8622">
        <ele>83.4</ele>
        <time>2025-03-25T16:37:49.000Z</time>
      </trkpt>
      <trkpt lat="43.77533" lon="3.86226">
        <ele>83.6</ele>
        <time>2025-03-25T16:37:54.000Z</time>
      </trkpt>
      <trkpt lat="43.77552" lon="3.86232">
        <ele>83</ele>
        <time>2025-03-25T16:38:01.000Z</time>
      </trkpt>
      <trkpt lat="43.77571" lon="3.86238">
        <ele>83.4</ele>
        <time>2025-03-25T16:38:08.000Z</time>
      </trkpt>
      <trkpt lat="43.77589" lon="3.86246">
        <ele>83.4</ele>
        <time>2025-03-25T16:38:15.000Z</time>
      </trkpt>
      <trkpt lat="43.77608" lon="3.86256">
        <ele>83.2</ele>
        <time>2025-03-25T16:38:22.000Z</time>
      </trkpt>
      <trkpt lat="43.77619" lon="3.86259">
        <ele>83.8</ele>
        <time>2025-03-25T16:38:26.000Z</time>
      </trkpt>
      <trkpt lat="43.77638" lon="3.86267">
        <ele>85</ele>
        <time>2025-03-25T16:38:34.000Z</time>
      </trkpt>
      <trkpt lat="43.77649" lon="3.86268">
        <ele>86</ele>
        <time>2025-03-25T16:38:38.000Z</time>
      </trkpt>
      <trkpt lat="43.77666" lon="3.8628">
        <ele>85.6</ele>
        <time>2025-03-25T16:38:44.000Z</time>
      </trkpt>
      <trkpt lat="43.77681" lon="3.86296">
        <ele>85.4</ele>
        <time>2025-03-25T16:38:51.000Z</time>
      </trkpt>
      <trkpt lat="43.77695" lon="3.86313">
        <ele>85</ele>
        <time>2025-03-25T16:38:59.000Z</time>
      </trkpt>
      <trkpt lat="43.7771" lon="3.86331">
        <ele>86.2</ele>
        <time>2025-03-25T16:39:09.000Z</time>
      </trkpt>
      <trkpt lat="43.77724" lon="3.86348">
        <ele>85.6</ele>
        <time>2025-03-25T16:39:16.000Z</time>
      </trkpt>
      <trkpt lat="43.77739" lon="3.86365">
        <ele>86</ele>
        <time>2025-03-25T16:39:23.000Z</time>
      </trkpt>
      <trkpt lat="43.77753" lon="3.86381">
        <ele>87</ele>
        <time>2025-03-25T16:39:30.000Z</time>
      </trkpt>
      <trkpt lat="43.77769" lon="3.86398">
        <ele>86.8</ele>
        <time>2025-03-25T16:39:39.000Z</time>
      </trkpt>
      <trkpt lat="43.77783" lon="3.86415">
        <ele>86.6</ele>
        <time>2025-03-25T16:39:46.000Z</time>
      </trkpt>
      <trkpt lat="43.77798" lon="3.8643">
        <ele>86.6</ele>
        <time>2025-03-25T16:39:53.000Z</time>
      </trkpt>
      <trkpt lat="43.77813" lon="3.86445">
        <ele>86.6</ele>
        <time>2025-03-25T16:40:00.000Z</time>
      </trkpt>
      <trkpt lat="43.77829" lon="3.8646">
        <ele>87.4</ele>
        <time>2025-03-25T16:40:08.000Z</time>
      </trkpt>
      <trkpt lat="43.77836" lon="3.86465">
        <ele>88</ele>
        <time>2025-03-25T16:40:11.000Z</time>
      </trkpt>
      <trkpt lat="43.77853" lon="3.86481">
        <ele>88.2</ele>
        <time>2025-03-25T16:40:19.000Z</time>
      </trkpt>
      <trkpt lat="43.7787" lon="3.86498">
        <ele>87.6</ele>
        <time>2025-03-25T16:40:26.000Z</time>
      </trkpt>
      <trkpt lat="43.77886" lon="3.86513">
        <ele>88.2</ele>
        <time>2025-03-25T16:40:32.000Z</time>
      </trkpt>
      <trkpt lat="43.77902" lon="3.86526">
        <ele>88.8</ele>
        <time>2025-03-25T16:40:38.000Z</time>
      </trkpt>
      <trkpt lat="43.77918" lon="3.86541">
        <ele>88.4</ele>
        <time>2025-03-25T16:40:45.000Z</time>
      </trkpt>
      <trkpt lat="43.77927" lon="3.8655">
        <ele>89</ele>
        <time>2025-03-25T16:40:49.000Z</time>
      </trkpt>
      <trkpt lat="43.77944" lon="3.86564">
        <ele>89.6</ele>
        <time>2025-03-25T16:40:56.000Z</time>
      </trkpt>
      <trkpt lat="43.77951" lon="3.8657">
        <ele>90</ele>
        <time>2025-03-25T16:40:59.000Z</time>
      </trkpt>
      <trkpt lat="43.77966" lon="3.86585">
        <ele>90.8</ele>
        <time>2025-03-25T16:41:06.000Z</time>
      </trkpt>
      <trkpt lat="43.77982" lon="3.86596">
        <ele>90.8</ele>
        <time>2025-03-25T16:41:13.000Z</time>
      </trkpt>
      <trkpt lat="43.77988" lon="3.86598">
        <ele>91</ele>
        <time>2025-03-25T16:41:15.000Z</time>
      </trkpt>
      <trkpt lat="43.78003" lon="3.86605">
        <ele>91.2</ele>
        <time>2025-03-25T16:41:21.000Z</time>
      </trkpt>
      <trkpt lat="43.78017" lon="3.86618">
        <ele>92.2</ele>
        <time>2025-03-25T16:41:27.000Z</time>
      </trkpt>
      <trkpt lat="43.7803" lon="3.86639">
        <ele>92</ele>
        <time>2025-03-25T16:41:34.000Z</time>
      </trkpt>
      <trkpt lat="43.7804" lon="3.8666">
        <ele>92.8</ele>
        <time>2025-03-25T16:41:41.000Z</time>
      </trkpt>
      <trkpt lat="43.78051" lon="3.86684">
        <ele>93</ele>
        <time>2025-03-25T16:41:49.000Z</time>
      </trkpt>
      <trkpt lat="43.78053" lon="3.8669">
        <ele>93.2</ele>
        <time>2025-03-25T16:41:51.000Z</time>
      </trkpt>
      <trkpt lat="43.78063" lon="3.86712">
        <ele>94.2</ele>
        <time>2025-03-25T16:41:58.000Z</time>
      </trkpt>
      <trkpt lat="43.78066" lon="3.86721">
        <ele>94.4</ele>
        <time>2025-03-25T16:42:01.000Z</time>
      </trkpt>
      <trkpt lat="43.78075" lon="3.86744">
        <ele>94.8</ele>
        <time>2025-03-25T16:42:08.000Z</time>
      </trkpt>
      <trkpt lat="43.7808" lon="3.86752">
        <ele>95.4</ele>
        <time>2025-03-25T16:42:11.000Z</time>
      </trkpt>
      <trkpt lat="43.78085" lon="3.86777">
        <ele>96</ele>
        <time>2025-03-25T16:42:18.000Z</time>
      </trkpt>
      <trkpt lat="43.78088" lon="3.868">
        <ele>96.4</ele>
        <time>2025-03-25T16:42:24.000Z</time>
      </trkpt>
      <trkpt lat="43.78088" lon="3.86827">
        <ele>97.2</ele>
        <time>2025-03-25T16:42:30.000Z</time>
      </trkpt>
      <trkpt lat="43.78087" lon="3.86852">
        <ele>97</ele>
        <time>2025-03-25T16:42:37.000Z</time>
      </trkpt>
      <trkpt lat="43.78086" lon="3.86878">
        <ele>97.2</ele>
        <time>2025-03-25T16:42:44.000Z</time>
      </trkpt>
      <trkpt lat="43.78086" lon="3.86885">
        <ele>97.4</ele>
        <time>2025-03-25T16:42:46.000Z</time>
      </trkpt>
      <trkpt lat="43.78084" lon="3.8691">
        <ele>97.2</ele>
        <time>2025-03-25T16:42:52.000Z</time>
      </trkpt>
      <trkpt lat="43.78082" lon="3.86938">
        <ele>97.2</ele>
        <time>2025-03-25T16:42:59.000Z</time>
      </trkpt>
      <trkpt lat="43.78078" lon="3.86965">
        <ele>98</ele>
        <time>2025-03-25T16:43:06.000Z</time>
      </trkpt>
      <trkpt lat="43.78081" lon="3.86983">
        <ele>97.8</ele>
        <time>2025-03-25T16:43:11.000Z</time>
      </trkpt>
      <trkpt lat="43.781" lon="3.86988">
        <ele>97.4</ele>
        <time>2025-03-25T16:43:20.000Z</time>
      </trkpt>
      <trkpt lat="43.78119" lon="3.86989">
        <ele>97.6</ele>
        <time>2025-03-25T16:43:28.000Z</time>
      </trkpt>
      <trkpt lat="43.78137" lon="3.86987">
        <ele>98.2</ele>
        <time>2025-03-25T16:43:34.000Z</time>
      </trkpt>
      <trkpt lat="43.78156" lon="3.86987">
        <ele>98.4</ele>
        <time>2025-03-25T16:43:40.000Z</time>
      </trkpt>
      <trkpt lat="43.78159" lon="3.86987">
        <ele>98.4</ele>
        <time>2025-03-25T16:43:41.000Z</time>
      </trkpt>
      <trkpt lat="43.78179" lon="3.86985">
        <ele>99</ele>
        <time>2025-03-25T16:43:48.000Z</time>
      </trkpt>
      <trkpt lat="43.78199" lon="3.86985">
        <ele>98.6</ele>
        <time>2025-03-25T16:43:55.000Z</time>
      </trkpt>
      <trkpt lat="43.78217" lon="3.86987">
        <ele>99.4</ele>
        <time>2025-03-25T16:44:02.000Z</time>
      </trkpt>
      <trkpt lat="43.78238" lon="3.86988">
        <ele>98.6</ele>
        <time>2025-03-25T16:44:09.000Z</time>
      </trkpt>
      <trkpt lat="43.7825" lon="3.86987">
        <ele>99.6</ele>
        <time>2025-03-25T16:44:13.000Z</time>
      </trkpt>
      <trkpt lat="43.78269" lon="3.8698">
        <ele>99.2</ele>
        <time>2025-03-25T16:44:21.000Z</time>
      </trkpt>
      <trkpt lat="43.78283" lon="3.86963">
        <ele>100.6</ele>
        <time>2025-03-25T16:44:29.000Z</time>
      </trkpt>
      <trkpt lat="43.78296" lon="3.86945">
        <ele>101.6</ele>
        <time>2025-03-25T16:44:36.000Z</time>
      </trkpt>
      <trkpt lat="43.78305" lon="3.86923">
        <ele>102.4</ele>
        <time>2025-03-25T16:44:43.000Z</time>
      </trkpt>
      <trkpt lat="43.78313" lon="3.86903">
        <ele>102.8</ele>
        <time>2025-03-25T16:44:49.000Z</time>
      </trkpt>
      <trkpt lat="43.78325" lon="3.86883">
        <ele>103.8</ele>
        <time>2025-03-25T16:44:56.000Z</time>
      </trkpt>
      <trkpt lat="43.78327" lon="3.86881">
        <ele>103.8</ele>
        <time>2025-03-25T16:44:57.000Z</time>
      </trkpt>
      <trkpt lat="43.7834" lon="3.86865">
        <ele>105</ele>
        <time>2025-03-25T16:45:04.000Z</time>
      </trkpt>
      <trkpt lat="43.78355" lon="3.8685">
        <ele>105.2</ele>
        <time>2025-03-25T16:45:10.000Z</time>
      </trkpt>
      <trkpt lat="43.78371" lon="3.86834">
        <ele>105.8</ele>
        <time>2025-03-25T16:45:17.000Z</time>
      </trkpt>
      <trkpt lat="43.78376" lon="3.86826">
        <ele>106</ele>
        <time>2025-03-25T16:45:20.000Z</time>
      </trkpt>
      <trkpt lat="43.7839" lon="3.86809">
        <ele>106.6</ele>
        <time>2025-03-25T16:45:27.000Z</time>
      </trkpt>
      <trkpt lat="43.78392" lon="3.86803">
        <ele>107</ele>
        <time>2025-03-25T16:45:29.000Z</time>
      </trkpt>
      <trkpt lat="43.78403" lon="3.86782">
        <ele>107.8</ele>
        <time>2025-03-25T16:45:37.000Z</time>
      </trkpt>
      <trkpt lat="43.78407" lon="3.86777">
        <ele>108</ele>
        <time>2025-03-25T16:45:39.000Z</time>
      </trkpt>
      <trkpt lat="43.78421" lon="3.86758">
        <ele>108.8</ele>
        <time>2025-03-25T16:45:46.000Z</time>
      </trkpt>
      <trkpt lat="43.78427" lon="3.86751">
        <ele>109</ele>
        <time>2025-03-25T16:45:49.000Z</time>
      </trkpt>
      <trkpt lat="43.78441" lon="3.86732">
        <ele>109</ele>
        <time>2025-03-25T16:45:56.000Z</time>
      </trkpt>
      <trkpt lat="43.78456" lon="3.86718">
        <ele>110</ele>
        <time>2025-03-25T16:46:03.000Z</time>
      </trkpt>
      <trkpt lat="43.78458" lon="3.86716">
        <ele>110.2</ele>
        <time>2025-03-25T16:46:04.000Z</time>
      </trkpt>
      <trkpt lat="43.7847" lon="3.86709">
        <ele>111.2</ele>
        <time>2025-03-25T16:46:11.000Z</time>
      </trkpt>
      <trkpt lat="43.7848" lon="3.86706">
        <ele>112.4</ele>
        <time>2025-03-25T16:46:16.000Z</time>
      </trkpt>
      <trkpt lat="43.7849" lon="3.86708">
        <ele>113.4</ele>
        <time>2025-03-25T16:46:21.000Z</time>
      </trkpt>
      <trkpt lat="43.785" lon="3.86711">
        <ele>114.6</ele>
        <time>2025-03-25T16:46:26.000Z</time>
      </trkpt>
      <trkpt lat="43.7851" lon="3.86711">
        <ele>115.8</ele>
        <time>2025-03-25T16:46:31.000Z</time>
      </trkpt>
      <trkpt lat="43.78522" lon="3.86713">
        <ele>116.8</ele>
        <time>2025-03-25T16:46:37.000Z</time>
      </trkpt>
      <trkpt lat="43.7854" lon="3.86719">
        <ele>118</ele>
        <time>2025-03-25T16:46:46.000Z</time>
      </trkpt>
      <trkpt lat="43.78555" lon="3.86716">
        <ele>119.2</ele>
        <time>2025-03-25T16:46:52.000Z</time>
      </trkpt>
      <trkpt lat="43.78568" lon="3.86712">
        <ele>120.4</ele>
        <time>2025-03-25T16:46:57.000Z</time>
      </trkpt>
      <trkpt lat="43.78576" lon="3.86707">
        <ele>121.6</ele>
        <time>2025-03-25T16:47:01.000Z</time>
      </trkpt>
      <trkpt lat="43.78582" lon="3.86701">
        <ele>122.6</ele>
        <time>2025-03-25T16:47:05.000Z</time>
      </trkpt>
      <trkpt lat="43.78592" lon="3.86695">
        <ele>124</ele>
        <time>2025-03-25T16:47:11.000Z</time>
      </trkpt>
      <trkpt lat="43.78597" lon="3.86692">
        <ele>124.4</ele>
        <time>2025-03-25T16:47:14.000Z</time>
      </trkpt>
      <trkpt lat="43.78604" lon="3.86688">
        <ele>125.2</ele>
        <time>2025-03-25T16:47:20.000Z</time>
      </trkpt>
      <trkpt lat="43.78607" lon="3.86686">
        <ele>126.2</ele>
        <time>2025-03-25T16:47:22.000Z</time>
      </trkpt>
      <trkpt lat="43.78611" lon="3.86682">
        <ele>127.2</ele>
        <time>2025-03-25T16:47:25.000Z</time>
      </trkpt>
      <trkpt lat="43.78612" lon="3.8668">
        <ele>127.4</ele>
        <time>2025-03-25T16:47:26.000Z</time>
      </trkpt>
      <trkpt lat="43.78617" lon="3.86671">
        <ele>128.6</ele>
        <time>2025-03-25T16:47:31.000Z</time>
      </trkpt>
      <trkpt lat="43.78618" lon="3.86665">
        <ele>130</ele>
        <time>2025-03-25T16:47:35.000Z</time>
      </trkpt>
      <trkpt lat="43.78622" lon="3.86659">
        <ele>131</ele>
        <time>2025-03-25T16:47:39.000Z</time>
      </trkpt>
      <trkpt lat="43.78627" lon="3.8665">
        <ele>132</ele>
        <time>2025-03-25T16:47:45.000Z</time>
      </trkpt>
      <trkpt lat="43.7863" lon="3.86643">
        <ele>133.2</ele>
        <time>2025-03-25T16:47:49.000Z</time>
      </trkpt>
      <trkpt lat="43.7863" lon="3.86641">
        <ele>133.6</ele>
        <time>2025-03-25T16:47:50.000Z</time>
      </trkpt>
      <trkpt lat="43.78632" lon="3.86635">
        <ele>134.4</ele>
        <time>2025-03-25T16:47:53.000Z</time>
      </trkpt>
      <trkpt lat="43.78633" lon="3.86633">
        <ele>134.4</ele>
        <time>2025-03-25T16:47:54.000Z</time>
      </trkpt>
      <trkpt lat="43.78638" lon="3.86625">
        <ele>135.4</ele>
        <time>2025-03-25T16:47:59.000Z</time>
      </trkpt>
      <trkpt lat="43.78642" lon="3.86616">
        <ele>136.4</ele>
        <time>2025-03-25T16:48:04.000Z</time>
      </trkpt>
      <trkpt lat="43.78651" lon="3.86602">
        <ele>137.4</ele>
        <time>2025-03-25T16:48:12.000Z</time>
      </trkpt>
      <trkpt lat="43.78654" lon="3.86596">
        <ele>138.6</ele>
        <time>2025-03-25T16:48:16.000Z</time>
      </trkpt>
      <trkpt lat="43.78661" lon="3.86584">
        <ele>139.6</ele>
        <time>2025-03-25T16:48:23.000Z</time>
      </trkpt>
      <trkpt lat="43.78679" lon="3.86571">
        <ele>140.2</ele>
        <time>2025-03-25T16:48:34.000Z</time>
      </trkpt>
      <trkpt lat="43.78692" lon="3.86557">
        <ele>140.8</ele>
        <time>2025-03-25T16:48:42.000Z</time>
      </trkpt>
      <trkpt lat="43.78697" lon="3.86551">
        <ele>142</ele>
        <time>2025-03-25T16:48:46.000Z</time>
      </trkpt>
      <trkpt lat="43.78702" lon="3.86547">
        <ele>143.2</ele>
        <time>2025-03-25T16:48:49.000Z</time>
      </trkpt>
      <trkpt lat="43.7871" lon="3.86543">
        <ele>144.4</ele>
        <time>2025-03-25T16:48:53.000Z</time>
      </trkpt>
      <trkpt lat="43.78729" lon="3.86538">
        <ele>145.2</ele>
        <time>2025-03-25T16:49:01.000Z</time>
      </trkpt>
      <trkpt lat="43.78734" lon="3.86537">
        <ele>145.4</ele>
        <time>2025-03-25T16:49:03.000Z</time>
      </trkpt>
      <trkpt lat="43.78755" lon="3.86535">
        <ele>146.4</ele>
        <time>2025-03-25T16:49:11.000Z</time>
      </trkpt>
      <trkpt lat="43.78758" lon="3.86535">
        <ele>146.4</ele>
        <time>2025-03-25T16:49:12.000Z</time>
      </trkpt>
      <trkpt lat="43.78767" lon="3.86534">
        <ele>147.8</ele>
        <time>2025-03-25T16:49:17.000Z</time>
      </trkpt>
      <trkpt lat="43.78772" lon="3.86534">
        <ele>148.6</ele>
        <time>2025-03-25T16:49:20.000Z</time>
      </trkpt>
      <trkpt lat="43.78773" lon="3.86534">
        <ele>148.8</ele>
        <time>2025-03-25T16:49:21.000Z</time>
      </trkpt>
      <trkpt lat="43.78779" lon="3.86537">
        <ele>150</ele>
        <time>2025-03-25T16:49:26.000Z</time>
      </trkpt>
      <trkpt lat="43.78785" lon="3.8654">
        <ele>151.2</ele>
        <time>2025-03-25T16:49:31.000Z</time>
      </trkpt>
      <trkpt lat="43.78789" lon="3.8654">
        <ele>152.4</ele>
        <time>2025-03-25T16:49:34.000Z</time>
      </trkpt>
      <trkpt lat="43.78795" lon="3.8654">
        <ele>153.8</ele>
        <time>2025-03-25T16:49:38.000Z</time>
      </trkpt>
      <trkpt lat="43.78801" lon="3.86539">
        <ele>155</ele>
        <time>2025-03-25T16:49:43.000Z</time>
      </trkpt>
      <trkpt lat="43.78806" lon="3.86536">
        <ele>156</ele>
        <time>2025-03-25T16:49:47.000Z</time>
      </trkpt>
      <trkpt lat="43.78811" lon="3.86534">
        <ele>157.2</ele>
        <time>2025-03-25T16:49:51.000Z</time>
      </trkpt>
      <trkpt lat="43.78816" lon="3.86533">
        <ele>158.4</ele>
        <time>2025-03-25T16:49:55.000Z</time>
      </trkpt>
      <trkpt lat="43.78822" lon="3.86534">
        <ele>159.6</ele>
        <time>2025-03-25T16:49:59.000Z</time>
      </trkpt>
      <trkpt lat="43.78828" lon="3.86534">
        <ele>160.8</ele>
        <time>2025-03-25T16:50:03.000Z</time>
      </trkpt>
      <trkpt lat="43.78838" lon="3.8654">
        <ele>162</ele>
        <time>2025-03-25T16:50:10.000Z</time>
      </trkpt>
      <trkpt lat="43.78841" lon="3.86543">
        <ele>162.2</ele>
        <time>2025-03-25T16:50:13.000Z</time>
      </trkpt>
      <trkpt lat="43.78842" lon="3.86545">
        <ele>162.6</ele>
        <time>2025-03-25T16:50:15.000Z</time>
      </trkpt>
      <trkpt lat="43.78847" lon="3.86552">
        <ele>162.6</ele>
        <time>2025-03-25T16:50:18.000Z</time>
      </trkpt>
      <trkpt lat="43.78858" lon="3.86564">
        <ele>163</ele>
        <time>2025-03-25T16:50:25.000Z</time>
      </trkpt>
      <trkpt lat="43.78861" lon="3.86567">
        <ele>163.8</ele>
        <time>2025-03-25T16:50:28.000Z</time>
      </trkpt>
      <trkpt lat="43.78863" lon="3.86567">
        <ele>164.2</ele>
        <time>2025-03-25T16:50:30.000Z</time>
      </trkpt>
      <trkpt lat="43.78865" lon="3.86567">
        <ele>165</ele>
        <time>2025-03-25T16:50:32.000Z</time>
      </trkpt>
      <trkpt lat="43.78867" lon="3.86568">
        <ele>165.4</ele>
        <time>2025-03-25T16:50:33.000Z</time>
      </trkpt>
      <trkpt lat="43.78872" lon="3.86571">
        <ele>166.6</ele>
        <time>2025-03-25T16:50:37.000Z</time>
      </trkpt>
      <trkpt lat="43.78882" lon="3.86577">
        <ele>167.8</ele>
        <time>2025-03-25T16:50:43.000Z</time>
      </trkpt>
      <trkpt lat="43.78888" lon="3.8658">
        <ele>169</ele>
        <time>2025-03-25T16:50:48.000Z</time>
      </trkpt>
      <trkpt lat="43.78891" lon="3.8658">
        <ele>170</ele>
        <time>2025-03-25T16:50:51.000Z</time>
      </trkpt>
      <trkpt lat="43.78899" lon="3.86579">
        <ele>171.2</ele>
        <time>2025-03-25T16:50:55.000Z</time>
      </trkpt>
      <trkpt lat="43.78909" lon="3.86574">
        <ele>172.4</ele>
        <time>2025-03-25T16:51:01.000Z</time>
      </trkpt>
      <trkpt lat="43.78914" lon="3.86571">
        <ele>173.6</ele>
        <time>2025-03-25T16:51:05.000Z</time>
      </trkpt>
      <trkpt lat="43.7892" lon="3.86566">
        <ele>174.8</ele>
        <time>2025-03-25T16:51:09.000Z</time>
      </trkpt>
      <trkpt lat="43.78926" lon="3.86563">
        <ele>176</ele>
        <time>2025-03-25T16:51:13.000Z</time>
      </trkpt>
      <trkpt lat="43.78932" lon="3.86556">
        <ele>177.2</ele>
        <time>2025-03-25T16:51:18.000Z</time>
      </trkpt>
      <trkpt lat="43.78937" lon="3.86549">
        <ele>178.4</ele>
        <time>2025-03-25T16:51:23.000Z</time>
      </trkpt>
      <trkpt lat="43.78942" lon="3.86543">
        <ele>179.6</ele>
        <time>2025-03-25T16:51:27.000Z</time>
      </trkpt>
      <trkpt lat="43.7895" lon="3.86535">
        <ele>180.8</ele>
        <time>2025-03-25T16:51:33.000Z</time>
      </trkpt>
      <trkpt lat="43.78955" lon="3.8653">
        <ele>181.8</ele>
        <time>2025-03-25T16:51:37.000Z</time>
      </trkpt>
      <trkpt lat="43.78963" lon="3.86523">
        <ele>183</ele>
        <time>2025-03-25T16:51:43.000Z</time>
      </trkpt>
      <trkpt lat="43.78969" lon="3.86517">
        <ele>184.2</ele>
        <time>2025-03-25T16:51:48.000Z</time>
      </trkpt>
      <trkpt lat="43.78973" lon="3.86511">
        <ele>185.4</ele>
        <time>2025-03-25T16:51:52.000Z</time>
      </trkpt>
      <trkpt lat="43.78977" lon="3.86506">
        <ele>186.4</ele>
        <time>2025-03-25T16:51:57.000Z</time>
      </trkpt>
      <trkpt lat="43.78983" lon="3.86501">
        <ele>187.8</ele>
        <time>2025-03-25T16:52:03.000Z</time>
      </trkpt>
      <trkpt lat="43.7899" lon="3.86499">
        <ele>189</ele>
        <time>2025-03-25T16:52:08.000Z</time>
      </trkpt>
      <trkpt lat="43.78995" lon="3.86498">
        <ele>190</ele>
        <time>2025-03-25T16:52:13.000Z</time>
      </trkpt>
      <trkpt lat="43.78998" lon="3.865">
        <ele>190.8</ele>
        <time>2025-03-25T16:52:15.000Z</time>
      </trkpt>
      <trkpt lat="43.78999" lon="3.865">
        <ele>191.2</ele>
        <time>2025-03-25T16:52:17.000Z</time>
      </trkpt>
      <trkpt lat="43.79" lon="3.865">
        <ele>191.4</ele>
        <time>2025-03-25T16:52:18.000Z</time>
      </trkpt>
      <trkpt lat="43.79001" lon="3.865">
        <ele>192</ele>
        <time>2025-03-25T16:52:20.000Z</time>
      </trkpt>
      <trkpt lat="43.79002" lon="3.865">
        <ele>192.4</ele>
        <time>2025-03-25T16:52:21.000Z</time>
      </trkpt>
      <trkpt lat="43.79004" lon="3.86499">
        <ele>193.2</ele>
        <time>2025-03-25T16:52:24.000Z</time>
      </trkpt>
      <trkpt lat="43.79006" lon="3.86498">
        <ele>193.6</ele>
        <time>2025-03-25T16:52:26.000Z</time>
      </trkpt>
      <trkpt lat="43.79007" lon="3.86497">
        <ele>194</ele>
        <time>2025-03-25T16:52:28.000Z</time>
      </trkpt>
      <trkpt lat="43.79009" lon="3.86498">
        <ele>194.6</ele>
        <time>2025-03-25T16:52:30.000Z</time>
      </trkpt>
      <trkpt lat="43.79011" lon="3.86498">
        <ele>195.2</ele>
        <time>2025-03-25T16:52:32.000Z</time>
      </trkpt>
      <trkpt lat="43.79013" lon="3.86499">
        <ele>195.6</ele>
        <time>2025-03-25T16:52:34.000Z</time>
      </trkpt>
      <trkpt lat="43.79014" lon="3.86499">
        <ele>195.8</ele>
        <time>2025-03-25T16:52:35.000Z</time>
      </trkpt>
      <trkpt lat="43.79016" lon="3.86498">
        <ele>196.8</ele>
        <time>2025-03-25T16:52:38.000Z</time>
      </trkpt>
      <trkpt lat="43.79019" lon="3.86497">
        <ele>197.2</ele>
        <time>2025-03-25T16:52:40.000Z</time>
      </trkpt>
      <trkpt lat="43.79021" lon="3.86497">
        <ele>198</ele>
        <time>2025-03-25T16:52:42.000Z</time>
      </trkpt>
      <trkpt lat="43.79022" lon="3.86496">
        <ele>198.2</ele>
        <time>2025-03-25T16:52:43.000Z</time>
      </trkpt>
      <trkpt lat="43.79027" lon="3.8649">
        <ele>199</ele>
        <time>2025-03-25T16:52:47.000Z</time>
      </trkpt>
      <trkpt lat="43.79033" lon="3.86486">
        <ele>200.2</ele>
        <time>2025-03-25T16:52:52.000Z</time>
      </trkpt>
      <trkpt lat="43.79044" lon="3.86484">
        <ele>201.2</ele>
        <time>2025-03-25T16:53:00.000Z</time>
      </trkpt>
      <trkpt lat="43.79047" lon="3.86485">
        <ele>202</ele>
        <time>2025-03-25T16:53:03.000Z</time>
      </trkpt>
      <trkpt lat="43.79048" lon="3.86487">
        <ele>202.4</ele>
        <time>2025-03-25T16:53:05.000Z</time>
      </trkpt>
      <trkpt lat="43.79049" lon="3.86488">
        <ele>202.6</ele>
        <time>2025-03-25T16:53:06.000Z</time>
      </trkpt>
      <trkpt lat="43.7905" lon="3.8649">
        <ele>203.2</ele>
        <time>2025-03-25T16:53:08.000Z</time>
      </trkpt>
      <trkpt lat="43.79051" lon="3.86491">
        <ele>203.4</ele>
        <time>2025-03-25T16:53:09.000Z</time>
      </trkpt>
      <trkpt lat="43.79052" lon="3.86491">
        <ele>203.6</ele>
        <time>2025-03-25T16:53:10.000Z</time>
      </trkpt>
      <trkpt lat="43.79053" lon="3.86492">
        <ele>204.4</ele>
        <time>2025-03-25T16:53:13.000Z</time>
      </trkpt>
      <trkpt lat="43.79053" lon="3.86492">
        <ele>204.6</ele>
        <time>2025-03-25T16:53:14.000Z</time>
      </trkpt>
      <trkpt lat="43.79053" lon="3.86492">
        <ele>205.6</ele>
        <time>2025-03-25T16:53:18.000Z</time>
      </trkpt>
      <trkpt lat="43.79056" lon="3.86492">
        <ele>206.8</ele>
        <time>2025-03-25T16:53:23.000Z</time>
      </trkpt>
      <trkpt lat="43.79058" lon="3.86495">
        <ele>208.2</ele>
        <time>2025-03-25T16:53:28.000Z</time>
      </trkpt>
      <trkpt lat="43.7906" lon="3.86498">
        <ele>209.4</ele>
        <time>2025-03-25T16:53:33.000Z</time>
      </trkpt>
      <trkpt lat="43.79061" lon="3.865">
        <ele>210.6</ele>
        <time>2025-03-25T16:53:38.000Z</time>
      </trkpt>
      <trkpt lat="43.79062" lon="3.86503">
        <ele>211.6</ele>
        <time>2025-03-25T16:53:44.000Z</time>
      </trkpt>
      <trkpt lat="43.79064" lon="3.86503">
        <ele>213</ele>
        <time>2025-03-25T16:53:48.000Z</time>
      </trkpt>
      <trkpt lat="43.79066" lon="3.86503">
        <ele>214</ele>
        <time>2025-03-25T16:53:52.000Z</time>
      </trkpt>
      <trkpt lat="43.79069" lon="3.86501">
        <ele>215.2</ele>
        <time>2025-03-25T16:53:57.000Z</time>
      </trkpt>
      <trkpt lat="43.79074" lon="3.86501">
        <ele>216.4</ele>
        <time>2025-03-25T16:54:07.000Z</time>
      </trkpt>
      <trkpt lat="43.79076" lon="3.865">
        <ele>217.6</ele>
        <time>2025-03-25T16:54:11.000Z</time>
      </trkpt>
      <trkpt lat="43.79077" lon="3.86502">
        <ele>218.8</ele>
        <time>2025-03-25T16:54:16.000Z</time>
      </trkpt>
      <trkpt lat="43.7908" lon="3.86503">
        <ele>220</ele>
        <time>2025-03-25T16:54:21.000Z</time>
      </trkpt>
      <trkpt lat="43.79083" lon="3.86504">
        <ele>221.2</ele>
        <time>2025-03-25T16:54:25.000Z</time>
      </trkpt>
      <trkpt lat="43.79086" lon="3.86502">
        <ele>222.4</ele>
        <time>2025-03-25T16:54:30.000Z</time>
      </trkpt>
      <trkpt lat="43.79087" lon="3.865">
        <ele>223.6</ele>
        <time>2025-03-25T16:54:34.000Z</time>
      </trkpt>
      <trkpt lat="43.79091" lon="3.86495">
        <ele>224.8</ele>
        <time>2025-03-25T16:54:39.000Z</time>
      </trkpt>
      <trkpt lat="43.79093" lon="3.86494">
        <ele>224.6</ele>
        <time>2025-03-25T16:54:41.000Z</time>
      </trkpt>
      <trkpt lat="43.79094" lon="3.86495">
        <ele>224.4</ele>
        <time>2025-03-25T16:54:43.000Z</time>
      </trkpt>
      <trkpt lat="43.79101" lon="3.86479">
        <ele>223.6</ele>
        <time>2025-03-25T16:55:18.000Z</time>
      </trkpt>
      <trkpt lat="43.79103" lon="3.86473">
        <ele>224.8</ele>
        <time>2025-03-25T16:55:32.000Z</time>
      </trkpt>
      <trkpt lat="43.79108" lon="3.86468">
        <ele>225.8</ele>
        <time>2025-03-25T16:55:43.000Z</time>
      </trkpt>
      <trkpt lat="43.79108" lon="3.86467">
        <ele>225.8</ele>
        <time>2025-03-25T16:55:44.000Z</time>
      </trkpt>
      <trkpt lat="43.79111" lon="3.86462">
        <ele>226.2</ele>
        <time>2025-03-25T16:55:49.000Z</time>
      </trkpt>
      <trkpt lat="43.79115" lon="3.86457">
        <ele>226.8</ele>
        <time>2025-03-25T16:55:55.000Z</time>
      </trkpt>
      <trkpt lat="43.79117" lon="3.86455">
        <ele>227</ele>
        <time>2025-03-25T16:55:58.000Z</time>
      </trkpt>
      <trkpt lat="43.7912" lon="3.8645">
        <ele>227.4</ele>
        <time>2025-03-25T16:56:03.000Z</time>
      </trkpt>
      <trkpt lat="43.79121" lon="3.86446">
        <ele>227.2</ele>
        <time>2025-03-25T16:56:07.000Z</time>
      </trkpt>
      <trkpt lat="43.7912" lon="3.86444">
        <ele>225.8</ele>
        <time>2025-03-25T16:56:13.000Z</time>
      </trkpt>
      <trkpt lat="43.79121" lon="3.8644">
        <ele>224.8</ele>
        <time>2025-03-25T16:56:19.000Z</time>
      </trkpt>
      <trkpt lat="43.79124" lon="3.86438">
        <ele>223.6</ele>
        <time>2025-03-25T16:56:24.000Z</time>
      </trkpt>
      <trkpt lat="43.79127" lon="3.86437">
        <ele>222.4</ele>
        <time>2025-03-25T16:56:28.000Z</time>
      </trkpt>
      <trkpt lat="43.7913" lon="3.86436">
        <ele>221.6</ele>
        <time>2025-03-25T16:56:31.000Z</time>
      </trkpt>
      <trkpt lat="43.7913" lon="3.86435">
        <ele>221.4</ele>
        <time>2025-03-25T16:56:32.000Z</time>
      </trkpt>
      <trkpt lat="43.7913" lon="3.86433">
        <ele>220.2</ele>
        <time>2025-03-25T16:56:36.000Z</time>
      </trkpt>
      <trkpt lat="43.79131" lon="3.8643">
        <ele>219.2</ele>
        <time>2025-03-25T16:56:40.000Z</time>
      </trkpt>
      <trkpt lat="43.79133" lon="3.86426">
        <ele>218</ele>
        <time>2025-03-25T16:56:43.000Z</time>
      </trkpt>
      <trkpt lat="43.79134" lon="3.86425">
        <ele>217.8</ele>
        <time>2025-03-25T16:56:44.000Z</time>
      </trkpt>
      <trkpt lat="43.79136" lon="3.86423">
        <ele>217.2</ele>
        <time>2025-03-25T16:56:46.000Z</time>
      </trkpt>
      <trkpt lat="43.79137" lon="3.86422">
        <ele>217</ele>
        <time>2025-03-25T16:56:48.000Z</time>
      </trkpt>
      <trkpt lat="43.7914" lon="3.86419">
        <ele>216.4</ele>
        <time>2025-03-25T16:56:51.000Z</time>
      </trkpt>
      <trkpt lat="43.79142" lon="3.86418">
        <ele>215.6</ele>
        <time>2025-03-25T16:56:53.000Z</time>
      </trkpt>
      <trkpt lat="43.79144" lon="3.86417">
        <ele>214.4</ele>
        <time>2025-03-25T16:56:55.000Z</time>
      </trkpt>
      <trkpt lat="43.79145" lon="3.86417">
        <ele>213.8</ele>
        <time>2025-03-25T16:56:56.000Z</time>
      </trkpt>
      <trkpt lat="43.79146" lon="3.86415">
        <ele>213.4</ele>
        <time>2025-03-25T16:56:58.000Z</time>
      </trkpt>
      <trkpt lat="43.79148" lon="3.86412">
        <ele>212.8</ele>
        <time>2025-03-25T16:57:01.000Z</time>
      </trkpt>
      <trkpt lat="43.7915" lon="3.86412">
        <ele>211.8</ele>
        <time>2025-03-25T16:57:03.000Z</time>
      </trkpt>
      <trkpt lat="43.79153" lon="3.86411">
        <ele>210.8</ele>
        <time>2025-03-25T16:57:06.000Z</time>
      </trkpt>
      <trkpt lat="43.79154" lon="3.86411">
        <ele>210.4</ele>
        <time>2025-03-25T16:57:07.000Z</time>
      </trkpt>
      <trkpt lat="43.79156" lon="3.86409">
        <ele>209.8</ele>
        <time>2025-03-25T16:57:09.000Z</time>
      </trkpt>
      <trkpt lat="43.7916" lon="3.86407">
        <ele>208.6</ele>
        <time>2025-03-25T16:57:14.000Z</time>
      </trkpt>
      <trkpt lat="43.79162" lon="3.86407">
        <ele>208</ele>
        <time>2025-03-25T16:57:16.000Z</time>
      </trkpt>
      <trkpt lat="43.79165" lon="3.86407">
        <ele>207.6</ele>
        <time>2025-03-25T16:57:18.000Z</time>
      </trkpt>
      <trkpt lat="43.79167" lon="3.86406">
        <ele>207.2</ele>
        <time>2025-03-25T16:57:19.000Z</time>
      </trkpt>
      <trkpt lat="43.79169" lon="3.86404">
        <ele>206.4</ele>
        <time>2025-03-25T16:57:21.000Z</time>
      </trkpt>
      <trkpt lat="43.7917" lon="3.86402">
        <ele>205.2</ele>
        <time>2025-03-25T16:57:23.000Z</time>
      </trkpt>
      <trkpt lat="43.79174" lon="3.86404">
        <ele>204</ele>
        <time>2025-03-25T16:57:26.000Z</time>
      </trkpt>
      <trkpt lat="43.79176" lon="3.86406">
        <ele>203.4</ele>
        <time>2025-03-25T16:57:28.000Z</time>
      </trkpt>
      <trkpt lat="43.79178" lon="3.86404">
        <ele>202.8</ele>
        <time>2025-03-25T16:57:30.000Z</time>
      </trkpt>
      <trkpt lat="43.79179" lon="3.86403">
        <ele>202.6</ele>
        <time>2025-03-25T16:57:31.000Z</time>
      </trkpt>
      <trkpt lat="43.79174" lon="3.86378">
        <ele>201.8</ele>
        <time>2025-03-25T16:57:43.000Z</time>
      </trkpt>
      <trkpt lat="43.79173" lon="3.86375">
        <ele>201.8</ele>
        <time>2025-03-25T16:57:44.000Z</time>
      </trkpt>
      <trkpt lat="43.79171" lon="3.86359">
        <ele>202.2</ele>
        <time>2025-03-25T16:57:54.000Z</time>
      </trkpt>
      <trkpt lat="43.79176" lon="3.86349">
        <ele>201.8</ele>
        <time>2025-03-25T16:58:00.000Z</time>
      </trkpt>
      <trkpt lat="43.79177" lon="3.86346">
        <ele>201</ele>
        <time>2025-03-25T16:58:02.000Z</time>
      </trkpt>
      <trkpt lat="43.79177" lon="3.8634">
        <ele>200.6</ele>
        <time>2025-03-25T16:58:04.000Z</time>
      </trkpt>
      <trkpt lat="43.79181" lon="3.86331">
        <ele>199.6</ele>
        <time>2025-03-25T16:58:09.000Z</time>
      </trkpt>
      <trkpt lat="43.79188" lon="3.86324">
        <ele>198.4</ele>
        <time>2025-03-25T16:58:13.000Z</time>
      </trkpt>
      <trkpt lat="43.79193" lon="3.86318">
        <ele>197</ele>
        <time>2025-03-25T16:58:16.000Z</time>
      </trkpt>
      <trkpt lat="43.79199" lon="3.86312">
        <ele>196</ele>
        <time>2025-03-25T16:58:19.000Z</time>
      </trkpt>
      <trkpt lat="43.79205" lon="3.86302">
        <ele>195</ele>
        <time>2025-03-25T16:58:22.000Z</time>
      </trkpt>
      <trkpt lat="43.7921" lon="3.8629">
        <ele>194</ele>
        <time>2025-03-25T16:58:26.000Z</time>
      </trkpt>
      <trkpt lat="43.79212" lon="3.86288">
        <ele>193.8</ele>
        <time>2025-03-25T16:58:27.000Z</time>
      </trkpt>
      <trkpt lat="43.79223" lon="3.8627">
        <ele>192.6</ele>
        <time>2025-03-25T16:58:34.000Z</time>
      </trkpt>
      <trkpt lat="43.79232" lon="3.8625">
        <ele>193.8</ele>
        <time>2025-03-25T16:58:42.000Z</time>
      </trkpt>
      <trkpt lat="43.79233" lon="3.86233">
        <ele>194.6</ele>
        <time>2025-03-25T16:58:48.000Z</time>
      </trkpt>
      <trkpt lat="43.79234" lon="3.86231">
        <ele>195</ele>
        <time>2025-03-25T16:58:49.000Z</time>
      </trkpt>
      <trkpt lat="43.79237" lon="3.86226">
        <ele>196</ele>
        <time>2025-03-25T16:58:52.000Z</time>
      </trkpt>
      <trkpt lat="43.79239" lon="3.86218">
        <ele>197</ele>
        <time>2025-03-25T16:58:55.000Z</time>
      </trkpt>
      <trkpt lat="43.79239" lon="3.86212">
        <ele>198.2</ele>
        <time>2025-03-25T16:58:58.000Z</time>
      </trkpt>
      <trkpt lat="43.79239" lon="3.8621">
        <ele>198.6</ele>
        <time>2025-03-25T16:59:00.000Z</time>
      </trkpt>
      <trkpt lat="43.79238" lon="3.86204">
        <ele>199.4</ele>
        <time>2025-03-25T16:59:03.000Z</time>
      </trkpt>
      <trkpt lat="43.79238" lon="3.86203">
        <ele>199.8</ele>
        <time>2025-03-25T16:59:04.000Z</time>
      </trkpt>
      <trkpt lat="43.79239" lon="3.86199">
        <ele>200.6</ele>
        <time>2025-03-25T16:59:06.000Z</time>
      </trkpt>
      <trkpt lat="43.7924" lon="3.86192">
        <ele>201.8</ele>
        <time>2025-03-25T16:59:10.000Z</time>
      </trkpt>
      <trkpt lat="43.79241" lon="3.86182">
        <ele>202.8</ele>
        <time>2025-03-25T16:59:14.000Z</time>
      </trkpt>
      <trkpt lat="43.79241" lon="3.86181">
        <ele>203</ele>
        <time>2025-03-25T16:59:15.000Z</time>
      </trkpt>
      <trkpt lat="43.79241" lon="3.86173">
        <ele>203.8</ele>
        <time>2025-03-25T16:59:19.000Z</time>
      </trkpt>
      <trkpt lat="43.79242" lon="3.86166">
        <ele>204.8</ele>
        <time>2025-03-25T16:59:22.000Z</time>
      </trkpt>
      <trkpt lat="43.79242" lon="3.86161">
        <ele>205.6</ele>
        <time>2025-03-25T16:59:25.000Z</time>
      </trkpt>
      <trkpt lat="43.79242" lon="3.86157">
        <ele>206.2</ele>
        <time>2025-03-25T16:59:27.000Z</time>
      </trkpt>
      <trkpt lat="43.79244" lon="3.86145">
        <ele>207.2</ele>
        <time>2025-03-25T16:59:33.000Z</time>
      </trkpt>
      <trkpt lat="43.79249" lon="3.86142">
        <ele>208.2</ele>
        <time>2025-03-25T16:59:37.000Z</time>
      </trkpt>
      <trkpt lat="43.7925" lon="3.8614">
        <ele>208.8</ele>
        <time>2025-03-25T16:59:39.000Z</time>
      </trkpt>
      <trkpt lat="43.79251" lon="3.86138">
        <ele>209.4</ele>
        <time>2025-03-25T16:59:41.000Z</time>
      </trkpt>
      <trkpt lat="43.79251" lon="3.86137">
        <ele>209.6</ele>
        <time>2025-03-25T16:59:42.000Z</time>
      </trkpt>
      <trkpt lat="43.79251" lon="3.86134">
        <ele>210.6</ele>
        <time>2025-03-25T16:59:44.000Z</time>
      </trkpt>
      <trkpt lat="43.79251" lon="3.86133">
        <ele>211</ele>
        <time>2025-03-25T16:59:45.000Z</time>
      </trkpt>
      <trkpt lat="43.79251" lon="3.86129">
        <ele>211.8</ele>
        <time>2025-03-25T16:59:47.000Z</time>
      </trkpt>
      <trkpt lat="43.79251" lon="3.86126">
        <ele>212.4</ele>
        <time>2025-03-25T16:59:49.000Z</time>
      </trkpt>
      <trkpt lat="43.79251" lon="3.86124">
        <ele>212.8</ele>
        <time>2025-03-25T16:59:50.000Z</time>
      </trkpt>
      <trkpt lat="43.79249" lon="3.86116">
        <ele>214</ele>
        <time>2025-03-25T16:59:54.000Z</time>
      </trkpt>
      <trkpt lat="43.7925" lon="3.86114">
        <ele>214.2</ele>
        <time>2025-03-25T16:59:55.000Z</time>
      </trkpt>
      <trkpt lat="43.79251" lon="3.86108">
        <ele>215.2</ele>
        <time>2025-03-25T16:59:59.000Z</time>
      </trkpt>
      <trkpt lat="43.79251" lon="3.86105">
        <ele>216.4</ele>
        <time>2025-03-25T17:00:02.000Z</time>
      </trkpt>
      <trkpt lat="43.79252" lon="3.86101">
        <ele>217.2</ele>
        <time>2025-03-25T17:00:04.000Z</time>
      </trkpt>
      <trkpt lat="43.79252" lon="3.86098">
        <ele>217.6</ele>
        <time>2025-03-25T17:00:06.000Z</time>
      </trkpt>
      <trkpt lat="43.79255" lon="3.86096">
        <ele>218.2</ele>
        <time>2025-03-25T17:00:08.000Z</time>
      </trkpt>
      <trkpt lat="43.79257" lon="3.86093">
        <ele>218.8</ele>
        <time>2025-03-25T17:00:10.000Z</time>
      </trkpt>
      <trkpt lat="43.79258" lon="3.86089">
        <ele>219.2</ele>
        <time>2025-03-25T17:00:13.000Z</time>
      </trkpt>
      <trkpt lat="43.79258" lon="3.86085">
        <ele>219.6</ele>
        <time>2025-03-25T17:00:15.000Z</time>
      </trkpt>
      <trkpt lat="43.79259" lon="3.86081">
        <ele>220</ele>
        <time>2025-03-25T17:00:17.000Z</time>
      </trkpt>
      <trkpt lat="43.7926" lon="3.86072">
        <ele>220</ele>
        <time>2025-03-25T17:00:21.000Z</time>
      </trkpt>
      <trkpt lat="43.79262" lon="3.86061">
        <ele>219</ele>
        <time>2025-03-25T17:00:27.000Z</time>
      </trkpt>
      <trkpt lat="43.79262" lon="3.8606">
        <ele>218.8</ele>
        <time>2025-03-25T17:00:28.000Z</time>
      </trkpt>
      <trkpt lat="43.79262" lon="3.86056">
        <ele>218.6</ele>
        <time>2025-03-25T17:00:30.000Z</time>
      </trkpt>
      <trkpt lat="43.79264" lon="3.86049">
        <ele>217.8</ele>
        <time>2025-03-25T17:00:36.000Z</time>
      </trkpt>
      <trkpt lat="43.79265" lon="3.86044">
        <ele>217</ele>
        <time>2025-03-25T17:00:39.000Z</time>
      </trkpt>
      <trkpt lat="43.79265" lon="3.86043">
        <ele>216.6</ele>
        <time>2025-03-25T17:00:40.000Z</time>
      </trkpt>
      <trkpt lat="43.79266" lon="3.86043">
        <ele>216.4</ele>
        <time>2025-03-25T17:00:41.000Z</time>
      </trkpt>
      <trkpt lat="43.79267" lon="3.8604">
        <ele>215.6</ele>
        <time>2025-03-25T17:00:45.000Z</time>
      </trkpt>
      <trkpt lat="43.79267" lon="3.8604">
        <ele>215.4</ele>
        <time>2025-03-25T17:00:47.000Z</time>
      </trkpt>
      <trkpt lat="43.79269" lon="3.86034">
        <ele>215</ele>
        <time>2025-03-25T17:00:53.000Z</time>
      </trkpt>
      <trkpt lat="43.7927" lon="3.86032">
        <ele>214.6</ele>
        <time>2025-03-25T17:00:55.000Z</time>
      </trkpt>
      <trkpt lat="43.7927" lon="3.8603">
        <ele>213.4</ele>
        <time>2025-03-25T17:01:00.000Z</time>
      </trkpt>
      <trkpt lat="43.79272" lon="3.86027">
        <ele>212.6</ele>
        <time>2025-03-25T17:01:05.000Z</time>
      </trkpt>
      <trkpt lat="43.79266" lon="3.86077">
        <ele>218.8</ele>
        <time>2025-03-25T17:02:15.000Z</time>
      </trkpt>
      <trkpt lat="43.7927" lon="3.86078">
        <ele>219.2</ele>
        <time>2025-03-25T17:02:18.000Z</time>
      </trkpt>
      <trkpt lat="43.79279" lon="3.86075">
        <ele>219.2</ele>
        <time>2025-03-25T17:02:24.000Z</time>
      </trkpt>
      <trkpt lat="43.7928" lon="3.86087">
        <ele>217.8</ele>
        <time>2025-03-25T17:02:28.000Z</time>
      </trkpt>
      <trkpt lat="43.79281" lon="3.86099">
        <ele>217.2</ele>
        <time>2025-03-25T17:02:32.000Z</time>
      </trkpt>
      <trkpt lat="43.7928" lon="3.86106">
        <ele>217</ele>
        <time>2025-03-25T17:02:35.000Z</time>
      </trkpt>
      <trkpt lat="43.79281" lon="3.8611">
        <ele>216.6</ele>
        <time>2025-03-25T17:02:37.000Z</time>
      </trkpt>
      <trkpt lat="43.79286" lon="3.86113">
        <ele>215.4</ele>
        <time>2025-03-25T17:02:41.000Z</time>
      </trkpt>
      <trkpt lat="43.79288" lon="3.86113">
        <ele>214.2</ele>
        <time>2025-03-25T17:02:44.000Z</time>
      </trkpt>
      <trkpt lat="43.79292" lon="3.86115">
        <ele>213.2</ele>
        <time>2025-03-25T17:02:47.000Z</time>
      </trkpt>
      <trkpt lat="43.79293" lon="3.86116">
        <ele>212.8</ele>
        <time>2025-03-25T17:02:48.000Z</time>
      </trkpt>
      <trkpt lat="43.79296" lon="3.86121">
        <ele>211.8</ele>
        <time>2025-03-25T17:02:51.000Z</time>
      </trkpt>
      <trkpt lat="43.79298" lon="3.86123">
        <ele>210.8</ele>
        <time>2025-03-25T17:02:53.000Z</time>
      </trkpt>
      <trkpt lat="43.79299" lon="3.86124">
        <ele>210.4</ele>
        <time>2025-03-25T17:02:54.000Z</time>
      </trkpt>
      <trkpt lat="43.79301" lon="3.86125">
        <ele>209.8</ele>
        <time>2025-03-25T17:02:56.000Z</time>
      </trkpt>
      <trkpt lat="43.79304" lon="3.86125">
        <ele>209.2</ele>
        <time>2025-03-25T17:02:58.000Z</time>
      </trkpt>
      <trkpt lat="43.79306" lon="3.86126">
        <ele>208.6</ele>
        <time>2025-03-25T17:03:00.000Z</time>
      </trkpt>
      <trkpt lat="43.79311" lon="3.86131">
        <ele>207.4</ele>
        <time>2025-03-25T17:03:04.000Z</time>
      </trkpt>
      <trkpt lat="43.79314" lon="3.86138">
        <ele>206.4</ele>
        <time>2025-03-25T17:03:07.000Z</time>
      </trkpt>
      <trkpt lat="43.79314" lon="3.8614">
        <ele>206.2</ele>
        <time>2025-03-25T17:03:08.000Z</time>
      </trkpt>
      <trkpt lat="43.79312" lon="3.86147">
        <ele>205</ele>
        <time>2025-03-25T17:03:11.000Z</time>
      </trkpt>
      <trkpt lat="43.79311" lon="3.86152">
        <ele>204.4</ele>
        <time>2025-03-25T17:03:13.000Z</time>
      </trkpt>
      <trkpt lat="43.79311" lon="3.86158">
        <ele>204.2</ele>
        <time>2025-03-25T17:03:15.000Z</time>
      </trkpt>
      <trkpt lat="43.79309" lon="3.86171">
        <ele>203.6</ele>
        <time>2025-03-25T17:03:20.000Z</time>
      </trkpt>
      <trkpt lat="43.79306" lon="3.86186">
        <ele>202.4</ele>
        <time>2025-03-25T17:03:25.000Z</time>
      </trkpt>
      <trkpt lat="43.79306" lon="3.86192">
        <ele>201</ele>
        <time>2025-03-25T17:03:28.000Z</time>
      </trkpt>
      <trkpt lat="43.79306" lon="3.86197">
        <ele>200</ele>
        <time>2025-03-25T17:03:30.000Z</time>
      </trkpt>
      <trkpt lat="43.79307" lon="3.8621">
        <ele>199</ele>
        <time>2025-03-25T17:03:36.000Z</time>
      </trkpt>
      <trkpt lat="43.79307" lon="3.86212">
        <ele>198.8</ele>
        <time>2025-03-25T17:03:37.000Z</time>
      </trkpt>
      <trkpt lat="43.79307" lon="3.86217">
        <ele>197.6</ele>
        <time>2025-03-25T17:03:40.000Z</time>
      </trkpt>
      <trkpt lat="43.79307" lon="3.8622">
        <ele>196.6</ele>
        <time>2025-03-25T17:03:42.000Z</time>
      </trkpt>
      <trkpt lat="43.79307" lon="3.86221">
        <ele>196</ele>
        <time>2025-03-25T17:03:43.000Z</time>
      </trkpt>
      <trkpt lat="43.79307" lon="3.86223">
        <ele>195.4</ele>
        <time>2025-03-25T17:03:45.000Z</time>
      </trkpt>
      <trkpt lat="43.79306" lon="3.86226">
        <ele>194.8</ele>
        <time>2025-03-25T17:03:47.000Z</time>
      </trkpt>
      <trkpt lat="43.79306" lon="3.8623">
        <ele>194</ele>
        <time>2025-03-25T17:03:49.000Z</time>
      </trkpt>
      <trkpt lat="43.79306" lon="3.86236">
        <ele>193.4</ele>
        <time>2025-03-25T17:03:51.000Z</time>
      </trkpt>
      <trkpt lat="43.79305" lon="3.86241">
        <ele>192.8</ele>
        <time>2025-03-25T17:03:53.000Z</time>
      </trkpt>
      <trkpt lat="43.79304" lon="3.86248">
        <ele>191.6</ele>
        <time>2025-03-25T17:03:56.000Z</time>
      </trkpt>
      <trkpt lat="43.79303" lon="3.86254">
        <ele>190.2</ele>
        <time>2025-03-25T17:03:59.000Z</time>
      </trkpt>
      <trkpt lat="43.79303" lon="3.86261">
        <ele>189</ele>
        <time>2025-03-25T17:04:02.000Z</time>
      </trkpt>
      <trkpt lat="43.79303" lon="3.86266">
        <ele>188.4</ele>
        <time>2025-03-25T17:04:04.000Z</time>
      </trkpt>
      <trkpt lat="43.79304" lon="3.86272">
        <ele>187.6</ele>
        <time>2025-03-25T17:04:06.000Z</time>
      </trkpt>
      <trkpt lat="43.79304" lon="3.86278">
        <ele>186.2</ele>
        <time>2025-03-25T17:04:08.000Z</time>
      </trkpt>
      <trkpt lat="43.79306" lon="3.86288">
        <ele>185</ele>
        <time>2025-03-25T17:04:11.000Z</time>
      </trkpt>
      <trkpt lat="43.79307" lon="3.86294">
        <ele>183.8</ele>
        <time>2025-03-25T17:04:13.000Z</time>
      </trkpt>
      <trkpt lat="43.79307" lon="3.86297">
        <ele>183.4</ele>
        <time>2025-03-25T17:04:14.000Z</time>
      </trkpt>
      <trkpt lat="43.79308" lon="3.86302">
        <ele>182.8</ele>
        <time>2025-03-25T17:04:16.000Z</time>
      </trkpt>
      <trkpt lat="43.7931" lon="3.86313">
        <ele>181.4</ele>
        <time>2025-03-25T17:04:21.000Z</time>
      </trkpt>
      <trkpt lat="43.79312" lon="3.86318">
        <ele>180.4</ele>
        <time>2025-03-25T17:04:24.000Z</time>
      </trkpt>
      <trkpt lat="43.79312" lon="3.8632">
        <ele>179.8</ele>
        <time>2025-03-25T17:04:25.000Z</time>
      </trkpt>
      <trkpt lat="43.79312" lon="3.86322">
        <ele>179.2</ele>
        <time>2025-03-25T17:04:26.000Z</time>
      </trkpt>
      <trkpt lat="43.79312" lon="3.86324">
        <ele>178.8</ele>
        <time>2025-03-25T17:04:27.000Z</time>
      </trkpt>
      <trkpt lat="43.7931" lon="3.86326">
        <ele>178</ele>
        <time>2025-03-25T17:04:30.000Z</time>
      </trkpt>
      <trkpt lat="43.79309" lon="3.86326">
        <ele>177.8</ele>
        <time>2025-03-25T17:04:31.000Z</time>
      </trkpt>
      <trkpt lat="43.79308" lon="3.8633">
        <ele>177</ele>
        <time>2025-03-25T17:04:36.000Z</time>
      </trkpt>
      <trkpt lat="43.79305" lon="3.8633">
        <ele>176.6</ele>
        <time>2025-03-25T17:04:38.000Z</time>
      </trkpt>
      <trkpt lat="43.79303" lon="3.86329">
        <ele>175.8</ele>
        <time>2025-03-25T17:04:40.000Z</time>
      </trkpt>
      <trkpt lat="43.79302" lon="3.8633">
        <ele>175.2</ele>
        <time>2025-03-25T17:04:41.000Z</time>
      </trkpt>
      <trkpt lat="43.79301" lon="3.86332">
        <ele>174.6</ele>
        <time>2025-03-25T17:04:42.000Z</time>
      </trkpt>
      <trkpt lat="43.79298" lon="3.8634">
        <ele>173.4</ele>
        <time>2025-03-25T17:04:45.000Z</time>
      </trkpt>
      <trkpt lat="43.79297" lon="3.86342">
        <ele>172.4</ele>
        <time>2025-03-25T17:04:46.000Z</time>
      </trkpt>
      <trkpt lat="43.79296" lon="3.86344">
        <ele>171.6</ele>
        <time>2025-03-25T17:04:47.000Z</time>
      </trkpt>
      <trkpt lat="43.79295" lon="3.86348">
        <ele>170</ele>
        <time>2025-03-25T17:04:49.000Z</time>
      </trkpt>
      <trkpt lat="43.79295" lon="3.8635">
        <ele>169.4</ele>
        <time>2025-03-25T17:04:50.000Z</time>
      </trkpt>
      <trkpt lat="43.79296" lon="3.86353">
        <ele>169</ele>
        <time>2025-03-25T17:04:52.000Z</time>
      </trkpt>
      <trkpt lat="43.79296" lon="3.86359">
        <ele>168</ele>
        <time>2025-03-25T17:04:55.000Z</time>
      </trkpt>
      <trkpt lat="43.79297" lon="3.86361">
        <ele>167.8</ele>
        <time>2025-03-25T17:04:56.000Z</time>
      </trkpt>
      <trkpt lat="43.79298" lon="3.86372">
        <ele>166.6</ele>
        <time>2025-03-25T17:04:59.000Z</time>
      </trkpt>
      <trkpt lat="43.79298" lon="3.86383">
        <ele>165.4</ele>
        <time>2025-03-25T17:05:02.000Z</time>
      </trkpt>
      <trkpt lat="43.79298" lon="3.86391">
        <ele>164.4</ele>
        <time>2025-03-25T17:05:05.000Z</time>
      </trkpt>
      <trkpt lat="43.79298" lon="3.86396">
        <ele>163.8</ele>
        <time>2025-03-25T17:05:07.000Z</time>
      </trkpt>
      <trkpt lat="43.79299" lon="3.8641">
        <ele>163.2</ele>
        <time>2025-03-25T17:05:11.000Z</time>
      </trkpt>
      <trkpt lat="43.79305" lon="3.86431">
        <ele>162.4</ele>
        <time>2025-03-25T17:05:18.000Z</time>
      </trkpt>
      <trkpt lat="43.79306" lon="3.86434">
        <ele>162</ele>
        <time>2025-03-25T17:05:19.000Z</time>
      </trkpt>
      <trkpt lat="43.79322" lon="3.8645">
        <ele>161</ele>
        <time>2025-03-25T17:05:26.000Z</time>
      </trkpt>
      <trkpt lat="43.79324" lon="3.86451">
        <ele>161</ele>
        <time>2025-03-25T17:05:27.000Z</time>
      </trkpt>
      <trkpt lat="43.7933" lon="3.86454">
        <ele>161</ele>
        <time>2025-03-25T17:05:30.000Z</time>
      </trkpt>
      <trkpt lat="43.79342" lon="3.86466">
        <ele>161.4</ele>
        <time>2025-03-25T17:05:38.000Z</time>
      </trkpt>
      <trkpt lat="43.79356" lon="3.86483">
        <ele>160.4</ele>
        <time>2025-03-25T17:05:46.000Z</time>
      </trkpt>
      <trkpt lat="43.79361" lon="3.86489">
        <ele>159.8</ele>
        <time>2025-03-25T17:05:49.000Z</time>
      </trkpt>
      <trkpt lat="43.79378" lon="3.86499">
        <ele>159</ele>
        <time>2025-03-25T17:05:57.000Z</time>
      </trkpt>
      <trkpt lat="43.79381" lon="3.865">
        <ele>158.8</ele>
        <time>2025-03-25T17:05:59.000Z</time>
      </trkpt>
      <trkpt lat="43.79384" lon="3.86501">
        <ele>158.8</ele>
        <time>2025-03-25T17:06:01.000Z</time>
      </trkpt>
      <trkpt lat="43.79395" lon="3.86503">
        <ele>158</ele>
        <time>2025-03-25T17:06:07.000Z</time>
      </trkpt>
      <trkpt lat="43.79399" lon="3.86505">
        <ele>157.6</ele>
        <time>2025-03-25T17:06:10.000Z</time>
      </trkpt>
      <trkpt lat="43.79403" lon="3.86505">
        <ele>157</ele>
        <time>2025-03-25T17:06:12.000Z</time>
      </trkpt>
      <trkpt lat="43.79408" lon="3.86507">
        <ele>156.4</ele>
        <time>2025-03-25T17:06:14.000Z</time>
      </trkpt>
      <trkpt lat="43.79416" lon="3.86509">
        <ele>155.4</ele>
        <time>2025-03-25T17:06:18.000Z</time>
      </trkpt>
      <trkpt lat="43.79426" lon="3.86512">
        <ele>154.2</ele>
        <time>2025-03-25T17:06:23.000Z</time>
      </trkpt>
      <trkpt lat="43.79428" lon="3.86512">
        <ele>154.2</ele>
        <time>2025-03-25T17:06:24.000Z</time>
      </trkpt>
      <trkpt lat="43.79434" lon="3.86515">
        <ele>153.6</ele>
        <time>2025-03-25T17:06:27.000Z</time>
      </trkpt>
      <trkpt lat="43.79438" lon="3.86516">
        <ele>153</ele>
        <time>2025-03-25T17:06:29.000Z</time>
      </trkpt>
      <trkpt lat="43.79446" lon="3.86518">
        <ele>151.8</ele>
        <time>2025-03-25T17:06:33.000Z</time>
      </trkpt>
      <trkpt lat="43.79457" lon="3.86516">
        <ele>150.6</ele>
        <time>2025-03-25T17:06:37.000Z</time>
      </trkpt>
      <trkpt lat="43.79476" lon="3.86513">
        <ele>149.8</ele>
        <time>2025-03-25T17:06:42.000Z</time>
      </trkpt>
      <trkpt lat="43.79479" lon="3.86513">
        <ele>149.4</ele>
        <time>2025-03-25T17:06:43.000Z</time>
      </trkpt>
      <trkpt lat="43.79487" lon="3.86512">
        <ele>148.2</ele>
        <time>2025-03-25T17:06:47.000Z</time>
      </trkpt>
      <trkpt lat="43.79492" lon="3.86509">
        <ele>147</ele>
        <time>2025-03-25T17:06:50.000Z</time>
      </trkpt>
      <trkpt lat="43.79502" lon="3.86503">
        <ele>145.6</ele>
        <time>2025-03-25T17:06:55.000Z</time>
      </trkpt>
      <trkpt lat="43.79518" lon="3.86496">
        <ele>144.4</ele>
        <time>2025-03-25T17:07:01.000Z</time>
      </trkpt>
      <trkpt lat="43.79529" lon="3.86486">
        <ele>143.2</ele>
        <time>2025-03-25T17:07:09.000Z</time>
      </trkpt>
      <trkpt lat="43.79534" lon="3.86493">
        <ele>142</ele>
        <time>2025-03-25T17:07:22.000Z</time>
      </trkpt>
      <trkpt lat="43.79535" lon="3.86502">
        <ele>141</ele>
        <time>2025-03-25T17:07:27.000Z</time>
      </trkpt>
      <trkpt lat="43.79535" lon="3.86505">
        <ele>140.2</ele>
        <time>2025-03-25T17:07:29.000Z</time>
      </trkpt>
      <trkpt lat="43.79535" lon="3.86505">
        <ele>140</ele>
        <time>2025-03-25T17:07:30.000Z</time>
      </trkpt>
      <trkpt lat="43.79555" lon="3.86513">
        <ele>137.4</ele>
        <time>2025-03-25T17:09:17.000Z</time>
      </trkpt>
      <trkpt lat="43.79572" lon="3.86505">
        <ele>136.8</ele>
        <time>2025-03-25T17:09:27.000Z</time>
      </trkpt>
      <trkpt lat="43.79578" lon="3.86496">
        <ele>136.2</ele>
        <time>2025-03-25T17:09:31.000Z</time>
      </trkpt>
      <trkpt lat="43.7958" lon="3.86489">
        <ele>135.2</ele>
        <time>2025-03-25T17:09:34.000Z</time>
      </trkpt>
      <trkpt lat="43.7958" lon="3.86488">
        <ele>134.8</ele>
        <time>2025-03-25T17:09:35.000Z</time>
      </trkpt>
      <trkpt lat="43.79583" lon="3.86483">
        <ele>134.6</ele>
        <time>2025-03-25T17:09:38.000Z</time>
      </trkpt>
      <trkpt lat="43.79583" lon="3.86478">
        <ele>134</ele>
        <time>2025-03-25T17:09:40.000Z</time>
      </trkpt>
      <trkpt lat="43.79583" lon="3.86472">
        <ele>132.8</ele>
        <time>2025-03-25T17:09:43.000Z</time>
      </trkpt>
      <trkpt lat="43.79584" lon="3.86467">
        <ele>132.4</ele>
        <time>2025-03-25T17:09:46.000Z</time>
      </trkpt>
      <trkpt lat="43.79583" lon="3.86452">
        <ele>131.6</ele>
        <time>2025-03-25T17:09:52.000Z</time>
      </trkpt>
      <trkpt lat="43.79586" lon="3.86446">
        <ele>131.4</ele>
        <time>2025-03-25T17:09:55.000Z</time>
      </trkpt>
      <trkpt lat="43.79592" lon="3.86441">
        <ele>130.6</ele>
        <time>2025-03-25T17:09:59.000Z</time>
      </trkpt>
      <trkpt lat="43.79594" lon="3.8644">
        <ele>130.4</ele>
        <time>2025-03-25T17:10:00.000Z</time>
      </trkpt>
      <trkpt lat="43.79595" lon="3.86439">
        <ele>130</ele>
        <time>2025-03-25T17:10:01.000Z</time>
      </trkpt>
      <trkpt lat="43.79602" lon="3.86432">
        <ele>129.4</ele>
        <time>2025-03-25T17:10:05.000Z</time>
      </trkpt>
      <trkpt lat="43.79603" lon="3.86431">
        <ele>129</ele>
        <time>2025-03-25T17:10:06.000Z</time>
      </trkpt>
      <trkpt lat="43.79609" lon="3.86429">
        <ele>128.2</ele>
        <time>2025-03-25T17:10:10.000Z</time>
      </trkpt>
      <trkpt lat="43.79616" lon="3.86431">
        <ele>127.6</ele>
        <time>2025-03-25T17:10:14.000Z</time>
      </trkpt>
      <trkpt lat="43.79618" lon="3.86429">
        <ele>127.2</ele>
        <time>2025-03-25T17:10:15.000Z</time>
      </trkpt>
      <trkpt lat="43.79621" lon="3.86424">
        <ele>126</ele>
        <time>2025-03-25T17:10:17.000Z</time>
      </trkpt>
      <trkpt lat="43.79623" lon="3.86421">
        <ele>125</ele>
        <time>2025-03-25T17:10:19.000Z</time>
      </trkpt>
      <trkpt lat="43.79628" lon="3.86417">
        <ele>124.2</ele>
        <time>2025-03-25T17:10:22.000Z</time>
      </trkpt>
      <trkpt lat="43.79629" lon="3.86414">
        <ele>124</ele>
        <time>2025-03-25T17:10:23.000Z</time>
      </trkpt>
      <trkpt lat="43.79634" lon="3.86398">
        <ele>123</ele>
        <time>2025-03-25T17:10:29.000Z</time>
      </trkpt>
      <trkpt lat="43.79635" lon="3.86372">
        <ele>122.4</ele>
        <time>2025-03-25T17:10:35.000Z</time>
      </trkpt>
      <trkpt lat="43.79637" lon="3.86343">
        <ele>122</ele>
        <time>2025-03-25T17:10:43.000Z</time>
      </trkpt>
      <trkpt lat="43.79641" lon="3.86336">
        <ele>122.2</ele>
        <time>2025-03-25T17:10:46.000Z</time>
      </trkpt>
      <trkpt lat="43.79645" lon="3.86333">
        <ele>121.8</ele>
        <time>2025-03-25T17:10:48.000Z</time>
      </trkpt>
      <trkpt lat="43.79656" lon="3.86322">
        <ele>120.4</ele>
        <time>2025-03-25T17:10:53.000Z</time>
      </trkpt>
      <trkpt lat="43.79661" lon="3.86316">
        <ele>119.4</ele>
        <time>2025-03-25T17:10:56.000Z</time>
      </trkpt>
      <trkpt lat="43.79665" lon="3.86306">
        <ele>118.2</ele>
        <time>2025-03-25T17:11:00.000Z</time>
      </trkpt>
      <trkpt lat="43.79669" lon="3.86298">
        <ele>117.2</ele>
        <time>2025-03-25T17:11:03.000Z</time>
      </trkpt>
      <trkpt lat="43.7967" lon="3.86295">
        <ele>117</ele>
        <time>2025-03-25T17:11:04.000Z</time>
      </trkpt>
      <trkpt lat="43.79663" lon="3.86271">
        <ele>116.8</ele>
        <time>2025-03-25T17:11:14.000Z</time>
      </trkpt>
      <trkpt lat="43.79662" lon="3.86268">
        <ele>117</ele>
        <time>2025-03-25T17:11:17.000Z</time>
      </trkpt>
      <trkpt lat="43.7966" lon="3.86213">
        <ele>139.2</ele>
        <time>2025-03-25T17:11:21.899Z</time>
      </trkpt>
      <trkpt lat="43.79653" lon="3.86186">
        <ele>139.3</ele>
        <time>2025-03-25T17:11:24.203Z</time>
      </trkpt>
      <trkpt lat="43.79645" lon="3.86165">
        <ele>138.9</ele>
        <time>2025-03-25T17:11:26.095Z</time>
      </trkpt>
      <trkpt lat="43.79639" lon="3.86149">
        <ele>137.6</ele>
        <time>2025-03-25T17:11:27.576Z</time>
      </trkpt>
      <trkpt lat="43.79634" lon="3.8614">
        <ele>137.3</ele>
        <time>2025-03-25T17:11:28.458Z</time>
      </trkpt>
      <trkpt lat="43.79619" lon="3.86119">
        <ele>136.5</ele>
        <time>2025-03-25T17:11:30.848Z</time>
      </trkpt>
      <trkpt lat="43.79611" lon="3.86096">
        <ele>133.5</ele>
        <time>2025-03-25T17:11:32.912Z</time>
      </trkpt>
      <trkpt lat="43.796" lon="3.86081">
        <ele>133.1</ele>
        <time>2025-03-25T17:11:34.658Z</time>
      </trkpt>
      <trkpt lat="43.79585" lon="3.86052">
        <ele>131.4</ele>
        <time>2025-03-25T17:11:37.480Z</time>
      </trkpt>
      <trkpt lat="43.79576" lon="3.86034">
        <ele>132</ele>
        <time>2025-03-25T17:11:39.252Z</time>
      </trkpt>
      <trkpt lat="43.7957" lon="3.86015">
        <ele>131.5</ele>
        <time>2025-03-25T17:11:40.951Z</time>
      </trkpt>
      <trkpt lat="43.79558" lon="3.85985">
        <ele>129.7</ele>
        <time>2025-03-25T17:11:43.643Z</time>
      </trkpt>
      <trkpt lat="43.79559" lon="3.85952">
        <ele>126.6</ele>
        <time>2025-03-25T17:11:46.342Z</time>
      </trkpt>
      <trkpt lat="43.79572" lon="3.85914">
        <ele>127.7</ele>
        <time>2025-03-25T17:11:49.752Z</time>
      </trkpt>
      <trkpt lat="43.79576" lon="3.85878">
        <ele>127.5</ele>
        <time>2025-03-25T17:11:52.644Z</time>
      </trkpt>
      <trkpt lat="43.79596" lon="3.85834">
        <ele>128.5</ele>
        <time>2025-03-25T17:11:56.883Z</time>
      </trkpt>
      <trkpt lat="43.79624" lon="3.85786">
        <ele>129.5</ele>
        <time>2025-03-25T17:12:01.807Z</time>
      </trkpt>
      <trkpt lat="43.79643" lon="3.85753">
        <ele>129.3</ele>
        <time>2025-03-25T17:12:05.175Z</time>
      </trkpt>
      <trkpt lat="43.79673" lon="3.85767">
        <ele>132.1</ele>
        <time>2025-03-25T17:12:08.640Z</time>
      </trkpt>
      <trkpt lat="43.79689" lon="3.85709">
        <ele>133.6</ele>
        <time>2025-03-25T17:12:13.615Z</time>
      </trkpt>
      <trkpt lat="43.7969" lon="3.85707">
        <ele>133.8</ele>
        <time>2025-03-25T17:12:13.826Z</time>
      </trkpt>
      <trkpt lat="43.7969" lon="3.85707">
        <ele>135</ele>
        <time>2025-03-26T16:32:38.000Z</time>
      </trkpt>
      <trkpt lat="43.79701" lon="3.85697">
        <ele>134</ele>
        <time>2025-03-26T16:32:41.000Z</time>
      </trkpt>
      <trkpt lat="43.79716" lon="3.8569">
        <ele>133</ele>
        <time>2025-03-26T16:32:44.000Z</time>
      </trkpt>
      <trkpt lat="43.79718" lon="3.85685">
        <ele>133</ele>
        <time>2025-03-26T16:32:47.000Z</time>
      </trkpt>
      <trkpt lat="43.79724" lon="3.85665">
        <ele>134</ele>
        <time>2025-03-26T16:32:50.000Z</time>
      </trkpt>
      <trkpt lat="43.79728" lon="3.85655">
        <ele>134</ele>
        <time>2025-03-26T16:32:53.000Z</time>
      </trkpt>
      <trkpt lat="43.79735" lon="3.85646">
        <ele>134</ele>
        <time>2025-03-26T16:32:56.000Z</time>
      </trkpt>
      <trkpt lat="43.79741" lon="3.85639">
        <ele>135</ele>
        <time>2025-03-26T16:32:59.000Z</time>
      </trkpt>
      <trkpt lat="43.79744" lon="3.85634">
        <ele>135</ele>
        <time>2025-03-26T16:33:02.000Z</time>
      </trkpt>
      <trkpt lat="43.79748" lon="3.8563">
        <ele>135</ele>
        <time>2025-03-26T16:33:05.000Z</time>
      </trkpt>
      <trkpt lat="43.79769" lon="3.85599">
        <ele>136</ele>
        <time>2025-03-26T16:33:08.000Z</time>
      </trkpt>
      <trkpt lat="43.79773" lon="3.85591">
        <ele>136</ele>
        <time>2025-03-26T16:33:11.000Z</time>
      </trkpt>
      <trkpt lat="43.79776" lon="3.85583">
        <ele>137</ele>
        <time>2025-03-26T16:33:14.000Z</time>
      </trkpt>
      <trkpt lat="43.79778" lon="3.85574">
        <ele>137</ele>
        <time>2025-03-26T16:33:17.000Z</time>
      </trkpt>
      <trkpt lat="43.7978" lon="3.85555">
        <ele>138</ele>
        <time>2025-03-26T16:33:20.000Z</time>
      </trkpt>
      <trkpt lat="43.79783" lon="3.85543">
        <ele>138</ele>
        <time>2025-03-26T16:33:23.000Z</time>
      </trkpt>
      <trkpt lat="43.79784" lon="3.85537">
        <ele>139</ele>
        <time>2025-03-26T16:33:26.000Z</time>
      </trkpt>
      <trkpt lat="43.7979" lon="3.85516">
        <ele>140</ele>
        <time>2025-03-26T16:33:29.000Z</time>
      </trkpt>
      <trkpt lat="43.79791" lon="3.85507">
        <ele>141</ele>
        <time>2025-03-26T16:33:32.000Z</time>
      </trkpt>
      <trkpt lat="43.79792" lon="3.85501">
        <ele>142</ele>
        <time>2025-03-26T16:33:35.000Z</time>
      </trkpt>
      <trkpt lat="43.79795" lon="3.85488">
        <ele>142</ele>
        <time>2025-03-26T16:33:38.000Z</time>
      </trkpt>
      <trkpt lat="43.79804" lon="3.85466">
        <ele>143</ele>
        <time>2025-03-26T16:33:41.000Z</time>
      </trkpt>
      <trkpt lat="43.79813" lon="3.85447">
        <ele>144</ele>
        <time>2025-03-26T16:33:44.000Z</time>
      </trkpt>
      <trkpt lat="43.79821" lon="3.85432">
        <ele>145</ele>
        <time>2025-03-26T16:33:47.000Z</time>
      </trkpt>
      <trkpt lat="43.7984" lon="3.85406">
        <ele>146</ele>
        <time>2025-03-26T16:33:50.000Z</time>
      </trkpt>
      <trkpt lat="43.7985" lon="3.85395">
        <ele>146</ele>
        <time>2025-03-26T16:33:53.000Z</time>
      </trkpt>
      <trkpt lat="43.79855" lon="3.85387">
        <ele>146</ele>
        <time>2025-03-26T16:33:56.000Z</time>
      </trkpt>
      <trkpt lat="43.79856" lon="3.85381">
        <ele>146</ele>
        <time>2025-03-26T16:33:59.000Z</time>
      </trkpt>
      <trkpt lat="43.79855" lon="3.85363">
        <ele>147</ele>
        <time>2025-03-26T16:34:02.000Z</time>
      </trkpt>
      <trkpt lat="43.79856" lon="3.85359">
        <ele>148</ele>
        <time>2025-03-26T16:34:05.000Z</time>
      </trkpt>
      <trkpt lat="43.79858" lon="3.85353">
        <ele>148</ele>
        <time>2025-03-26T16:34:08.000Z</time>
      </trkpt>
      <trkpt lat="43.79862" lon="3.85349">
        <ele>149</ele>
        <time>2025-03-26T16:34:11.000Z</time>
      </trkpt>
      <trkpt lat="43.79867" lon="3.85347">
        <ele>149</ele>
        <time>2025-03-26T16:34:14.000Z</time>
      </trkpt>
      <trkpt lat="43.7987" lon="3.85347">
        <ele>149</ele>
        <time>2025-03-26T16:34:17.000Z</time>
      </trkpt>
      <trkpt lat="43.7988" lon="3.85352">
        <ele>150</ele>
        <time>2025-03-26T16:34:20.000Z</time>
      </trkpt>
      <trkpt lat="43.79889" lon="3.85358">
        <ele>151</ele>
        <time>2025-03-26T16:34:23.000Z</time>
      </trkpt>
      <trkpt lat="43.79896" lon="3.85361">
        <ele>152</ele>
        <time>2025-03-26T16:34:26.000Z</time>
      </trkpt>
      <trkpt lat="43.79915" lon="3.85364">
        <ele>153</ele>
        <time>2025-03-26T16:34:29.000Z</time>
      </trkpt>
      <trkpt lat="43.79929" lon="3.85368">
        <ele>154</ele>
        <time>2025-03-26T16:34:32.000Z</time>
      </trkpt>
      <trkpt lat="43.79937" lon="3.8537">
        <ele>154</ele>
        <time>2025-03-26T16:34:35.000Z</time>
      </trkpt>
      <trkpt lat="43.79951" lon="3.85371">
        <ele>154</ele>
        <time>2025-03-26T16:34:38.000Z</time>
      </trkpt>
      <trkpt lat="43.79954" lon="3.85373">
        <ele>154</ele>
        <time>2025-03-26T16:34:41.000Z</time>
      </trkpt>
      <trkpt lat="43.79954" lon="3.85372">
        <ele>154</ele>
        <time>2025-03-26T16:34:44.000Z</time>
      </trkpt>
      <trkpt lat="43.79954" lon="3.85373">
        <ele>154</ele>
        <time>2025-03-26T16:34:47.000Z</time>
      </trkpt>
      <trkpt lat="43.79954" lon="3.85372">
        <ele>154</ele>
        <time>2025-03-26T16:34:50.000Z</time>
      </trkpt>
      <trkpt lat="43.79953" lon="3.85374">
        <ele>154</ele>
        <time>2025-03-26T16:34:53.000Z</time>
      </trkpt>
      <trkpt lat="43.79954" lon="3.85373">
        <ele>153</ele>
        <time>2025-03-26T16:34:56.000Z</time>
      </trkpt>
      <trkpt lat="43.79953" lon="3.85374">
        <ele>153</ele>
        <time>2025-03-26T16:34:59.000Z</time>
      </trkpt>
      <trkpt lat="43.79951" lon="3.85373">
        <ele>153</ele>
        <time>2025-03-26T16:35:02.000Z</time>
      </trkpt>
      <trkpt lat="43.79952" lon="3.85368">
        <ele>153</ele>
        <time>2025-03-26T16:35:05.000Z</time>
      </trkpt>
      <trkpt lat="43.79958" lon="3.85357">
        <ele>154</ele>
        <time>2025-03-26T16:35:08.000Z</time>
      </trkpt>
      <trkpt lat="43.79969" lon="3.85337">
        <ele>154</ele>
        <time>2025-03-26T16:35:11.000Z</time>
      </trkpt>
      <trkpt lat="43.79984" lon="3.85314">
        <ele>155</ele>
        <time>2025-03-26T16:35:14.000Z</time>
      </trkpt>
      <trkpt lat="43.8" lon="3.85285">
        <ele>156</ele>
        <time>2025-03-26T16:35:17.000Z</time>
      </trkpt>
      <trkpt lat="43.80011" lon="3.85261">
        <ele>157</ele>
        <time>2025-03-26T16:35:20.000Z</time>
      </trkpt>
      <trkpt lat="43.80017" lon="3.85245">
        <ele>158</ele>
        <time>2025-03-26T16:35:23.000Z</time>
      </trkpt>
      <trkpt lat="43.80024" lon="3.85232">
        <ele>159</ele>
        <time>2025-03-26T16:35:26.000Z</time>
      </trkpt>
      <trkpt lat="43.80059" lon="3.85177">
        <ele>163</ele>
        <time>2025-03-26T16:35:29.000Z</time>
      </trkpt>
      <trkpt lat="43.80068" lon="3.85168">
        <ele>164</ele>
        <time>2025-03-26T16:35:32.000Z</time>
      </trkpt>
      <trkpt lat="43.80074" lon="3.85161">
        <ele>164</ele>
        <time>2025-03-26T16:35:35.000Z</time>
      </trkpt>
      <trkpt lat="43.80089" lon="3.85132">
        <ele>166</ele>
        <time>2025-03-26T16:35:38.000Z</time>
      </trkpt>
      <trkpt lat="43.80098" lon="3.85118">
        <ele>166</ele>
        <time>2025-03-26T16:35:41.000Z</time>
      </trkpt>
      <trkpt lat="43.80109" lon="3.85097">
        <ele>168</ele>
        <time>2025-03-26T16:35:44.000Z</time>
      </trkpt>
      <trkpt lat="43.80119" lon="3.85079">
        <ele>168</ele>
        <time>2025-03-26T16:35:47.000Z</time>
      </trkpt>
      <trkpt lat="43.80122" lon="3.85075">
        <ele>169</ele>
        <time>2025-03-26T16:35:50.000Z</time>
      </trkpt>
      <trkpt lat="43.80133" lon="3.85056">
        <ele>170</ele>
        <time>2025-03-26T16:35:53.000Z</time>
      </trkpt>
      <trkpt lat="43.80137" lon="3.85043">
        <ele>171</ele>
        <time>2025-03-26T16:35:56.000Z</time>
      </trkpt>
      <trkpt lat="43.80139" lon="3.85032">
        <ele>172</ele>
        <time>2025-03-26T16:35:59.000Z</time>
      </trkpt>
      <trkpt lat="43.8014" lon="3.85003">
        <ele>175</ele>
        <time>2025-03-26T16:36:02.000Z</time>
      </trkpt>
      <trkpt lat="43.80142" lon="3.84998">
        <ele>175</ele>
        <time>2025-03-26T16:36:05.000Z</time>
      </trkpt>
      <trkpt lat="43.80143" lon="3.84996">
        <ele>175</ele>
        <time>2025-03-26T16:36:08.000Z</time>
      </trkpt>
      <trkpt lat="43.80148" lon="3.84994">
        <ele>175</ele>
        <time>2025-03-26T16:36:11.000Z</time>
      </trkpt>
      <trkpt lat="43.80154" lon="3.84996">
        <ele>176</ele>
        <time>2025-03-26T16:36:14.000Z</time>
      </trkpt>
      <trkpt lat="43.80157" lon="3.84998">
        <ele>176</ele>
        <time>2025-03-26T16:36:17.000Z</time>
      </trkpt>
      <trkpt lat="43.80166" lon="3.85001">
        <ele>176</ele>
        <time>2025-03-26T16:36:20.000Z</time>
      </trkpt>
      <trkpt lat="43.80171" lon="3.85">
        <ele>176</ele>
        <time>2025-03-26T16:36:23.000Z</time>
      </trkpt>
      <trkpt lat="43.80174" lon="3.84999">
        <ele>176</ele>
        <time>2025-03-26T16:36:26.000Z</time>
      </trkpt>
      <trkpt lat="43.80178" lon="3.84992">
        <ele>176</ele>
        <time>2025-03-26T16:36:29.000Z</time>
      </trkpt>
      <trkpt lat="43.80182" lon="3.84984">
        <ele>176</ele>
        <time>2025-03-26T16:36:32.000Z</time>
      </trkpt>
      <trkpt lat="43.80184" lon="3.84978">
        <ele>176</ele>
        <time>2025-03-26T16:36:35.000Z</time>
      </trkpt>
      <trkpt lat="43.80188" lon="3.84969">
        <ele>176</ele>
        <time>2025-03-26T16:36:38.000Z</time>
      </trkpt>
      <trkpt lat="43.80197" lon="3.84954">
        <ele>177</ele>
        <time>2025-03-26T16:36:41.000Z</time>
      </trkpt>
      <trkpt lat="43.80199" lon="3.8495">
        <ele>177</ele>
        <time>2025-03-26T16:36:44.000Z</time>
      </trkpt>
      <trkpt lat="43.802" lon="3.84948">
        <ele>177</ele>
        <time>2025-03-26T16:36:47.000Z</time>
      </trkpt>
      <trkpt lat="43.80204" lon="3.84941">
        <ele>177</ele>
        <time>2025-03-26T16:36:50.000Z</time>
      </trkpt>
      <trkpt lat="43.80206" lon="3.84939">
        <ele>177</ele>
        <time>2025-03-26T16:36:53.000Z</time>
      </trkpt>
      <trkpt lat="43.80213" lon="3.8493">
        <ele>178</ele>
        <time>2025-03-26T16:36:56.000Z</time>
      </trkpt>
      <trkpt lat="43.80215" lon="3.84925">
        <ele>178</ele>
        <time>2025-03-26T16:36:59.000Z</time>
      </trkpt>
      <trkpt lat="43.80217" lon="3.84921">
        <ele>178</ele>
        <time>2025-03-26T16:37:02.000Z</time>
      </trkpt>
      <trkpt lat="43.80227" lon="3.84912">
        <ele>178</ele>
        <time>2025-03-26T16:37:05.000Z</time>
      </trkpt>
      <trkpt lat="43.80227" lon="3.84908">
        <ele>178</ele>
        <time>2025-03-26T16:37:08.000Z</time>
      </trkpt>
      <trkpt lat="43.80227" lon="3.84909">
        <ele>178</ele>
        <time>2025-03-26T16:37:11.000Z</time>
      </trkpt>
      <trkpt lat="43.80227" lon="3.84908">
        <ele>178</ele>
        <time>2025-03-26T16:37:14.000Z</time>
      </trkpt>
      <trkpt lat="43.80228" lon="3.84909">
        <ele>178</ele>
        <time>2025-03-26T16:37:17.000Z</time>
      </trkpt>
      <trkpt lat="43.8023" lon="3.84906">
        <ele>178</ele>
        <time>2025-03-26T16:37:20.000Z</time>
      </trkpt>
      <trkpt lat="43.8023" lon="3.84905">
        <ele>178</ele>
        <time>2025-03-26T16:37:23.000Z</time>
      </trkpt>
      <trkpt lat="43.8023" lon="3.84902">
        <ele>178</ele>
        <time>2025-03-26T16:37:26.000Z</time>
      </trkpt>
      <trkpt lat="43.80232" lon="3.84889">
        <ele>178</ele>
        <time>2025-03-26T16:37:29.000Z</time>
      </trkpt>
      <trkpt lat="43.80241" lon="3.84872">
        <ele>177</ele>
        <time>2025-03-26T16:37:32.000Z</time>
      </trkpt>
      <trkpt lat="43.80241" lon="3.84874">
        <ele>177</ele>
        <time>2025-03-26T16:37:35.000Z</time>
      </trkpt>
      <trkpt lat="43.80237" lon="3.84876">
        <ele>178</ele>
        <time>2025-03-26T16:37:38.000Z</time>
      </trkpt>
      <trkpt lat="43.80232" lon="3.84876">
        <ele>180</ele>
        <time>2025-03-26T16:37:41.000Z</time>
      </trkpt>
      <trkpt lat="43.80227" lon="3.84875">
        <ele>181</ele>
        <time>2025-03-26T16:37:44.000Z</time>
      </trkpt>
      <trkpt lat="43.80223" lon="3.84875">
        <ele>183</ele>
        <time>2025-03-26T16:37:47.000Z</time>
      </trkpt>
      <trkpt lat="43.8022" lon="3.84874">
        <ele>183</ele>
        <time>2025-03-26T16:37:50.000Z</time>
      </trkpt>
      <trkpt lat="43.80214" lon="3.84873">
        <ele>184</ele>
        <time>2025-03-26T16:37:53.000Z</time>
      </trkpt>
      <trkpt lat="43.80211" lon="3.8487">
        <ele>184</ele>
        <time>2025-03-26T16:37:56.000Z</time>
      </trkpt>
      <trkpt lat="43.8021" lon="3.84868">
        <ele>184</ele>
        <time>2025-03-26T16:37:59.000Z</time>
      </trkpt>
      <trkpt lat="43.80209" lon="3.84864">
        <ele>185</ele>
        <time>2025-03-26T16:38:02.000Z</time>
      </trkpt>
      <trkpt lat="43.80205" lon="3.84856">
        <ele>185</ele>
        <time>2025-03-26T16:38:05.000Z</time>
      </trkpt>
      <trkpt lat="43.80205" lon="3.84848">
        <ele>187</ele>
        <time>2025-03-26T16:38:08.000Z</time>
      </trkpt>
      <trkpt lat="43.80204" lon="3.84844">
        <ele>187</ele>
        <time>2025-03-26T16:38:11.000Z</time>
      </trkpt>
      <trkpt lat="43.80201" lon="3.84836">
        <ele>188</ele>
        <time>2025-03-26T16:38:14.000Z</time>
      </trkpt>
      <trkpt lat="43.80194" lon="3.84816">
        <ele>190</ele>
        <time>2025-03-26T16:38:17.000Z</time>
      </trkpt>
      <trkpt lat="43.80193" lon="3.84808">
        <ele>191</ele>
        <time>2025-03-26T16:38:20.000Z</time>
      </trkpt>
      <trkpt lat="43.80194" lon="3.84806">
        <ele>191</ele>
        <time>2025-03-26T16:38:23.000Z</time>
      </trkpt>
      <trkpt lat="43.80194" lon="3.848">
        <ele>191</ele>
        <time>2025-03-26T16:38:26.000Z</time>
      </trkpt>
      <trkpt lat="43.80193" lon="3.84797">
        <ele>192</ele>
        <time>2025-03-26T16:38:29.000Z</time>
      </trkpt>
      <trkpt lat="43.80192" lon="3.8479">
        <ele>193</ele>
        <time>2025-03-26T16:38:32.000Z</time>
      </trkpt>
      <trkpt lat="43.80192" lon="3.84782">
        <ele>194</ele>
        <time>2025-03-26T16:38:35.000Z</time>
      </trkpt>
      <trkpt lat="43.80192" lon="3.8478">
        <ele>195</ele>
        <time>2025-03-26T16:38:38.000Z</time>
      </trkpt>
      <trkpt lat="43.80192" lon="3.84771">
        <ele>195</ele>
        <time>2025-03-26T16:38:41.000Z</time>
      </trkpt>
      <trkpt lat="43.80193" lon="3.84768">
        <ele>196</ele>
        <time>2025-03-26T16:38:44.000Z</time>
      </trkpt>
      <trkpt lat="43.80192" lon="3.84764">
        <ele>197</ele>
        <time>2025-03-26T16:38:47.000Z</time>
      </trkpt>
      <trkpt lat="43.80193" lon="3.84758">
        <ele>198</ele>
        <time>2025-03-26T16:38:50.000Z</time>
      </trkpt>
      <trkpt lat="43.80192" lon="3.84756">
        <ele>198</ele>
        <time>2025-03-26T16:38:53.000Z</time>
      </trkpt>
      <trkpt lat="43.80191" lon="3.84748">
        <ele>199</ele>
        <time>2025-03-26T16:38:56.000Z</time>
      </trkpt>
      <trkpt lat="43.8019" lon="3.84745">
        <ele>199</ele>
        <time>2025-03-26T16:38:59.000Z</time>
      </trkpt>
      <trkpt lat="43.8019" lon="3.84737">
        <ele>200</ele>
        <time>2025-03-26T16:39:02.000Z</time>
      </trkpt>
      <trkpt lat="43.80191" lon="3.84734">
        <ele>201</ele>
        <time>2025-03-26T16:39:05.000Z</time>
      </trkpt>
      <trkpt lat="43.80192" lon="3.84718">
        <ele>203</ele>
        <time>2025-03-26T16:39:08.000Z</time>
      </trkpt>
      <trkpt lat="43.8019" lon="3.84707">
        <ele>204</ele>
        <time>2025-03-26T16:39:11.000Z</time>
      </trkpt>
      <trkpt lat="43.80189" lon="3.84702">
        <ele>205</ele>
        <time>2025-03-26T16:39:14.000Z</time>
      </trkpt>
      <trkpt lat="43.80189" lon="3.84691">
        <ele>206</ele>
        <time>2025-03-26T16:39:17.000Z</time>
      </trkpt>
      <trkpt lat="43.80192" lon="3.84669">
        <ele>207</ele>
        <time>2025-03-26T16:39:20.000Z</time>
      </trkpt>
      <trkpt lat="43.80193" lon="3.84666">
        <ele>207</ele>
        <time>2025-03-26T16:39:23.000Z</time>
      </trkpt>
      <trkpt lat="43.80193" lon="3.84659">
        <ele>208</ele>
        <time>2025-03-26T16:39:26.000Z</time>
      </trkpt>
      <trkpt lat="43.80192" lon="3.84656">
        <ele>208</ele>
        <time>2025-03-26T16:39:29.000Z</time>
      </trkpt>
      <trkpt lat="43.80192" lon="3.84652">
        <ele>208</ele>
        <time>2025-03-26T16:39:32.000Z</time>
      </trkpt>
      <trkpt lat="43.8019" lon="3.84643">
        <ele>208</ele>
        <time>2025-03-26T16:39:35.000Z</time>
      </trkpt>
      <trkpt lat="43.80186" lon="3.84631">
        <ele>208</ele>
        <time>2025-03-26T16:39:38.000Z</time>
      </trkpt>
      <trkpt lat="43.80185" lon="3.84625">
        <ele>209</ele>
        <time>2025-03-26T16:39:41.000Z</time>
      </trkpt>
      <trkpt lat="43.80183" lon="3.84617">
        <ele>209</ele>
        <time>2025-03-26T16:39:44.000Z</time>
      </trkpt>
      <trkpt lat="43.80183" lon="3.84605">
        <ele>210</ele>
        <time>2025-03-26T16:39:47.000Z</time>
      </trkpt>
      <trkpt lat="43.80183" lon="3.84597">
        <ele>211</ele>
        <time>2025-03-26T16:39:50.000Z</time>
      </trkpt>
      <trkpt lat="43.80183" lon="3.84594">
        <ele>212</ele>
        <time>2025-03-26T16:39:53.000Z</time>
      </trkpt>
      <trkpt lat="43.80182" lon="3.8459">
        <ele>213</ele>
        <time>2025-03-26T16:39:56.000Z</time>
      </trkpt>
      <trkpt lat="43.80172" lon="3.84586">
        <ele>213</ele>
        <time>2025-03-26T16:39:59.000Z</time>
      </trkpt>
      <trkpt lat="43.8017" lon="3.84584">
        <ele>213</ele>
        <time>2025-03-26T16:40:02.000Z</time>
      </trkpt>
      <trkpt lat="43.80164" lon="3.84582">
        <ele>214</ele>
        <time>2025-03-26T16:40:05.000Z</time>
      </trkpt>
      <trkpt lat="43.8016" lon="3.84579">
        <ele>214</ele>
        <time>2025-03-26T16:40:08.000Z</time>
      </trkpt>
      <trkpt lat="43.80156" lon="3.84575">
        <ele>214</ele>
        <time>2025-03-26T16:40:11.000Z</time>
      </trkpt>
      <trkpt lat="43.80152" lon="3.84571">
        <ele>215</ele>
        <time>2025-03-26T16:40:14.000Z</time>
      </trkpt>
      <trkpt lat="43.80147" lon="3.84566">
        <ele>216</ele>
        <time>2025-03-26T16:40:17.000Z</time>
      </trkpt>
      <trkpt lat="43.80145" lon="3.84563">
        <ele>216</ele>
        <time>2025-03-26T16:40:20.000Z</time>
      </trkpt>
      <trkpt lat="43.80143" lon="3.84558">
        <ele>217</ele>
        <time>2025-03-26T16:40:23.000Z</time>
      </trkpt>
      <trkpt lat="43.80143" lon="3.84556">
        <ele>217</ele>
        <time>2025-03-26T16:40:26.000Z</time>
      </trkpt>
      <trkpt lat="43.80144" lon="3.84548">
        <ele>217</ele>
        <time>2025-03-26T16:40:29.000Z</time>
      </trkpt>
      <trkpt lat="43.80145" lon="3.84544">
        <ele>218</ele>
        <time>2025-03-26T16:40:32.000Z</time>
      </trkpt>
      <trkpt lat="43.80144" lon="3.84541">
        <ele>219</ele>
        <time>2025-03-26T16:40:35.000Z</time>
      </trkpt>
      <trkpt lat="43.80141" lon="3.84538">
        <ele>220</ele>
        <time>2025-03-26T16:40:38.000Z</time>
      </trkpt>
      <trkpt lat="43.80138" lon="3.84535">
        <ele>220</ele>
        <time>2025-03-26T16:40:41.000Z</time>
      </trkpt>
      <trkpt lat="43.80133" lon="3.84536">
        <ele>220</ele>
        <time>2025-03-26T16:40:44.000Z</time>
      </trkpt>
      <trkpt lat="43.80132" lon="3.84535">
        <ele>220</ele>
        <time>2025-03-26T16:40:47.000Z</time>
      </trkpt>
      <trkpt lat="43.80127" lon="3.84526">
        <ele>220</ele>
        <time>2025-03-26T16:40:50.000Z</time>
      </trkpt>
      <trkpt lat="43.80125" lon="3.84517">
        <ele>222</ele>
        <time>2025-03-26T16:40:53.000Z</time>
      </trkpt>
      <trkpt lat="43.80123" lon="3.84509">
        <ele>223</ele>
        <time>2025-03-26T16:40:56.000Z</time>
      </trkpt>
      <trkpt lat="43.80123" lon="3.84504">
        <ele>224</ele>
        <time>2025-03-26T16:40:59.000Z</time>
      </trkpt>
      <trkpt lat="43.80124" lon="3.84502">
        <ele>225</ele>
        <time>2025-03-26T16:41:02.000Z</time>
      </trkpt>
      <trkpt lat="43.80126" lon="3.845">
        <ele>226</ele>
        <time>2025-03-26T16:41:05.000Z</time>
      </trkpt>
      <trkpt lat="43.80127" lon="3.84495">
        <ele>227</ele>
        <time>2025-03-26T16:41:08.000Z</time>
      </trkpt>
      <trkpt lat="43.80128" lon="3.84493">
        <ele>227</ele>
        <time>2025-03-26T16:41:11.000Z</time>
      </trkpt>
      <trkpt lat="43.80129" lon="3.84485">
        <ele>230</ele>
        <time>2025-03-26T16:41:14.000Z</time>
      </trkpt>
      <trkpt lat="43.80128" lon="3.84474">
        <ele>232</ele>
        <time>2025-03-26T16:41:17.000Z</time>
      </trkpt>
      <trkpt lat="43.80127" lon="3.84472">
        <ele>232</ele>
        <time>2025-03-26T16:41:20.000Z</time>
      </trkpt>
      <trkpt lat="43.80125" lon="3.84471">
        <ele>232</ele>
        <time>2025-03-26T16:41:23.000Z</time>
      </trkpt>
      <trkpt lat="43.80122" lon="3.84466">
        <ele>233</ele>
        <time>2025-03-26T16:41:26.000Z</time>
      </trkpt>
      <trkpt lat="43.80122" lon="3.84458">
        <ele>234</ele>
        <time>2025-03-26T16:41:29.000Z</time>
      </trkpt>
      <trkpt lat="43.8012" lon="3.84451">
        <ele>236</ele>
        <time>2025-03-26T16:41:32.000Z</time>
      </trkpt>
      <trkpt lat="43.80119" lon="3.8445">
        <ele>237</ele>
        <time>2025-03-26T16:41:35.000Z</time>
      </trkpt>
      <trkpt lat="43.80114" lon="3.84449">
        <ele>237</ele>
        <time>2025-03-26T16:41:38.000Z</time>
      </trkpt>
      <trkpt lat="43.80112" lon="3.84448">
        <ele>238</ele>
        <time>2025-03-26T16:41:41.000Z</time>
      </trkpt>
      <trkpt lat="43.80111" lon="3.84447">
        <ele>238</ele>
        <time>2025-03-26T16:41:44.000Z</time>
      </trkpt>
      <trkpt lat="43.80107" lon="3.84445">
        <ele>238</ele>
        <time>2025-03-26T16:41:47.000Z</time>
      </trkpt>
      <trkpt lat="43.80103" lon="3.84442">
        <ele>239</ele>
        <time>2025-03-26T16:41:50.000Z</time>
      </trkpt>
      <trkpt lat="43.80101" lon="3.84439">
        <ele>239</ele>
        <time>2025-03-26T16:41:53.000Z</time>
      </trkpt>
      <trkpt lat="43.80098" lon="3.84437">
        <ele>240</ele>
        <time>2025-03-26T16:41:56.000Z</time>
      </trkpt>
      <trkpt lat="43.80095" lon="3.84433">
        <ele>240</ele>
        <time>2025-03-26T16:41:59.000Z</time>
      </trkpt>
      <trkpt lat="43.80093" lon="3.84426">
        <ele>241</ele>
        <time>2025-03-26T16:42:02.000Z</time>
      </trkpt>
      <trkpt lat="43.80093" lon="3.84424">
        <ele>242</ele>
        <time>2025-03-26T16:42:05.000Z</time>
      </trkpt>
      <trkpt lat="43.80092" lon="3.84422">
        <ele>242</ele>
        <time>2025-03-26T16:42:08.000Z</time>
      </trkpt>
      <trkpt lat="43.80091" lon="3.84419">
        <ele>243</ele>
        <time>2025-03-26T16:42:11.000Z</time>
      </trkpt>
      <trkpt lat="43.8009" lon="3.84419">
        <ele>244</ele>
        <time>2025-03-26T16:42:14.000Z</time>
      </trkpt>
      <trkpt lat="43.80084" lon="3.8442">
        <ele>244</ele>
        <time>2025-03-26T16:42:17.000Z</time>
      </trkpt>
      <trkpt lat="43.80076" lon="3.84425">
        <ele>243</ele>
        <time>2025-03-26T16:42:20.000Z</time>
      </trkpt>
      <trkpt lat="43.80062" lon="3.8443">
        <ele>241</ele>
        <time>2025-03-26T16:42:23.000Z</time>
      </trkpt>
      <trkpt lat="43.80058" lon="3.8443">
        <ele>241</ele>
        <time>2025-03-26T16:42:26.000Z</time>
      </trkpt>
      <trkpt lat="43.80053" lon="3.84427">
        <ele>240</ele>
        <time>2025-03-26T16:42:29.000Z</time>
      </trkpt>
      <trkpt lat="43.80048" lon="3.84427">
        <ele>239</ele>
        <time>2025-03-26T16:42:32.000Z</time>
      </trkpt>
      <trkpt lat="43.80046" lon="3.84427">
        <ele>238</ele>
        <time>2025-03-26T16:42:35.000Z</time>
      </trkpt>
      <trkpt lat="43.80044" lon="3.84424">
        <ele>238</ele>
        <time>2025-03-26T16:42:38.000Z</time>
      </trkpt>
      <trkpt lat="43.80037" lon="3.84423">
        <ele>238</ele>
        <time>2025-03-26T16:42:41.000Z</time>
      </trkpt>
      <trkpt lat="43.80032" lon="3.84426">
        <ele>237</ele>
        <time>2025-03-26T16:42:44.000Z</time>
      </trkpt>
      <trkpt lat="43.80024" lon="3.84429">
        <ele>236</ele>
        <time>2025-03-26T16:42:47.000Z</time>
      </trkpt>
      <trkpt lat="43.80015" lon="3.84434">
        <ele>234</ele>
        <time>2025-03-26T16:42:50.000Z</time>
      </trkpt>
      <trkpt lat="43.80003" lon="3.84434">
        <ele>234</ele>
        <time>2025-03-26T16:42:53.000Z</time>
      </trkpt>
      <trkpt lat="43.8" lon="3.84433">
        <ele>234</ele>
        <time>2025-03-26T16:42:56.000Z</time>
      </trkpt>
      <trkpt lat="43.79999" lon="3.84433">
        <ele>233</ele>
        <time>2025-03-26T16:42:59.000Z</time>
      </trkpt>
      <trkpt lat="43.79996" lon="3.84437">
        <ele>233</ele>
        <time>2025-03-26T16:43:02.000Z</time>
      </trkpt>
      <trkpt lat="43.79994" lon="3.84438">
        <ele>233</ele>
        <time>2025-03-26T16:43:05.000Z</time>
      </trkpt>
      <trkpt lat="43.79986" lon="3.84438">
        <ele>232</ele>
        <time>2025-03-26T16:43:08.000Z</time>
      </trkpt>
      <trkpt lat="43.79981" lon="3.84437">
        <ele>231</ele>
        <time>2025-03-26T16:43:11.000Z</time>
      </trkpt>
      <trkpt lat="43.79971" lon="3.84433">
        <ele>230</ele>
        <time>2025-03-26T16:43:14.000Z</time>
      </trkpt>
      <trkpt lat="43.79967" lon="3.84433">
        <ele>230</ele>
        <time>2025-03-26T16:43:17.000Z</time>
      </trkpt>
      <trkpt lat="43.79958" lon="3.84425">
        <ele>231</ele>
        <time>2025-03-26T16:43:20.000Z</time>
      </trkpt>
      <trkpt lat="43.79954" lon="3.84423">
        <ele>231</ele>
        <time>2025-03-26T16:43:23.000Z</time>
      </trkpt>
      <trkpt lat="43.79944" lon="3.84419">
        <ele>231</ele>
        <time>2025-03-26T16:43:26.000Z</time>
      </trkpt>
      <trkpt lat="43.79939" lon="3.8442">
        <ele>231</ele>
        <time>2025-03-26T16:43:29.000Z</time>
      </trkpt>
      <trkpt lat="43.79936" lon="3.8442">
        <ele>231</ele>
        <time>2025-03-26T16:43:32.000Z</time>
      </trkpt>
      <trkpt lat="43.79928" lon="3.84415">
        <ele>232</ele>
        <time>2025-03-26T16:43:35.000Z</time>
      </trkpt>
      <trkpt lat="43.79925" lon="3.84412">
        <ele>233</ele>
        <time>2025-03-26T16:43:38.000Z</time>
      </trkpt>
      <trkpt lat="43.79922" lon="3.84409">
        <ele>233</ele>
        <time>2025-03-26T16:43:41.000Z</time>
      </trkpt>
      <trkpt lat="43.7992" lon="3.84408">
        <ele>233</ele>
        <time>2025-03-26T16:43:44.000Z</time>
      </trkpt>
      <trkpt lat="43.79915" lon="3.84408">
        <ele>234</ele>
        <time>2025-03-26T16:43:47.000Z</time>
      </trkpt>
      <trkpt lat="43.79912" lon="3.84406">
        <ele>234</ele>
        <time>2025-03-26T16:43:50.000Z</time>
      </trkpt>
      <trkpt lat="43.79899" lon="3.84397">
        <ele>234</ele>
        <time>2025-03-26T16:43:53.000Z</time>
      </trkpt>
      <trkpt lat="43.79892" lon="3.84388">
        <ele>235</ele>
        <time>2025-03-26T16:43:56.000Z</time>
      </trkpt>
      <trkpt lat="43.79886" lon="3.84385">
        <ele>236</ele>
        <time>2025-03-26T16:43:59.000Z</time>
      </trkpt>
      <trkpt lat="43.79876" lon="3.84381">
        <ele>237</ele>
        <time>2025-03-26T16:44:02.000Z</time>
      </trkpt>
      <trkpt lat="43.79871" lon="3.84375">
        <ele>237</ele>
        <time>2025-03-26T16:44:05.000Z</time>
      </trkpt>
      <trkpt lat="43.79865" lon="3.8437">
        <ele>237</ele>
        <time>2025-03-26T16:44:08.000Z</time>
      </trkpt>
      <trkpt lat="43.7986" lon="3.84365">
        <ele>238</ele>
        <time>2025-03-26T16:44:11.000Z</time>
      </trkpt>
      <trkpt lat="43.7985" lon="3.84363">
        <ele>239</ele>
        <time>2025-03-26T16:44:14.000Z</time>
      </trkpt>
      <trkpt lat="43.79843" lon="3.84359">
        <ele>238</ele>
        <time>2025-03-26T16:44:17.000Z</time>
      </trkpt>
      <trkpt lat="43.79843" lon="3.84357">
        <ele>239</ele>
        <time>2025-03-26T16:44:20.000Z</time>
      </trkpt>
      <trkpt lat="43.79843" lon="3.84356">
        <ele>239</ele>
        <time>2025-03-26T16:44:23.000Z</time>
      </trkpt>
      <trkpt lat="43.79843" lon="3.84356">
        <ele>239</ele>
        <time>2025-03-26T16:44:26.000Z</time>
      </trkpt>
      <trkpt lat="43.79843" lon="3.84356">
        <ele>239</ele>
        <time>2025-03-26T16:44:29.000Z</time>
      </trkpt>
      <trkpt lat="43.79842" lon="3.84354">
        <ele>239</ele>
        <time>2025-03-26T16:44:32.000Z</time>
      </trkpt>
      <trkpt lat="43.79842" lon="3.84353">
        <ele>239</ele>
        <time>2025-03-26T16:44:35.000Z</time>
      </trkpt>
      <trkpt lat="43.7984" lon="3.84349">
        <ele>240</ele>
        <time>2025-03-26T16:44:38.000Z</time>
      </trkpt>
      <trkpt lat="43.7984" lon="3.84345">
        <ele>241</ele>
        <time>2025-03-26T16:44:41.000Z</time>
      </trkpt>
      <trkpt lat="43.79843" lon="3.84353">
        <ele>241</ele>
        <time>2025-03-26T16:44:44.000Z</time>
      </trkpt>
      <trkpt lat="43.79842" lon="3.84359">
        <ele>240</ele>
        <time>2025-03-26T16:44:47.000Z</time>
      </trkpt>
      <trkpt lat="43.7984" lon="3.8436">
        <ele>239</ele>
        <time>2025-03-26T16:44:50.000Z</time>
      </trkpt>
      <trkpt lat="43.79837" lon="3.84363">
        <ele>238</ele>
        <time>2025-03-26T16:44:53.000Z</time>
      </trkpt>
      <trkpt lat="43.79826" lon="3.84358">
        <ele>238</ele>
        <time>2025-03-26T16:44:56.000Z</time>
      </trkpt>
      <trkpt lat="43.79823" lon="3.84355">
        <ele>238</ele>
        <time>2025-03-26T16:44:59.000Z</time>
      </trkpt>
      <trkpt lat="43.79821" lon="3.84352">
        <ele>239</ele>
        <time>2025-03-26T16:45:02.000Z</time>
      </trkpt>
      <trkpt lat="43.79818" lon="3.84353">
        <ele>239</ele>
        <time>2025-03-26T16:45:05.000Z</time>
      </trkpt>
      <trkpt lat="43.79817" lon="3.84356">
        <ele>239</ele>
        <time>2025-03-26T16:45:08.000Z</time>
      </trkpt>
      <trkpt lat="43.79815" lon="3.84356">
        <ele>239</ele>
        <time>2025-03-26T16:45:11.000Z</time>
      </trkpt>
      <trkpt lat="43.79811" lon="3.84355">
        <ele>238</ele>
        <time>2025-03-26T16:45:14.000Z</time>
      </trkpt>
      <trkpt lat="43.79806" lon="3.84355">
        <ele>238</ele>
        <time>2025-03-26T16:45:17.000Z</time>
      </trkpt>
      <trkpt lat="43.79803" lon="3.84354">
        <ele>238</ele>
        <time>2025-03-26T16:45:20.000Z</time>
      </trkpt>
      <trkpt lat="43.79801" lon="3.84355">
        <ele>238</ele>
        <time>2025-03-26T16:45:23.000Z</time>
      </trkpt>
      <trkpt lat="43.79798" lon="3.84355">
        <ele>238</ele>
        <time>2025-03-26T16:45:26.000Z</time>
      </trkpt>
      <trkpt lat="43.79794" lon="3.8436">
        <ele>238</ele>
        <time>2025-03-26T16:45:29.000Z</time>
      </trkpt>
      <trkpt lat="43.79792" lon="3.84361">
        <ele>237</ele>
        <time>2025-03-26T16:45:32.000Z</time>
      </trkpt>
      <trkpt lat="43.7979" lon="3.84364">
        <ele>237</ele>
        <time>2025-03-26T16:45:35.000Z</time>
      </trkpt>
      <trkpt lat="43.79786" lon="3.84366">
        <ele>236</ele>
        <time>2025-03-26T16:45:38.000Z</time>
      </trkpt>
      <trkpt lat="43.79782" lon="3.84367">
        <ele>235</ele>
        <time>2025-03-26T16:45:41.000Z</time>
      </trkpt>
      <trkpt lat="43.79777" lon="3.84366">
        <ele>235</ele>
        <time>2025-03-26T16:45:44.000Z</time>
      </trkpt>
      <trkpt lat="43.79768" lon="3.8436">
        <ele>236</ele>
        <time>2025-03-26T16:45:47.000Z</time>
      </trkpt>
      <trkpt lat="43.79762" lon="3.84351">
        <ele>238</ele>
        <time>2025-03-26T16:45:50.000Z</time>
      </trkpt>
      <trkpt lat="43.79758" lon="3.84351">
        <ele>239</ele>
        <time>2025-03-26T16:45:53.000Z</time>
      </trkpt>
      <trkpt lat="43.79755" lon="3.8435">
        <ele>239</ele>
        <time>2025-03-26T16:45:56.000Z</time>
      </trkpt>
      <trkpt lat="43.79752" lon="3.84348">
        <ele>240</ele>
        <time>2025-03-26T16:45:59.000Z</time>
      </trkpt>
      <trkpt lat="43.79753" lon="3.84348">
        <ele>240</ele>
        <time>2025-03-26T16:46:02.000Z</time>
      </trkpt>
      <trkpt lat="43.79745" lon="3.84342">
        <ele>241</ele>
        <time>2025-03-26T16:46:05.000Z</time>
      </trkpt>
      <trkpt lat="43.79738" lon="3.8434">
        <ele>242</ele>
        <time>2025-03-26T16:46:08.000Z</time>
      </trkpt>
      <trkpt lat="43.79733" lon="3.84341">
        <ele>242</ele>
        <time>2025-03-26T16:46:11.000Z</time>
      </trkpt>
      <trkpt lat="43.79731" lon="3.84342">
        <ele>242</ele>
        <time>2025-03-26T16:46:14.000Z</time>
      </trkpt>
      <trkpt lat="43.7973" lon="3.84345">
        <ele>242</ele>
        <time>2025-03-26T16:46:17.000Z</time>
      </trkpt>
      <trkpt lat="43.79728" lon="3.8435">
        <ele>241</ele>
        <time>2025-03-26T16:46:20.000Z</time>
      </trkpt>
      <trkpt lat="43.79726" lon="3.8435">
        <ele>240</ele>
        <time>2025-03-26T16:46:23.000Z</time>
      </trkpt>
      <trkpt lat="43.79722" lon="3.84348">
        <ele>240</ele>
        <time>2025-03-26T16:46:26.000Z</time>
      </trkpt>
      <trkpt lat="43.79724" lon="3.84345">
        <ele>243</ele>
        <time>2025-03-26T16:46:29.000Z</time>
      </trkpt>
      <trkpt lat="43.79711" lon="3.84338">
        <ele>241</ele>
        <time>2025-03-26T16:46:32.000Z</time>
      </trkpt>
      <trkpt lat="43.79703" lon="3.84341">
        <ele>239</ele>
        <time>2025-03-26T16:46:35.000Z</time>
      </trkpt>
      <trkpt lat="43.79691" lon="3.84336">
        <ele>237</ele>
        <time>2025-03-26T16:46:38.000Z</time>
      </trkpt>
      <trkpt lat="43.79678" lon="3.8434">
        <ele>234</ele>
        <time>2025-03-26T16:46:41.000Z</time>
      </trkpt>
      <trkpt lat="43.79668" lon="3.84344">
        <ele>232</ele>
        <time>2025-03-26T16:46:44.000Z</time>
      </trkpt>
      <trkpt lat="43.79651" lon="3.84348">
        <ele>229</ele>
        <time>2025-03-26T16:46:47.000Z</time>
      </trkpt>
      <trkpt lat="43.79591" lon="3.84339">
        <ele>224</ele>
        <time>2025-03-26T16:46:50.000Z</time>
      </trkpt>
      <trkpt lat="43.79586" lon="3.84351">
        <ele>222</ele>
        <time>2025-03-26T16:46:53.000Z</time>
      </trkpt>
      <trkpt lat="43.79589" lon="3.84356">
        <ele>220</ele>
        <time>2025-03-26T16:46:56.000Z</time>
      </trkpt>
      <trkpt lat="43.79592" lon="3.84375">
        <ele>217</ele>
        <time>2025-03-26T16:46:59.000Z</time>
      </trkpt>
      <trkpt lat="43.796" lon="3.84386">
        <ele>215</ele>
        <time>2025-03-26T16:47:02.000Z</time>
      </trkpt>
      <trkpt lat="43.79606" lon="3.84402">
        <ele>213</ele>
        <time>2025-03-26T16:47:05.000Z</time>
      </trkpt>
      <trkpt lat="43.79615" lon="3.84418">
        <ele>210</ele>
        <time>2025-03-26T16:47:08.000Z</time>
      </trkpt>
      <trkpt lat="43.79616" lon="3.84431">
        <ele>208</ele>
        <time>2025-03-26T16:47:11.000Z</time>
      </trkpt>
      <trkpt lat="43.79612" lon="3.8449">
        <ele>204</ele>
        <time>2025-03-26T16:47:14.000Z</time>
      </trkpt>
      <trkpt lat="43.79607" lon="3.84509">
        <ele>202</ele>
        <time>2025-03-26T16:47:17.000Z</time>
      </trkpt>
      <trkpt lat="43.79591" lon="3.84537">
        <ele>200</ele>
        <time>2025-03-26T16:47:20.000Z</time>
      </trkpt>
      <trkpt lat="43.79575" lon="3.84536">
        <ele>198</ele>
        <time>2025-03-26T16:47:23.000Z</time>
      </trkpt>
      <trkpt lat="43.79571" lon="3.84532">
        <ele>197</ele>
        <time>2025-03-26T16:47:26.000Z</time>
      </trkpt>
      <trkpt lat="43.79552" lon="3.84526">
        <ele>195</ele>
        <time>2025-03-26T16:47:29.000Z</time>
      </trkpt>
      <trkpt lat="43.79542" lon="3.84529">
        <ele>194</ele>
        <time>2025-03-26T16:47:32.000Z</time>
      </trkpt>
      <trkpt lat="43.79523" lon="3.84507">
        <ele>192</ele>
        <time>2025-03-26T16:47:35.000Z</time>
      </trkpt>
      <trkpt lat="43.79518" lon="3.84491">
        <ele>191</ele>
        <time>2025-03-26T16:47:38.000Z</time>
      </trkpt>
      <trkpt lat="43.79505" lon="3.84471">
        <ele>190</ele>
        <time>2025-03-26T16:47:41.000Z</time>
      </trkpt>
      <trkpt lat="43.79496" lon="3.84452">
        <ele>189</ele>
        <time>2025-03-26T16:47:44.000Z</time>
      </trkpt>
      <trkpt lat="43.79478" lon="3.8443">
        <ele>189</ele>
        <time>2025-03-26T16:47:47.000Z</time>
      </trkpt>
      <trkpt lat="43.79468" lon="3.84397">
        <ele>187</ele>
        <time>2025-03-26T16:47:50.000Z</time>
      </trkpt>
      <trkpt lat="43.7946" lon="3.84384">
        <ele>187</ele>
        <time>2025-03-26T16:47:53.000Z</time>
      </trkpt>
      <trkpt lat="43.7945" lon="3.84373">
        <ele>186</ele>
        <time>2025-03-26T16:47:56.000Z</time>
      </trkpt>
      <trkpt lat="43.79428" lon="3.84344">
        <ele>186</ele>
        <time>2025-03-26T16:47:59.000Z</time>
      </trkpt>
      <trkpt lat="43.79409" lon="3.84327">
        <ele>185</ele>
        <time>2025-03-26T16:48:02.000Z</time>
      </trkpt>
      <trkpt lat="43.79371" lon="3.84296">
        <ele>185</ele>
        <time>2025-03-26T16:48:05.000Z</time>
      </trkpt>
      <trkpt lat="43.79341" lon="3.84267">
        <ele>185</ele>
        <time>2025-03-26T16:48:08.000Z</time>
      </trkpt>
      <trkpt lat="43.79331" lon="3.84251">
        <ele>185</ele>
        <time>2025-03-26T16:48:11.000Z</time>
      </trkpt>
      <trkpt lat="43.79319" lon="3.84226">
        <ele>185</ele>
        <time>2025-03-26T16:48:14.000Z</time>
      </trkpt>
      <trkpt lat="43.79298" lon="3.84168">
        <ele>186</ele>
        <time>2025-03-26T16:48:17.000Z</time>
      </trkpt>
      <trkpt lat="43.7928" lon="3.84112">
        <ele>187</ele>
        <time>2025-03-26T16:48:20.000Z</time>
      </trkpt>
      <trkpt lat="43.79256" lon="3.84058">
        <ele>187</ele>
        <time>2025-03-26T16:48:23.000Z</time>
      </trkpt>
      <trkpt lat="43.79169" lon="3.83924">
        <ele>190</ele>
        <time>2025-03-26T16:48:26.000Z</time>
      </trkpt>
      <trkpt lat="43.79155" lon="3.83878">
        <ele>191</ele>
        <time>2025-03-26T16:48:29.000Z</time>
      </trkpt>
      <trkpt lat="43.79142" lon="3.83824">
        <ele>192</ele>
        <time>2025-03-26T16:48:32.000Z</time>
      </trkpt>
      <trkpt lat="43.79116" lon="3.83761">
        <ele>194</ele>
        <time>2025-03-26T16:48:35.000Z</time>
      </trkpt>
      <trkpt lat="43.79101" lon="3.83736">
        <ele>194</ele>
        <time>2025-03-26T16:48:38.000Z</time>
      </trkpt>
      <trkpt lat="43.79092" lon="3.83717">
        <ele>195</ele>
        <time>2025-03-26T16:48:41.000Z</time>
      </trkpt>
      <trkpt lat="43.79087" lon="3.837">
        <ele>195</ele>
        <time>2025-03-26T16:48:44.000Z</time>
      </trkpt>
      <trkpt lat="43.79081" lon="3.83666">
        <ele>196</ele>
        <time>2025-03-26T16:48:47.000Z</time>
      </trkpt>
      <trkpt lat="43.79082" lon="3.83651">
        <ele>196</ele>
        <time>2025-03-26T16:48:50.000Z</time>
      </trkpt>
      <trkpt lat="43.7908" lon="3.83631">
        <ele>197</ele>
        <time>2025-03-26T16:48:53.000Z</time>
      </trkpt>
      <trkpt lat="43.79076" lon="3.83623">
        <ele>197</ele>
        <time>2025-03-26T16:48:56.000Z</time>
      </trkpt>
      <trkpt lat="43.79075" lon="3.83606">
        <ele>198</ele>
        <time>2025-03-26T16:48:59.000Z</time>
      </trkpt>
      <trkpt lat="43.79073" lon="3.83546">
        <ele>199</ele>
        <time>2025-03-26T16:49:02.000Z</time>
      </trkpt>
      <trkpt lat="43.79077" lon="3.83495">
        <ele>200</ele>
        <time>2025-03-26T16:49:05.000Z</time>
      </trkpt>
      <trkpt lat="43.79079" lon="3.83478">
        <ele>201</ele>
        <time>2025-03-26T16:49:08.000Z</time>
      </trkpt>
      <trkpt lat="43.79076" lon="3.8341">
        <ele>202</ele>
        <time>2025-03-26T16:49:11.000Z</time>
      </trkpt>
      <trkpt lat="43.79072" lon="3.83391">
        <ele>202</ele>
        <time>2025-03-26T16:49:14.000Z</time>
      </trkpt>
      <trkpt lat="43.79068" lon="3.83364">
        <ele>203</ele>
        <time>2025-03-26T16:49:17.000Z</time>
      </trkpt>
      <trkpt lat="43.79062" lon="3.83346">
        <ele>203</ele>
        <time>2025-03-26T16:49:20.000Z</time>
      </trkpt>
      <trkpt lat="43.79045" lon="3.83329">
        <ele>204</ele>
        <time>2025-03-26T16:49:23.000Z</time>
      </trkpt>
      <trkpt lat="43.79033" lon="3.8323">
        <ele>205</ele>
        <time>2025-03-26T16:49:26.000Z</time>
      </trkpt>
      <trkpt lat="43.79015" lon="3.8318">
        <ele>206</ele>
        <time>2025-03-26T16:49:29.000Z</time>
      </trkpt>
      <trkpt lat="43.79009" lon="3.83162">
        <ele>207</ele>
        <time>2025-03-26T16:49:32.000Z</time>
      </trkpt>
      <trkpt lat="43.79032" lon="3.8314">
        <ele>207</ele>
        <time>2025-03-26T16:49:35.000Z</time>
      </trkpt>
      <trkpt lat="43.79041" lon="3.83118">
        <ele>208</ele>
        <time>2025-03-26T16:49:38.000Z</time>
      </trkpt>
      <trkpt lat="43.79056" lon="3.83094">
        <ele>208</ele>
        <time>2025-03-26T16:49:41.000Z</time>
      </trkpt>
      <trkpt lat="43.79053" lon="3.83073">
        <ele>209</ele>
        <time>2025-03-26T16:49:44.000Z</time>
      </trkpt>
      <trkpt lat="43.79047" lon="3.83055">
        <ele>209</ele>
        <time>2025-03-26T16:49:47.000Z</time>
      </trkpt>
      <trkpt lat="43.79047" lon="3.83034">
        <ele>210</ele>
        <time>2025-03-26T16:49:50.000Z</time>
      </trkpt>
      <trkpt lat="43.7906" lon="3.82959">
        <ele>210</ele>
        <time>2025-03-26T16:49:53.000Z</time>
      </trkpt>
      <trkpt lat="43.79067" lon="3.8293">
        <ele>211</ele>
        <time>2025-03-26T16:49:56.000Z</time>
      </trkpt>
      <trkpt lat="43.79074" lon="3.82887">
        <ele>211</ele>
        <time>2025-03-26T16:49:59.000Z</time>
      </trkpt>
      <trkpt lat="43.79077" lon="3.82847">
        <ele>212</ele>
        <time>2025-03-26T16:50:02.000Z</time>
      </trkpt>
      <trkpt lat="43.79076" lon="3.82826">
        <ele>212</ele>
        <time>2025-03-26T16:50:05.000Z</time>
      </trkpt>
      <trkpt lat="43.79075" lon="3.82814">
        <ele>212</ele>
        <time>2025-03-26T16:50:08.000Z</time>
      </trkpt>
      <trkpt lat="43.79081" lon="3.82709">
        <ele>212</ele>
        <time>2025-03-26T16:50:11.000Z</time>
      </trkpt>
      <trkpt lat="43.79087" lon="3.82664">
        <ele>212</ele>
        <time>2025-03-26T16:50:14.000Z</time>
      </trkpt>
      <trkpt lat="43.79093" lon="3.82477">
        <ele>210</ele>
        <time>2025-03-26T16:50:17.000Z</time>
      </trkpt>
      <trkpt lat="43.79089" lon="3.82387">
        <ele>208</ele>
        <time>2025-03-26T16:50:20.000Z</time>
      </trkpt>
      <trkpt lat="43.7909" lon="3.82345">
        <ele>207</ele>
        <time>2025-03-26T16:50:23.000Z</time>
      </trkpt>
      <trkpt lat="43.79089" lon="3.82316">
        <ele>206</ele>
        <time>2025-03-26T16:50:26.000Z</time>
      </trkpt>
      <trkpt lat="43.79095" lon="3.82279">
        <ele>205</ele>
        <time>2025-03-26T16:50:29.000Z</time>
      </trkpt>
      <trkpt lat="43.79096" lon="3.82262">
        <ele>204</ele>
        <time>2025-03-26T16:50:32.000Z</time>
      </trkpt>
      <trkpt lat="43.79101" lon="3.82233">
        <ele>203</ele>
        <time>2025-03-26T16:50:35.000Z</time>
      </trkpt>
      <trkpt lat="43.79103" lon="3.82168">
        <ele>201</ele>
        <time>2025-03-26T16:50:38.000Z</time>
      </trkpt>
      <trkpt lat="43.79105" lon="3.82158">
        <ele>200</ele>
        <time>2025-03-26T16:50:41.000Z</time>
      </trkpt>
      <trkpt lat="43.79114" lon="3.82148">
        <ele>197</ele>
        <time>2025-03-26T16:50:44.000Z</time>
      </trkpt>
      <trkpt lat="43.79106" lon="3.82133">
        <ele>195</ele>
        <time>2025-03-26T16:50:47.000Z</time>
      </trkpt>
      <trkpt lat="43.79104" lon="3.82107">
        <ele>194</ele>
        <time>2025-03-26T16:50:50.000Z</time>
      </trkpt>
      <trkpt lat="43.79087" lon="3.82096">
        <ele>192</ele>
        <time>2025-03-26T16:50:53.000Z</time>
      </trkpt>
      <trkpt lat="43.79085" lon="3.82054">
        <ele>190</ele>
        <time>2025-03-26T16:50:56.000Z</time>
      </trkpt>
      <trkpt lat="43.79069" lon="3.82044">
        <ele>189</ele>
        <time>2025-03-26T16:50:59.000Z</time>
      </trkpt>
      <trkpt lat="43.79059" lon="3.82025">
        <ele>187</ele>
        <time>2025-03-26T16:51:02.000Z</time>
      </trkpt>
      <trkpt lat="43.79032" lon="3.82013">
        <ele>185</ele>
        <time>2025-03-26T16:51:05.000Z</time>
      </trkpt>
      <trkpt lat="43.79024" lon="3.82003">
        <ele>183</ele>
        <time>2025-03-26T16:51:08.000Z</time>
      </trkpt>
      <trkpt lat="43.7901" lon="3.81992">
        <ele>181</ele>
        <time>2025-03-26T16:51:11.000Z</time>
      </trkpt>
      <trkpt lat="43.78999" lon="3.81973">
        <ele>179</ele>
        <time>2025-03-26T16:51:14.000Z</time>
      </trkpt>
      <trkpt lat="43.78992" lon="3.81968">
        <ele>177</ele>
        <time>2025-03-26T16:51:17.000Z</time>
      </trkpt>
      <trkpt lat="43.78985" lon="3.81966">
        <ele>175</ele>
        <time>2025-03-26T16:51:20.000Z</time>
      </trkpt>
      <trkpt lat="43.78972" lon="3.81943">
        <ele>173</ele>
        <time>2025-03-26T16:51:23.000Z</time>
      </trkpt>
      <trkpt lat="43.78966" lon="3.81943">
        <ele>171</ele>
        <time>2025-03-26T16:51:26.000Z</time>
      </trkpt>
      <trkpt lat="43.78933" lon="3.81956">
        <ele>168</ele>
        <time>2025-03-26T16:51:29.000Z</time>
      </trkpt>
      <trkpt lat="43.78927" lon="3.81951">
        <ele>166</ele>
        <time>2025-03-26T16:51:32.000Z</time>
      </trkpt>
      <trkpt lat="43.78921" lon="3.81937">
        <ele>164</ele>
        <time>2025-03-26T16:51:35.000Z</time>
      </trkpt>
      <trkpt lat="43.78911" lon="3.81939">
        <ele>163</ele>
        <time>2025-03-26T16:51:38.000Z</time>
      </trkpt>
      <trkpt lat="43.78905" lon="3.81937">
        <ele>161</ele>
        <time>2025-03-26T16:51:41.000Z</time>
      </trkpt>
      <trkpt lat="43.78898" lon="3.8194">
        <ele>160</ele>
        <time>2025-03-26T16:51:44.000Z</time>
      </trkpt>
      <trkpt lat="43.78891" lon="3.81937">
        <ele>158</ele>
        <time>2025-03-26T16:51:47.000Z</time>
      </trkpt>
      <trkpt lat="43.7888" lon="3.81919">
        <ele>157</ele>
        <time>2025-03-26T16:51:50.000Z</time>
      </trkpt>
      <trkpt lat="43.78873" lon="3.81915">
        <ele>155</ele>
        <time>2025-03-26T16:51:53.000Z</time>
      </trkpt>
      <trkpt lat="43.78857" lon="3.81916">
        <ele>154</ele>
        <time>2025-03-26T16:51:56.000Z</time>
      </trkpt>
      <trkpt lat="43.78854" lon="3.81922">
        <ele>153</ele>
        <time>2025-03-26T16:51:59.000Z</time>
      </trkpt>
      <trkpt lat="43.7885" lon="3.8192">
        <ele>152</ele>
        <time>2025-03-26T16:52:02.000Z</time>
      </trkpt>
      <trkpt lat="43.78842" lon="3.81922">
        <ele>151</ele>
        <time>2025-03-26T16:52:05.000Z</time>
      </trkpt>
      <trkpt lat="43.78836" lon="3.81917">
        <ele>151</ele>
        <time>2025-03-26T16:52:08.000Z</time>
      </trkpt>
      <trkpt lat="43.7883" lon="3.81918">
        <ele>150</ele>
        <time>2025-03-26T16:52:11.000Z</time>
      </trkpt>
      <trkpt lat="43.78825" lon="3.81923">
        <ele>149</ele>
        <time>2025-03-26T16:52:14.000Z</time>
      </trkpt>
      <trkpt lat="43.78806" lon="3.81921">
        <ele>149</ele>
        <time>2025-03-26T16:52:17.000Z</time>
      </trkpt>
      <trkpt lat="43.788" lon="3.81904">
        <ele>149</ele>
        <time>2025-03-26T16:52:20.000Z</time>
      </trkpt>
      <trkpt lat="43.78795" lon="3.81902">
        <ele>149</ele>
        <time>2025-03-26T16:52:23.000Z</time>
      </trkpt>
      <trkpt lat="43.78786" lon="3.8189">
        <ele>149</ele>
        <time>2025-03-26T16:52:26.000Z</time>
      </trkpt>
      <trkpt lat="43.7877" lon="3.81881">
        <ele>149</ele>
        <time>2025-03-26T16:52:29.000Z</time>
      </trkpt>
      <trkpt lat="43.78766" lon="3.81872">
        <ele>149</ele>
        <time>2025-03-26T16:52:32.000Z</time>
      </trkpt>
      <trkpt lat="43.78761" lon="3.81864">
        <ele>150</ele>
        <time>2025-03-26T16:52:35.000Z</time>
      </trkpt>
      <trkpt lat="43.78743" lon="3.81847">
        <ele>150</ele>
        <time>2025-03-26T16:52:38.000Z</time>
      </trkpt>
      <trkpt lat="43.78727" lon="3.81823">
        <ele>151</ele>
        <time>2025-03-26T16:52:41.000Z</time>
      </trkpt>
      <trkpt lat="43.78725" lon="3.81814">
        <ele>152</ele>
        <time>2025-03-26T16:52:44.000Z</time>
      </trkpt>
      <trkpt lat="43.7872" lon="3.81802">
        <ele>153</ele>
        <time>2025-03-26T16:52:47.000Z</time>
      </trkpt>
      <trkpt lat="43.78707" lon="3.81785">
        <ele>154</ele>
        <time>2025-03-26T16:52:50.000Z</time>
      </trkpt>
      <trkpt lat="43.78696" lon="3.81774">
        <ele>155</ele>
        <time>2025-03-26T16:52:53.000Z</time>
      </trkpt>
      <trkpt lat="43.78687" lon="3.81746">
        <ele>156</ele>
        <time>2025-03-26T16:52:56.000Z</time>
      </trkpt>
      <trkpt lat="43.7868" lon="3.81733">
        <ele>157</ele>
        <time>2025-03-26T16:52:59.000Z</time>
      </trkpt>
      <trkpt lat="43.78673" lon="3.81727">
        <ele>159</ele>
        <time>2025-03-26T16:53:02.000Z</time>
      </trkpt>
      <trkpt lat="43.7867" lon="3.81721">
        <ele>160</ele>
        <time>2025-03-26T16:53:05.000Z</time>
      </trkpt>
      <trkpt lat="43.78669" lon="3.81684">
        <ele>162</ele>
        <time>2025-03-26T16:53:08.000Z</time>
      </trkpt>
      <trkpt lat="43.78665" lon="3.81675">
        <ele>163</ele>
        <time>2025-03-26T16:53:11.000Z</time>
      </trkpt>
      <trkpt lat="43.78658" lon="3.81671">
        <ele>165</ele>
        <time>2025-03-26T16:53:14.000Z</time>
      </trkpt>
      <trkpt lat="43.78652" lon="3.81671">
        <ele>167</ele>
        <time>2025-03-26T16:53:17.000Z</time>
      </trkpt>
      <trkpt lat="43.78645" lon="3.81673">
        <ele>169</ele>
        <time>2025-03-26T16:53:20.000Z</time>
      </trkpt>
      <trkpt lat="43.78632" lon="3.81689">
        <ele>171</ele>
        <time>2025-03-26T16:53:23.000Z</time>
      </trkpt>
      <trkpt lat="43.78549" lon="3.8169">
        <ele>178</ele>
        <time>2025-03-26T16:53:26.000Z</time>
      </trkpt>
      <trkpt lat="43.78543" lon="3.81688">
        <ele>181</ele>
        <time>2025-03-26T16:53:29.000Z</time>
      </trkpt>
      <trkpt lat="43.78537" lon="3.81682">
        <ele>183</ele>
        <time>2025-03-26T16:53:32.000Z</time>
      </trkpt>
      <trkpt lat="43.78528" lon="3.81684">
        <ele>186</ele>
        <time>2025-03-26T16:53:35.000Z</time>
      </trkpt>
      <trkpt lat="43.78519" lon="3.81691">
        <ele>188</ele>
        <time>2025-03-26T16:53:38.000Z</time>
      </trkpt>
      <trkpt lat="43.78493" lon="3.81703">
        <ele>191</ele>
        <time>2025-03-26T16:53:41.000Z</time>
      </trkpt>
      <trkpt lat="43.78484" lon="3.81705">
        <ele>194</ele>
        <time>2025-03-26T16:53:44.000Z</time>
      </trkpt>
      <trkpt lat="43.78468" lon="3.81702">
        <ele>197</ele>
        <time>2025-03-26T16:53:47.000Z</time>
      </trkpt>
      <trkpt lat="43.78452" lon="3.8169">
        <ele>200</ele>
        <time>2025-03-26T16:53:50.000Z</time>
      </trkpt>
      <trkpt lat="43.78427" lon="3.81664">
        <ele>206</ele>
        <time>2025-03-26T16:53:53.000Z</time>
      </trkpt>
      <trkpt lat="43.78412" lon="3.8165">
        <ele>209</ele>
        <time>2025-03-26T16:53:56.000Z</time>
      </trkpt>
      <trkpt lat="43.78404" lon="3.81646">
        <ele>212</ele>
        <time>2025-03-26T16:53:59.000Z</time>
      </trkpt>
      <trkpt lat="43.78395" lon="3.81651">
        <ele>215</ele>
        <time>2025-03-26T16:54:02.000Z</time>
      </trkpt>
      <trkpt lat="43.78389" lon="3.81661">
        <ele>218</ele>
        <time>2025-03-26T16:54:05.000Z</time>
      </trkpt>
      <trkpt lat="43.78374" lon="3.8167">
        <ele>221</ele>
        <time>2025-03-26T16:54:08.000Z</time>
      </trkpt>
      <trkpt lat="43.78368" lon="3.8167">
        <ele>224</ele>
        <time>2025-03-26T16:54:11.000Z</time>
      </trkpt>
      <trkpt lat="43.78368" lon="3.81653">
        <ele>227</ele>
        <time>2025-03-26T16:54:14.000Z</time>
      </trkpt>
      <trkpt lat="43.78351" lon="3.81626">
        <ele>234</ele>
        <time>2025-03-26T16:54:17.000Z</time>
      </trkpt>
      <trkpt lat="43.78339" lon="3.81594">
        <ele>237</ele>
        <time>2025-03-26T16:54:20.000Z</time>
      </trkpt>
      <trkpt lat="43.78328" lon="3.81573">
        <ele>240</ele>
        <time>2025-03-26T16:54:23.000Z</time>
      </trkpt>
      <trkpt lat="43.78311" lon="3.81522">
        <ele>247</ele>
        <time>2025-03-26T16:54:26.000Z</time>
      </trkpt>
      <trkpt lat="43.78303" lon="3.8148">
        <ele>253</ele>
        <time>2025-03-26T16:54:29.000Z</time>
      </trkpt>
      <trkpt lat="43.78302" lon="3.81448">
        <ele>256</ele>
        <time>2025-03-26T16:54:32.000Z</time>
      </trkpt>
      <trkpt lat="43.78307" lon="3.81433">
        <ele>258</ele>
        <time>2025-03-26T16:54:35.000Z</time>
      </trkpt>
      <trkpt lat="43.78306" lon="3.81411">
        <ele>261</ele>
        <time>2025-03-26T16:54:38.000Z</time>
      </trkpt>
      <trkpt lat="43.78302" lon="3.81388">
        <ele>264</ele>
        <time>2025-03-26T16:54:41.000Z</time>
      </trkpt>
      <trkpt lat="43.78301" lon="3.81335">
        <ele>269</ele>
        <time>2025-03-26T16:54:44.000Z</time>
      </trkpt>
      <trkpt lat="43.78299" lon="3.81324">
        <ele>272</ele>
        <time>2025-03-26T16:54:47.000Z</time>
      </trkpt>
      <trkpt lat="43.78313" lon="3.81314">
        <ele>274</ele>
        <time>2025-03-26T16:54:50.000Z</time>
      </trkpt>
      <trkpt lat="43.78329" lon="3.8131">
        <ele>277</ele>
        <time>2025-03-26T16:54:53.000Z</time>
      </trkpt>
      <trkpt lat="43.78337" lon="3.81303">
        <ele>279</ele>
        <time>2025-03-26T16:54:56.000Z</time>
      </trkpt>
      <trkpt lat="43.78342" lon="3.81292">
        <ele>281</ele>
        <time>2025-03-26T16:54:59.000Z</time>
      </trkpt>
      <trkpt lat="43.78339" lon="3.81282">
        <ele>284</ele>
        <time>2025-03-26T16:55:02.000Z</time>
      </trkpt>
      <trkpt lat="43.78342" lon="3.81273">
        <ele>286</ele>
        <time>2025-03-26T16:55:05.000Z</time>
      </trkpt>
      <trkpt lat="43.78355" lon="3.81262">
        <ele>288</ele>
        <time>2025-03-26T16:55:08.000Z</time>
      </trkpt>
      <trkpt lat="43.78356" lon="3.81253">
        <ele>290</ele>
        <time>2025-03-26T16:55:11.000Z</time>
      </trkpt>
      <trkpt lat="43.78361" lon="3.81236">
        <ele>292</ele>
        <time>2025-03-26T16:55:14.000Z</time>
      </trkpt>
      <trkpt lat="43.78356" lon="3.81199">
        <ele>294</ele>
        <time>2025-03-26T16:55:17.000Z</time>
      </trkpt>
      <trkpt lat="43.7835" lon="3.81138">
        <ele>297</ele>
        <time>2025-03-26T16:55:20.000Z</time>
      </trkpt>
      <trkpt lat="43.7834" lon="3.81086">
        <ele>300</ele>
        <time>2025-03-26T16:55:23.000Z</time>
      </trkpt>
      <trkpt lat="43.78326" lon="3.81038">
        <ele>303</ele>
        <time>2025-03-26T16:55:26.000Z</time>
      </trkpt>
      <trkpt lat="43.78319" lon="3.81024">
        <ele>304</ele>
        <time>2025-03-26T16:55:29.000Z</time>
      </trkpt>
      <trkpt lat="43.78321" lon="3.81017">
        <ele>305</ele>
        <time>2025-03-26T16:55:32.000Z</time>
      </trkpt>
      <trkpt lat="43.78319" lon="3.81009">
        <ele>306</ele>
        <time>2025-03-26T16:55:35.000Z</time>
      </trkpt>
      <trkpt lat="43.7831" lon="3.80998">
        <ele>307</ele>
        <time>2025-03-26T16:55:38.000Z</time>
      </trkpt>
      <trkpt lat="43.78301" lon="3.80992">
        <ele>308</ele>
        <time>2025-03-26T16:55:41.000Z</time>
      </trkpt>
      <trkpt lat="43.78292" lon="3.8099">
        <ele>309</ele>
        <time>2025-03-26T16:55:44.000Z</time>
      </trkpt>
      <trkpt lat="43.78282" lon="3.80972">
        <ele>310</ele>
        <time>2025-03-26T16:55:47.000Z</time>
      </trkpt>
      <trkpt lat="43.78258" lon="3.80898">
        <ele>311</ele>
        <time>2025-03-26T16:55:50.000Z</time>
      </trkpt>
      <trkpt lat="43.78234" lon="3.80864">
        <ele>312</ele>
        <time>2025-03-26T16:55:53.000Z</time>
      </trkpt>
      <trkpt lat="43.78224" lon="3.80833">
        <ele>312</ele>
        <time>2025-03-26T16:55:56.000Z</time>
      </trkpt>
      <trkpt lat="43.78219" lon="3.80802">
        <ele>312</ele>
        <time>2025-03-26T16:55:59.000Z</time>
      </trkpt>
      <trkpt lat="43.78221" lon="3.80782">
        <ele>312</ele>
        <time>2025-03-26T16:56:02.000Z</time>
      </trkpt>
      <trkpt lat="43.78203" lon="3.80775">
        <ele>312</ele>
        <time>2025-03-26T16:56:05.000Z</time>
      </trkpt>
      <trkpt lat="43.78186" lon="3.80756">
        <ele>312</ele>
        <time>2025-03-26T16:56:08.000Z</time>
      </trkpt>
      <trkpt lat="43.78168" lon="3.80719">
        <ele>311</ele>
        <time>2025-03-26T16:56:11.000Z</time>
      </trkpt>
      <trkpt lat="43.78161" lon="3.80677">
        <ele>310</ele>
        <time>2025-03-26T16:56:14.000Z</time>
      </trkpt>
      <trkpt lat="43.78159" lon="3.80627">
        <ele>308</ele>
        <time>2025-03-26T16:56:17.000Z</time>
      </trkpt>
      <trkpt lat="43.78151" lon="3.80552">
        <ele>306</ele>
        <time>2025-03-26T16:56:20.000Z</time>
      </trkpt>
      <trkpt lat="43.78142" lon="3.8052">
        <ele>304</ele>
        <time>2025-03-26T16:56:23.000Z</time>
      </trkpt>
      <trkpt lat="43.78143" lon="3.80502">
        <ele>303</ele>
        <time>2025-03-26T16:56:26.000Z</time>
      </trkpt>
      <trkpt lat="43.78126" lon="3.8034">
        <ele>293</ele>
        <time>2025-03-26T16:56:29.000Z</time>
      </trkpt>
      <trkpt lat="43.78132" lon="3.80298">
        <ele>291</ele>
        <time>2025-03-26T16:56:32.000Z</time>
      </trkpt>
      <trkpt lat="43.78135" lon="3.80255">
        <ele>289</ele>
        <time>2025-03-26T16:56:35.000Z</time>
      </trkpt>
      <trkpt lat="43.78133" lon="3.80224">
        <ele>286</ele>
        <time>2025-03-26T16:56:38.000Z</time>
      </trkpt>
      <trkpt lat="43.78123" lon="3.8018">
        <ele>282</ele>
        <time>2025-03-26T16:56:41.000Z</time>
      </trkpt>
      <trkpt lat="43.78114" lon="3.80166">
        <ele>279</ele>
        <time>2025-03-26T16:56:44.000Z</time>
      </trkpt>
      <trkpt lat="43.78101" lon="3.80139">
        <ele>277</ele>
        <time>2025-03-26T16:56:47.000Z</time>
      </trkpt>
      <trkpt lat="43.781" lon="3.8012">
        <ele>275</ele>
        <time>2025-03-26T16:56:50.000Z</time>
      </trkpt>
      <trkpt lat="43.78097" lon="3.8011">
        <ele>272</ele>
        <time>2025-03-26T16:56:53.000Z</time>
      </trkpt>
      <trkpt lat="43.78101" lon="3.80093">
        <ele>270</ele>
        <time>2025-03-26T16:56:56.000Z</time>
      </trkpt>
      <trkpt lat="43.78101" lon="3.80073">
        <ele>268</ele>
        <time>2025-03-26T16:56:59.000Z</time>
      </trkpt>
      <trkpt lat="43.78097" lon="3.80049">
        <ele>265</ele>
        <time>2025-03-26T16:57:02.000Z</time>
      </trkpt>
      <trkpt lat="43.78093" lon="3.80036">
        <ele>263</ele>
        <time>2025-03-26T16:57:05.000Z</time>
      </trkpt>
      <trkpt lat="43.78081" lon="3.80006">
        <ele>261</ele>
        <time>2025-03-26T16:57:08.000Z</time>
      </trkpt>
      <trkpt lat="43.78081" lon="3.79998">
        <ele>259</ele>
        <time>2025-03-26T16:57:11.000Z</time>
      </trkpt>
      <trkpt lat="43.78104" lon="3.79955">
        <ele>254</ele>
        <time>2025-03-26T16:57:14.000Z</time>
      </trkpt>
      <trkpt lat="43.78115" lon="3.79922">
        <ele>252</ele>
        <time>2025-03-26T16:57:17.000Z</time>
      </trkpt>
      <trkpt lat="43.78112" lon="3.79912">
        <ele>250</ele>
        <time>2025-03-26T16:57:20.000Z</time>
      </trkpt>
      <trkpt lat="43.78097" lon="3.79886">
        <ele>248</ele>
        <time>2025-03-26T16:57:23.000Z</time>
      </trkpt>
      <trkpt lat="43.78092" lon="3.79872">
        <ele>247</ele>
        <time>2025-03-26T16:57:26.000Z</time>
      </trkpt>
      <trkpt lat="43.78087" lon="3.79846">
        <ele>245</ele>
        <time>2025-03-26T16:57:29.000Z</time>
      </trkpt>
      <trkpt lat="43.78085" lon="3.79771">
        <ele>242</ele>
        <time>2025-03-26T16:57:32.000Z</time>
      </trkpt>
      <trkpt lat="43.78082" lon="3.79714">
        <ele>240</ele>
        <time>2025-03-26T16:57:35.000Z</time>
      </trkpt>
      <trkpt lat="43.78084" lon="3.79702">
        <ele>239</ele>
        <time>2025-03-26T16:57:38.000Z</time>
      </trkpt>
      <trkpt lat="43.78094" lon="3.79682">
        <ele>238</ele>
        <time>2025-03-26T16:57:41.000Z</time>
      </trkpt>
      <trkpt lat="43.781" lon="3.7966">
        <ele>238</ele>
        <time>2025-03-26T16:57:44.000Z</time>
      </trkpt>
      <trkpt lat="43.78109" lon="3.79644">
        <ele>238</ele>
        <time>2025-03-26T16:57:47.000Z</time>
      </trkpt>
      <trkpt lat="43.78116" lon="3.79611">
        <ele>237</ele>
        <time>2025-03-26T16:57:50.000Z</time>
      </trkpt>
      <trkpt lat="43.78115" lon="3.79598">
        <ele>237</ele>
        <time>2025-03-26T16:57:53.000Z</time>
      </trkpt>
      <trkpt lat="43.78109" lon="3.79584">
        <ele>238</ele>
        <time>2025-03-26T16:57:56.000Z</time>
      </trkpt>
      <trkpt lat="43.78099" lon="3.79566">
        <ele>238</ele>
        <time>2025-03-26T16:57:59.000Z</time>
      </trkpt>
      <trkpt lat="43.7808" lon="3.79518">
        <ele>239</ele>
        <time>2025-03-26T16:58:02.000Z</time>
      </trkpt>
      <trkpt lat="43.78072" lon="3.79504">
        <ele>240</ele>
        <time>2025-03-26T16:58:05.000Z</time>
      </trkpt>
      <trkpt lat="43.78045" lon="3.79419">
        <ele>244</ele>
        <time>2025-03-26T16:58:08.000Z</time>
      </trkpt>
      <trkpt lat="43.78025" lon="3.7944">
        <ele>246</ele>
        <time>2025-03-26T16:58:11.000Z</time>
      </trkpt>
      <trkpt lat="43.78017" lon="3.79453">
        <ele>248</ele>
        <time>2025-03-26T16:58:14.000Z</time>
      </trkpt>
      <trkpt lat="43.77995" lon="3.79478">
        <ele>250</ele>
        <time>2025-03-26T16:58:17.000Z</time>
      </trkpt>
      <trkpt lat="43.77985" lon="3.79493">
        <ele>252</ele>
        <time>2025-03-26T16:58:20.000Z</time>
      </trkpt>
      <trkpt lat="43.7795" lon="3.79528">
        <ele>259</ele>
        <time>2025-03-26T16:58:23.000Z</time>
      </trkpt>
      <trkpt lat="43.77943" lon="3.79537">
        <ele>261</ele>
        <time>2025-03-26T16:58:26.000Z</time>
      </trkpt>
      <trkpt lat="43.77925" lon="3.79545">
        <ele>264</ele>
        <time>2025-03-26T16:58:29.000Z</time>
      </trkpt>
      <trkpt lat="43.77919" lon="3.7952">
        <ele>267</ele>
        <time>2025-03-26T16:58:32.000Z</time>
      </trkpt>
      <trkpt lat="43.7788" lon="3.79544">
        <ele>272</ele>
        <time>2025-03-26T16:58:35.000Z</time>
      </trkpt>
      <trkpt lat="43.77861" lon="3.79565">
        <ele>275</ele>
        <time>2025-03-26T16:58:38.000Z</time>
      </trkpt>
      <trkpt lat="43.77854" lon="3.79556">
        <ele>278</ele>
        <time>2025-03-26T16:58:41.000Z</time>
      </trkpt>
      <trkpt lat="43.77856" lon="3.79538">
        <ele>281</ele>
        <time>2025-03-26T16:58:44.000Z</time>
      </trkpt>
      <trkpt lat="43.77866" lon="3.79523">
        <ele>284</ele>
        <time>2025-03-26T16:58:47.000Z</time>
      </trkpt>
      <trkpt lat="43.77875" lon="3.79501">
        <ele>286</ele>
        <time>2025-03-26T16:58:50.000Z</time>
      </trkpt>
      <trkpt lat="43.77878" lon="3.79439">
        <ele>292</ele>
        <time>2025-03-26T16:58:53.000Z</time>
      </trkpt>
      <trkpt lat="43.77875" lon="3.79386">
        <ele>298</ele>
        <time>2025-03-26T16:58:56.000Z</time>
      </trkpt>
      <trkpt lat="43.77879" lon="3.79363">
        <ele>300</ele>
        <time>2025-03-26T16:58:59.000Z</time>
      </trkpt>
      <trkpt lat="43.7788" lon="3.7933">
        <ele>303</ele>
        <time>2025-03-26T16:59:02.000Z</time>
      </trkpt>
      <trkpt lat="43.77874" lon="3.79263">
        <ele>309</ele>
        <time>2025-03-26T16:59:05.000Z</time>
      </trkpt>
      <trkpt lat="43.77867" lon="3.79239">
        <ele>312</ele>
        <time>2025-03-26T16:59:08.000Z</time>
      </trkpt>
      <trkpt lat="43.77863" lon="3.79217">
        <ele>317</ele>
        <time>2025-03-26T16:59:11.000Z</time>
      </trkpt>
      <trkpt lat="43.77856" lon="3.79201">
        <ele>320</ele>
        <time>2025-03-26T16:59:14.000Z</time>
      </trkpt>
      <trkpt lat="43.77846" lon="3.79149">
        <ele>325</ele>
        <time>2025-03-26T16:59:17.000Z</time>
      </trkpt>
      <trkpt lat="43.77832" lon="3.79124">
        <ele>327</ele>
        <time>2025-03-26T16:59:20.000Z</time>
      </trkpt>
      <trkpt lat="43.77805" lon="3.79081">
        <ele>333</ele>
        <time>2025-03-26T16:59:23.000Z</time>
      </trkpt>
      <trkpt lat="43.77792" lon="3.79062">
        <ele>336</ele>
        <time>2025-03-26T16:59:26.000Z</time>
      </trkpt>
      <trkpt lat="43.77782" lon="3.7904">
        <ele>338</ele>
        <time>2025-03-26T16:59:29.000Z</time>
      </trkpt>
      <trkpt lat="43.77769" lon="3.79025">
        <ele>341</ele>
        <time>2025-03-26T16:59:32.000Z</time>
      </trkpt>
      <trkpt lat="43.77756" lon="3.79001">
        <ele>343</ele>
        <time>2025-03-26T16:59:35.000Z</time>
      </trkpt>
      <trkpt lat="43.77752" lon="3.78975">
        <ele>346</ele>
        <time>2025-03-26T16:59:38.000Z</time>
      </trkpt>
      <trkpt lat="43.7775" lon="3.78945">
        <ele>348</ele>
        <time>2025-03-26T16:59:41.000Z</time>
      </trkpt>
      <trkpt lat="43.77747" lon="3.78924">
        <ele>350</ele>
        <time>2025-03-26T16:59:44.000Z</time>
      </trkpt>
      <trkpt lat="43.77743" lon="3.78904">
        <ele>353</ele>
        <time>2025-03-26T16:59:47.000Z</time>
      </trkpt>
      <trkpt lat="43.77731" lon="3.78887">
        <ele>355</ele>
        <time>2025-03-26T16:59:50.000Z</time>
      </trkpt>
      <trkpt lat="43.77731" lon="3.78867">
        <ele>357</ele>
        <time>2025-03-26T16:59:53.000Z</time>
      </trkpt>
      <trkpt lat="43.77723" lon="3.78863">
        <ele>359</ele>
        <time>2025-03-26T16:59:56.000Z</time>
      </trkpt>
      <trkpt lat="43.77706" lon="3.78831">
        <ele>362</ele>
        <time>2025-03-26T16:59:59.000Z</time>
      </trkpt>
      <trkpt lat="43.77706" lon="3.78815">
        <ele>363</ele>
        <time>2025-03-26T17:00:02.000Z</time>
      </trkpt>
      <trkpt lat="43.77702" lon="3.78817">
        <ele>365</ele>
        <time>2025-03-26T17:00:05.000Z</time>
      </trkpt>
      <trkpt lat="43.77693" lon="3.78797">
        <ele>367</ele>
        <time>2025-03-26T17:00:08.000Z</time>
      </trkpt>
      <trkpt lat="43.77685" lon="3.78778">
        <ele>369</ele>
        <time>2025-03-26T17:00:11.000Z</time>
      </trkpt>
      <trkpt lat="43.77684" lon="3.78765">
        <ele>370</ele>
        <time>2025-03-26T17:00:14.000Z</time>
      </trkpt>
      <trkpt lat="43.77682" lon="3.78765">
        <ele>372</ele>
        <time>2025-03-26T17:00:17.000Z</time>
      </trkpt>
      <trkpt lat="43.7768" lon="3.78771">
        <ele>373</ele>
        <time>2025-03-26T17:00:20.000Z</time>
      </trkpt>
      <trkpt lat="43.77677" lon="3.78764">
        <ele>374</ele>
        <time>2025-03-26T17:00:23.000Z</time>
      </trkpt>
      <trkpt lat="43.77672" lon="3.78759">
        <ele>375</ele>
        <time>2025-03-26T17:00:26.000Z</time>
      </trkpt>
      <trkpt lat="43.77673" lon="3.78728">
        <ele>376</ele>
        <time>2025-03-26T17:00:29.000Z</time>
      </trkpt>
      <trkpt lat="43.77666" lon="3.78712">
        <ele>377</ele>
        <time>2025-03-26T17:00:32.000Z</time>
      </trkpt>
      <trkpt lat="43.77657" lon="3.78695">
        <ele>378</ele>
        <time>2025-03-26T17:00:35.000Z</time>
      </trkpt>
      <trkpt lat="43.77649" lon="3.78694">
        <ele>379</ele>
        <time>2025-03-26T17:00:38.000Z</time>
      </trkpt>
      <trkpt lat="43.77644" lon="3.78681">
        <ele>379</ele>
        <time>2025-03-26T17:00:41.000Z</time>
      </trkpt>
      <trkpt lat="43.77642" lon="3.78677">
        <ele>379</ele>
        <time>2025-03-26T17:00:44.000Z</time>
      </trkpt>
      <trkpt lat="43.77637" lon="3.78678">
        <ele>380</ele>
        <time>2025-03-26T17:00:47.000Z</time>
      </trkpt>
      <trkpt lat="43.77634" lon="3.78686">
        <ele>380</ele>
        <time>2025-03-26T17:00:50.000Z</time>
      </trkpt>
      <trkpt lat="43.77634" lon="3.78708">
        <ele>379</ele>
        <time>2025-03-26T17:00:53.000Z</time>
      </trkpt>
      <trkpt lat="43.77628" lon="3.78724">
        <ele>379</ele>
        <time>2025-03-26T17:00:56.000Z</time>
      </trkpt>
      <trkpt lat="43.7761" lon="3.7873">
        <ele>379</ele>
        <time>2025-03-26T17:00:59.000Z</time>
      </trkpt>
      <trkpt lat="43.77593" lon="3.78729">
        <ele>378</ele>
        <time>2025-03-26T17:01:02.000Z</time>
      </trkpt>
      <trkpt lat="43.77583" lon="3.78717">
        <ele>377</ele>
        <time>2025-03-26T17:01:05.000Z</time>
      </trkpt>
      <trkpt lat="43.77577" lon="3.78704">
        <ele>377</ele>
        <time>2025-03-26T17:01:08.000Z</time>
      </trkpt>
      <trkpt lat="43.77563" lon="3.787">
        <ele>375</ele>
        <time>2025-03-26T17:01:11.000Z</time>
      </trkpt>
      <trkpt lat="43.7755" lon="3.78689">
        <ele>374</ele>
        <time>2025-03-26T17:01:14.000Z</time>
      </trkpt>
      <trkpt lat="43.77539" lon="3.78686">
        <ele>373</ele>
        <time>2025-03-26T17:01:17.000Z</time>
      </trkpt>
      <trkpt lat="43.77525" lon="3.78676">
        <ele>370</ele>
        <time>2025-03-26T17:01:20.000Z</time>
      </trkpt>
      <trkpt lat="43.77507" lon="3.78651">
        <ele>368</ele>
        <time>2025-03-26T17:01:23.000Z</time>
      </trkpt>
      <trkpt lat="43.77463" lon="3.78617">
        <ele>365</ele>
        <time>2025-03-26T17:01:26.000Z</time>
      </trkpt>
      <trkpt lat="43.77433" lon="3.78607">
        <ele>363</ele>
        <time>2025-03-26T17:01:29.000Z</time>
      </trkpt>
      <trkpt lat="43.77415" lon="3.78612">
        <ele>361</ele>
        <time>2025-03-26T17:01:32.000Z</time>
      </trkpt>
      <trkpt lat="43.77406" lon="3.78618">
        <ele>359</ele>
        <time>2025-03-26T17:01:35.000Z</time>
      </trkpt>
      <trkpt lat="43.77389" lon="3.78621">
        <ele>356</ele>
        <time>2025-03-26T17:01:38.000Z</time>
      </trkpt>
      <trkpt lat="43.77382" lon="3.78627">
        <ele>354</ele>
        <time>2025-03-26T17:01:41.000Z</time>
      </trkpt>
      <trkpt lat="43.77377" lon="3.78627">
        <ele>352</ele>
        <time>2025-03-26T17:01:44.000Z</time>
      </trkpt>
      <trkpt lat="43.7736" lon="3.78638">
        <ele>349</ele>
        <time>2025-03-26T17:01:47.000Z</time>
      </trkpt>
      <trkpt lat="43.77353" lon="3.78633">
        <ele>347</ele>
        <time>2025-03-26T17:01:50.000Z</time>
      </trkpt>
      <trkpt lat="43.77351" lon="3.78665">
        <ele>344</ele>
        <time>2025-03-26T17:01:53.000Z</time>
      </trkpt>
      <trkpt lat="43.77344" lon="3.78693">
        <ele>342</ele>
        <time>2025-03-26T17:01:56.000Z</time>
      </trkpt>
      <trkpt lat="43.7733" lon="3.78725">
        <ele>339</ele>
        <time>2025-03-26T17:01:59.000Z</time>
      </trkpt>
      <trkpt lat="43.77323" lon="3.78731">
        <ele>337</ele>
        <time>2025-03-26T17:02:02.000Z</time>
      </trkpt>
      <trkpt lat="43.77306" lon="3.78771">
        <ele>332</ele>
        <time>2025-03-26T17:02:05.000Z</time>
      </trkpt>
      <trkpt lat="43.77275" lon="3.78828">
        <ele>327</ele>
        <time>2025-03-26T17:02:08.000Z</time>
      </trkpt>
      <trkpt lat="43.77257" lon="3.78865">
        <ele>322</ele>
        <time>2025-03-26T17:02:11.000Z</time>
      </trkpt>
      <trkpt lat="43.77237" lon="3.78906">
        <ele>317</ele>
        <time>2025-03-26T17:02:14.000Z</time>
      </trkpt>
      <trkpt lat="43.77182" lon="3.78938">
        <ele>313</ele>
        <time>2025-03-26T17:02:17.000Z</time>
      </trkpt>
      <trkpt lat="43.77171" lon="3.78942">
        <ele>311</ele>
        <time>2025-03-26T17:02:20.000Z</time>
      </trkpt>
      <trkpt lat="43.77159" lon="3.78942">
        <ele>309</ele>
        <time>2025-03-26T17:02:23.000Z</time>
      </trkpt>
      <trkpt lat="43.77139" lon="3.78934">
        <ele>307</ele>
        <time>2025-03-26T17:02:26.000Z</time>
      </trkpt>
      <trkpt lat="43.77121" lon="3.78913">
        <ele>305</ele>
        <time>2025-03-26T17:02:29.000Z</time>
      </trkpt>
      <trkpt lat="43.77113" lon="3.78918">
        <ele>303</ele>
        <time>2025-03-26T17:02:32.000Z</time>
      </trkpt>
      <trkpt lat="43.77104" lon="3.78931">
        <ele>302</ele>
        <time>2025-03-26T17:02:35.000Z</time>
      </trkpt>
      <trkpt lat="43.77098" lon="3.78935">
        <ele>300</ele>
        <time>2025-03-26T17:02:38.000Z</time>
      </trkpt>
      <trkpt lat="43.77092" lon="3.78943">
        <ele>299</ele>
        <time>2025-03-26T17:02:41.000Z</time>
      </trkpt>
      <trkpt lat="43.77089" lon="3.78948">
        <ele>298</ele>
        <time>2025-03-26T17:02:44.000Z</time>
      </trkpt>
      <trkpt lat="43.77084" lon="3.78954">
        <ele>296</ele>
        <time>2025-03-26T17:02:47.000Z</time>
      </trkpt>
      <trkpt lat="43.77084" lon="3.78954">
        <ele>296</ele>
        <time>2025-03-26T17:02:50.000Z</time>
      </trkpt>
      <trkpt lat="43.77087" lon="3.78968">
        <ele>297</ele>
        <time>2025-03-26T17:02:53.000Z</time>
      </trkpt>
      <trkpt lat="43.77085" lon="3.78981">
        <ele>295</ele>
        <time>2025-03-26T17:02:56.000Z</time>
      </trkpt>
      <trkpt lat="43.77086" lon="3.78989">
        <ele>296</ele>
        <time>2025-03-26T17:02:59.000Z</time>
      </trkpt>
      <trkpt lat="43.77092" lon="3.7901">
        <ele>297</ele>
        <time>2025-03-26T17:03:02.000Z</time>
      </trkpt>
      <trkpt lat="43.77098" lon="3.7905">
        <ele>298</ele>
        <time>2025-03-26T17:03:05.000Z</time>
      </trkpt>
      <trkpt lat="43.77104" lon="3.79067">
        <ele>300</ele>
        <time>2025-03-26T17:03:08.000Z</time>
      </trkpt>
      <trkpt lat="43.77109" lon="3.79094">
        <ele>301</ele>
        <time>2025-03-26T17:03:11.000Z</time>
      </trkpt>
      <trkpt lat="43.77107" lon="3.79122">
        <ele>302</ele>
        <time>2025-03-26T17:03:14.000Z</time>
      </trkpt>
      <trkpt lat="43.77125" lon="3.79132">
        <ele>304</ele>
        <time>2025-03-26T17:03:17.000Z</time>
      </trkpt>
      <trkpt lat="43.77158" lon="3.79145">
        <ele>308</ele>
        <time>2025-03-26T17:03:20.000Z</time>
      </trkpt>
      <trkpt lat="43.77167" lon="3.79156">
        <ele>310</ele>
        <time>2025-03-26T17:03:23.000Z</time>
      </trkpt>
      <trkpt lat="43.77177" lon="3.79162">
        <ele>312</ele>
        <time>2025-03-26T17:03:26.000Z</time>
      </trkpt>
      <trkpt lat="43.7718" lon="3.7918">
        <ele>315</ele>
        <time>2025-03-26T17:03:29.000Z</time>
      </trkpt>
      <trkpt lat="43.77188" lon="3.79199">
        <ele>317</ele>
        <time>2025-03-26T17:03:32.000Z</time>
      </trkpt>
      <trkpt lat="43.77192" lon="3.79217">
        <ele>322</ele>
        <time>2025-03-26T17:03:35.000Z</time>
      </trkpt>
      <trkpt lat="43.77204" lon="3.79223">
        <ele>324</ele>
        <time>2025-03-26T17:03:38.000Z</time>
      </trkpt>
      <trkpt lat="43.77237" lon="3.79219">
        <ele>330</ele>
        <time>2025-03-26T17:03:41.000Z</time>
      </trkpt>
      <trkpt lat="43.77274" lon="3.79266">
        <ele>336</ele>
        <time>2025-03-26T17:03:44.000Z</time>
      </trkpt>
      <trkpt lat="43.77275" lon="3.79259">
        <ele>338</ele>
        <time>2025-03-26T17:03:47.000Z</time>
      </trkpt>
      <trkpt lat="43.77279" lon="3.79253">
        <ele>341</ele>
        <time>2025-03-26T17:03:50.000Z</time>
      </trkpt>
      <trkpt lat="43.77301" lon="3.79251">
        <ele>344</ele>
        <time>2025-03-26T17:03:53.000Z</time>
      </trkpt>
      <trkpt lat="43.77312" lon="3.79254">
        <ele>347</ele>
        <time>2025-03-26T17:03:56.000Z</time>
      </trkpt>
      <trkpt lat="43.7734" lon="3.79269">
        <ele>350</ele>
        <time>2025-03-26T17:03:59.000Z</time>
      </trkpt>
      <trkpt lat="43.77354" lon="3.7928">
        <ele>352</ele>
        <time>2025-03-26T17:04:02.000Z</time>
      </trkpt>
      <trkpt lat="43.77369" lon="3.79286">
        <ele>355</ele>
        <time>2025-03-26T17:04:05.000Z</time>
      </trkpt>
      <trkpt lat="43.77372" lon="3.7929">
        <ele>358</ele>
        <time>2025-03-26T17:04:08.000Z</time>
      </trkpt>
      <trkpt lat="43.77387" lon="3.79327">
        <ele>361</ele>
        <time>2025-03-26T17:04:11.000Z</time>
      </trkpt>
      <trkpt lat="43.77398" lon="3.79341">
        <ele>363</ele>
        <time>2025-03-26T17:04:14.000Z</time>
      </trkpt>
      <trkpt lat="43.77401" lon="3.79348">
        <ele>366</ele>
        <time>2025-03-26T17:04:17.000Z</time>
      </trkpt>
      <trkpt lat="43.77408" lon="3.79374">
        <ele>369</ele>
        <time>2025-03-26T17:04:20.000Z</time>
      </trkpt>
      <trkpt lat="43.77411" lon="3.79378">
        <ele>371</ele>
        <time>2025-03-26T17:04:23.000Z</time>
      </trkpt>
      <trkpt lat="43.77412" lon="3.79396">
        <ele>373</ele>
        <time>2025-03-26T17:04:26.000Z</time>
      </trkpt>
      <trkpt lat="43.77418" lon="3.79399">
        <ele>376</ele>
        <time>2025-03-26T17:04:29.000Z</time>
      </trkpt>
      <trkpt lat="43.77418" lon="3.79413">
        <ele>378</ele>
        <time>2025-03-26T17:04:32.000Z</time>
      </trkpt>
      <trkpt lat="43.77422" lon="3.79428">
        <ele>380</ele>
        <time>2025-03-26T17:04:35.000Z</time>
      </trkpt>
      <trkpt lat="43.77421" lon="3.79443">
        <ele>383</ele>
        <time>2025-03-26T17:04:38.000Z</time>
      </trkpt>
      <trkpt lat="43.77427" lon="3.79447">
        <ele>385</ele>
        <time>2025-03-26T17:04:41.000Z</time>
      </trkpt>
      <trkpt lat="43.77431" lon="3.79464">
        <ele>387</ele>
        <time>2025-03-26T17:04:44.000Z</time>
      </trkpt>
      <trkpt lat="43.77433" lon="3.79475">
        <ele>389</ele>
        <time>2025-03-26T17:04:47.000Z</time>
      </trkpt>
      <trkpt lat="43.77443" lon="3.79502">
        <ele>391</ele>
        <time>2025-03-26T17:04:50.000Z</time>
      </trkpt>
      <trkpt lat="43.77448" lon="3.79521">
        <ele>393</ele>
        <time>2025-03-26T17:04:53.000Z</time>
      </trkpt>
      <trkpt lat="43.77448" lon="3.79536">
        <ele>395</ele>
        <time>2025-03-26T17:04:56.000Z</time>
      </trkpt>
      <trkpt lat="43.7745" lon="3.79546">
        <ele>396</ele>
        <time>2025-03-26T17:04:59.000Z</time>
      </trkpt>
      <trkpt lat="43.77453" lon="3.79556">
        <ele>398</ele>
        <time>2025-03-26T17:05:02.000Z</time>
      </trkpt>
      <trkpt lat="43.77454" lon="3.79575">
        <ele>399</ele>
        <time>2025-03-26T17:05:05.000Z</time>
      </trkpt>
      <trkpt lat="43.77457" lon="3.79578">
        <ele>401</ele>
        <time>2025-03-26T17:05:08.000Z</time>
      </trkpt>
      <trkpt lat="43.77462" lon="3.7958">
        <ele>402</ele>
        <time>2025-03-26T17:05:11.000Z</time>
      </trkpt>
      <trkpt lat="43.77469" lon="3.79591">
        <ele>403</ele>
        <time>2025-03-26T17:05:14.000Z</time>
      </trkpt>
      <trkpt lat="43.77469" lon="3.79605">
        <ele>405</ele>
        <time>2025-03-26T17:05:17.000Z</time>
      </trkpt>
      <trkpt lat="43.77471" lon="3.79622">
        <ele>406</ele>
        <time>2025-03-26T17:05:20.000Z</time>
      </trkpt>
      <trkpt lat="43.77471" lon="3.79629">
        <ele>408</ele>
        <time>2025-03-26T17:05:23.000Z</time>
      </trkpt>
      <trkpt lat="43.77463" lon="3.79649">
        <ele>409</ele>
        <time>2025-03-26T17:05:26.000Z</time>
      </trkpt>
      <trkpt lat="43.77465" lon="3.79657">
        <ele>410</ele>
        <time>2025-03-26T17:05:29.000Z</time>
      </trkpt>
      <trkpt lat="43.77465" lon="3.7966">
        <ele>410</ele>
        <time>2025-03-26T17:05:32.000Z</time>
      </trkpt>
      <trkpt lat="43.77463" lon="3.79665">
        <ele>411</ele>
        <time>2025-03-26T17:05:35.000Z</time>
      </trkpt>
      <trkpt lat="43.77455" lon="3.79665">
        <ele>412</ele>
        <time>2025-03-26T17:05:38.000Z</time>
      </trkpt>
      <trkpt lat="43.77447" lon="3.79669">
        <ele>412</ele>
        <time>2025-03-26T17:05:41.000Z</time>
      </trkpt>
      <trkpt lat="43.77445" lon="3.79678">
        <ele>413</ele>
        <time>2025-03-26T17:05:44.000Z</time>
      </trkpt>
      <trkpt lat="43.77442" lon="3.79682">
        <ele>414</ele>
        <time>2025-03-26T17:05:47.000Z</time>
      </trkpt>
      <trkpt lat="43.77447" lon="3.797">
        <ele>414</ele>
        <time>2025-03-26T17:05:50.000Z</time>
      </trkpt>
      <trkpt lat="43.77455" lon="3.7977">
        <ele>416</ele>
        <time>2025-03-26T17:05:53.000Z</time>
      </trkpt>
      <trkpt lat="43.77499" lon="3.79888">
        <ele>418</ele>
        <time>2025-03-26T17:05:56.000Z</time>
      </trkpt>
      <trkpt lat="43.77508" lon="3.79918">
        <ele>419</ele>
        <time>2025-03-26T17:05:59.000Z</time>
      </trkpt>
      <trkpt lat="43.77507" lon="3.79943">
        <ele>420</ele>
        <time>2025-03-26T17:06:02.000Z</time>
      </trkpt>
      <trkpt lat="43.7752" lon="3.80009">
        <ele>422</ele>
        <time>2025-03-26T17:06:05.000Z</time>
      </trkpt>
      <trkpt lat="43.77545" lon="3.8012">
        <ele>425</ele>
        <time>2025-03-26T17:06:08.000Z</time>
      </trkpt>
      <trkpt lat="43.77559" lon="3.80237">
        <ele>429</ele>
        <time>2025-03-26T17:06:11.000Z</time>
      </trkpt>
      <trkpt lat="43.7756" lon="3.80256">
        <ele>430</ele>
        <time>2025-03-26T17:06:14.000Z</time>
      </trkpt>
      <trkpt lat="43.77559" lon="3.80273">
        <ele>432</ele>
        <time>2025-03-26T17:06:17.000Z</time>
      </trkpt>
      <trkpt lat="43.77569" lon="3.80334">
        <ele>436</ele>
        <time>2025-03-26T17:06:20.000Z</time>
      </trkpt>
      <trkpt lat="43.77574" lon="3.80426">
        <ele>442</ele>
        <time>2025-03-26T17:06:23.000Z</time>
      </trkpt>
      <trkpt lat="43.77571" lon="3.80469">
        <ele>444</ele>
        <time>2025-03-26T17:06:26.000Z</time>
      </trkpt>
      <trkpt lat="43.77576" lon="3.80502">
        <ele>446</ele>
        <time>2025-03-26T17:06:29.000Z</time>
      </trkpt>
      <trkpt lat="43.77577" lon="3.80525">
        <ele>449</ele>
        <time>2025-03-26T17:06:32.000Z</time>
      </trkpt>
      <trkpt lat="43.7758" lon="3.80543">
        <ele>451</ele>
        <time>2025-03-26T17:06:35.000Z</time>
      </trkpt>
      <trkpt lat="43.77587" lon="3.80554">
        <ele>453</ele>
        <time>2025-03-26T17:06:38.000Z</time>
      </trkpt>
      <trkpt lat="43.77588" lon="3.80559">
        <ele>456</ele>
        <time>2025-03-26T17:06:41.000Z</time>
      </trkpt>
      <trkpt lat="43.77584" lon="3.80575">
        <ele>458</ele>
        <time>2025-03-26T17:06:44.000Z</time>
      </trkpt>
      <trkpt lat="43.77585" lon="3.80609">
        <ele>461</ele>
        <time>2025-03-26T17:06:47.000Z</time>
      </trkpt>
      <trkpt lat="43.7759" lon="3.80674">
        <ele>466</ele>
        <time>2025-03-26T17:06:50.000Z</time>
      </trkpt>
      <trkpt lat="43.77593" lon="3.80687">
        <ele>469</ele>
        <time>2025-03-26T17:06:53.000Z</time>
      </trkpt>
      <trkpt lat="43.7762" lon="3.80746">
        <ele>478</ele>
        <time>2025-03-26T17:06:56.000Z</time>
      </trkpt>
      <trkpt lat="43.77637" lon="3.80794">
        <ele>484</ele>
        <time>2025-03-26T17:06:59.000Z</time>
      </trkpt>
      <trkpt lat="43.77669" lon="3.80924">
        <ele>497</ele>
        <time>2025-03-26T17:07:02.000Z</time>
      </trkpt>
      <trkpt lat="43.77674" lon="3.80954">
        <ele>500</ele>
        <time>2025-03-26T17:07:05.000Z</time>
      </trkpt>
      <trkpt lat="43.77677" lon="3.8099">
        <ele>503</ele>
        <time>2025-03-26T17:07:08.000Z</time>
      </trkpt>
      <trkpt lat="43.7768" lon="3.81023">
        <ele>506</ele>
        <time>2025-03-26T17:07:11.000Z</time>
      </trkpt>
      <trkpt lat="43.77661" lon="3.81094">
        <ele>512</ele>
        <time>2025-03-26T17:07:14.000Z</time>
      </trkpt>
      <trkpt lat="43.77658" lon="3.81117">
        <ele>514</ele>
        <time>2025-03-26T17:07:17.000Z</time>
      </trkpt>
      <trkpt lat="43.77667" lon="3.81183">
        <ele>520</ele>
        <time>2025-03-26T17:07:20.000Z</time>
      </trkpt>
      <trkpt lat="43.7768" lon="3.81247">
        <ele>525</ele>
        <time>2025-03-26T17:07:23.000Z</time>
      </trkpt>
      <trkpt lat="43.77667" lon="3.81287">
        <ele>529</ele>
        <time>2025-03-26T17:07:26.000Z</time>
      </trkpt>
      <trkpt lat="43.77663" lon="3.81339">
        <ele>532</ele>
        <time>2025-03-26T17:07:29.000Z</time>
      </trkpt>
      <trkpt lat="43.77665" lon="3.81352">
        <ele>534</ele>
        <time>2025-03-26T17:07:32.000Z</time>
      </trkpt>
      <trkpt lat="43.77668" lon="3.81363">
        <ele>535</ele>
        <time>2025-03-26T17:07:35.000Z</time>
      </trkpt>
      <trkpt lat="43.77676" lon="3.81372">
        <ele>536</ele>
        <time>2025-03-26T17:07:38.000Z</time>
      </trkpt>
      <trkpt lat="43.77683" lon="3.81376">
        <ele>536</ele>
        <time>2025-03-26T17:07:41.000Z</time>
      </trkpt>
      <trkpt lat="43.77705" lon="3.81376">
        <ele>537</ele>
        <time>2025-03-26T17:07:44.000Z</time>
      </trkpt>
      <trkpt lat="43.77695" lon="3.81404">
        <ele>537</ele>
        <time>2025-03-26T17:07:47.000Z</time>
      </trkpt>
      <trkpt lat="43.77693" lon="3.81415">
        <ele>537</ele>
        <time>2025-03-26T17:07:50.000Z</time>
      </trkpt>
      <trkpt lat="43.77694" lon="3.81434">
        <ele>536</ele>
        <time>2025-03-26T17:07:53.000Z</time>
      </trkpt>
      <trkpt lat="43.777" lon="3.81446">
        <ele>535</ele>
        <time>2025-03-26T17:07:56.000Z</time>
      </trkpt>
      <trkpt lat="43.77703" lon="3.81456">
        <ele>535</ele>
        <time>2025-03-26T17:07:59.000Z</time>
      </trkpt>
      <trkpt lat="43.77718" lon="3.81483">
        <ele>533</ele>
        <time>2025-03-26T17:08:02.000Z</time>
      </trkpt>
      <trkpt lat="43.77703" lon="3.81497">
        <ele>532</ele>
        <time>2025-03-26T17:08:05.000Z</time>
      </trkpt>
      <trkpt lat="43.777" lon="3.81507">
        <ele>530</ele>
        <time>2025-03-26T17:08:08.000Z</time>
      </trkpt>
      <trkpt lat="43.77701" lon="3.81515">
        <ele>528</ele>
        <time>2025-03-26T17:08:11.000Z</time>
      </trkpt>
      <trkpt lat="43.77705" lon="3.81525">
        <ele>525</ele>
        <time>2025-03-26T17:08:14.000Z</time>
      </trkpt>
      <trkpt lat="43.77701" lon="3.81542">
        <ele>523</ele>
        <time>2025-03-26T17:08:17.000Z</time>
      </trkpt>
      <trkpt lat="43.77703" lon="3.81554">
        <ele>520</ele>
        <time>2025-03-26T17:08:20.000Z</time>
      </trkpt>
      <trkpt lat="43.7771" lon="3.81572">
        <ele>517</ele>
        <time>2025-03-26T17:08:23.000Z</time>
      </trkpt>
      <trkpt lat="43.77718" lon="3.81585">
        <ele>514</ele>
        <time>2025-03-26T17:08:26.000Z</time>
      </trkpt>
      <trkpt lat="43.77723" lon="3.81596">
        <ele>511</ele>
        <time>2025-03-26T17:08:29.000Z</time>
      </trkpt>
      <trkpt lat="43.77724" lon="3.81641">
        <ele>503</ele>
        <time>2025-03-26T17:08:32.000Z</time>
      </trkpt>
      <trkpt lat="43.77727" lon="3.81659">
        <ele>499</ele>
        <time>2025-03-26T17:08:35.000Z</time>
      </trkpt>
      <trkpt lat="43.77728" lon="3.81677">
        <ele>495</ele>
        <time>2025-03-26T17:08:38.000Z</time>
      </trkpt>
      <trkpt lat="43.77722" lon="3.81682">
        <ele>490</ele>
        <time>2025-03-26T17:08:41.000Z</time>
      </trkpt>
      <trkpt lat="43.77719" lon="3.81694">
        <ele>486</ele>
        <time>2025-03-26T17:08:44.000Z</time>
      </trkpt>
      <trkpt lat="43.7772" lon="3.81742">
        <ele>476</ele>
        <time>2025-03-26T17:08:47.000Z</time>
      </trkpt>
      <trkpt lat="43.77715" lon="3.81798">
        <ele>466</ele>
        <time>2025-03-26T17:08:50.000Z</time>
      </trkpt>
      <trkpt lat="43.77707" lon="3.81807">
        <ele>461</ele>
        <time>2025-03-26T17:08:53.000Z</time>
      </trkpt>
      <trkpt lat="43.7771" lon="3.8184">
        <ele>456</ele>
        <time>2025-03-26T17:08:56.000Z</time>
      </trkpt>
      <trkpt lat="43.77706" lon="3.81853">
        <ele>451</ele>
        <time>2025-03-26T17:08:59.000Z</time>
      </trkpt>
      <trkpt lat="43.77713" lon="3.81896">
        <ele>440</ele>
        <time>2025-03-26T17:09:02.000Z</time>
      </trkpt>
      <trkpt lat="43.77703" lon="3.81956">
        <ele>429</ele>
        <time>2025-03-26T17:09:05.000Z</time>
      </trkpt>
      <trkpt lat="43.77697" lon="3.81981">
        <ele>423</ele>
        <time>2025-03-26T17:09:08.000Z</time>
      </trkpt>
      <trkpt lat="43.77689" lon="3.81995">
        <ele>418</ele>
        <time>2025-03-26T17:09:11.000Z</time>
      </trkpt>
      <trkpt lat="43.77675" lon="3.81999">
        <ele>413</ele>
        <time>2025-03-26T17:09:14.000Z</time>
      </trkpt>
      <trkpt lat="43.77634" lon="3.82107">
        <ele>397</ele>
        <time>2025-03-26T17:09:17.000Z</time>
      </trkpt>
      <trkpt lat="43.77612" lon="3.82144">
        <ele>387</ele>
        <time>2025-03-26T17:09:20.000Z</time>
      </trkpt>
      <trkpt lat="43.77611" lon="3.82153">
        <ele>382</ele>
        <time>2025-03-26T17:09:23.000Z</time>
      </trkpt>
      <trkpt lat="43.7759" lon="3.82208">
        <ele>373</ele>
        <time>2025-03-26T17:09:26.000Z</time>
      </trkpt>
      <trkpt lat="43.7759" lon="3.82221">
        <ele>368</ele>
        <time>2025-03-26T17:09:29.000Z</time>
      </trkpt>
      <trkpt lat="43.77592" lon="3.82235">
        <ele>364</ele>
        <time>2025-03-26T17:09:32.000Z</time>
      </trkpt>
      <trkpt lat="43.77585" lon="3.82246">
        <ele>356</ele>
        <time>2025-03-26T17:09:35.000Z</time>
      </trkpt>
      <trkpt lat="43.77585" lon="3.82259">
        <ele>352</ele>
        <time>2025-03-26T17:09:38.000Z</time>
      </trkpt>
      <trkpt lat="43.77582" lon="3.82275">
        <ele>348</ele>
        <time>2025-03-26T17:09:41.000Z</time>
      </trkpt>
      <trkpt lat="43.77578" lon="3.82283">
        <ele>344</ele>
        <time>2025-03-26T17:09:44.000Z</time>
      </trkpt>
      <trkpt lat="43.77563" lon="3.82296">
        <ele>341</ele>
        <time>2025-03-26T17:09:47.000Z</time>
      </trkpt>
      <trkpt lat="43.77563" lon="3.82306">
        <ele>337</ele>
        <time>2025-03-26T17:09:50.000Z</time>
      </trkpt>
      <trkpt lat="43.77556" lon="3.82314">
        <ele>334</ele>
        <time>2025-03-26T17:09:53.000Z</time>
      </trkpt>
      <trkpt lat="43.77544" lon="3.82322">
        <ele>331</ele>
        <time>2025-03-26T17:09:56.000Z</time>
      </trkpt>
      <trkpt lat="43.77539" lon="3.82333">
        <ele>328</ele>
        <time>2025-03-26T17:09:59.000Z</time>
      </trkpt>
      <trkpt lat="43.77529" lon="3.82351">
        <ele>326</ele>
        <time>2025-03-26T17:10:02.000Z</time>
      </trkpt>
      <trkpt lat="43.77526" lon="3.82366">
        <ele>323</ele>
        <time>2025-03-26T17:10:05.000Z</time>
      </trkpt>
      <trkpt lat="43.77525" lon="3.82379">
        <ele>320</ele>
        <time>2025-03-26T17:10:08.000Z</time>
      </trkpt>
      <trkpt lat="43.77519" lon="3.8239">
        <ele>318</ele>
        <time>2025-03-26T17:10:11.000Z</time>
      </trkpt>
      <trkpt lat="43.77512" lon="3.82415">
        <ele>316</ele>
        <time>2025-03-26T17:10:14.000Z</time>
      </trkpt>
      <trkpt lat="43.77499" lon="3.82422">
        <ele>314</ele>
        <time>2025-03-26T17:10:17.000Z</time>
      </trkpt>
      <trkpt lat="43.77487" lon="3.82444">
        <ele>312</ele>
        <time>2025-03-26T17:10:20.000Z</time>
      </trkpt>
      <trkpt lat="43.77464" lon="3.82555">
        <ele>307</ele>
        <time>2025-03-26T17:10:23.000Z</time>
      </trkpt>
      <trkpt lat="43.77455" lon="3.82567">
        <ele>306</ele>
        <time>2025-03-26T17:10:26.000Z</time>
      </trkpt>
      <trkpt lat="43.77448" lon="3.82597">
        <ele>305</ele>
        <time>2025-03-26T17:10:29.000Z</time>
      </trkpt>
      <trkpt lat="43.77444" lon="3.82634">
        <ele>304</ele>
        <time>2025-03-26T17:10:32.000Z</time>
      </trkpt>
      <trkpt lat="43.77434" lon="3.82653">
        <ele>304</ele>
        <time>2025-03-26T17:10:35.000Z</time>
      </trkpt>
      <trkpt lat="43.77432" lon="3.827">
        <ele>303</ele>
        <time>2025-03-26T17:10:38.000Z</time>
      </trkpt>
      <trkpt lat="43.77423" lon="3.82751">
        <ele>302</ele>
        <time>2025-03-26T17:10:41.000Z</time>
      </trkpt>
      <trkpt lat="43.77421" lon="3.82758">
        <ele>302</ele>
        <time>2025-03-26T17:10:44.000Z</time>
      </trkpt>
      <trkpt lat="43.77421" lon="3.82788">
        <ele>302</ele>
        <time>2025-03-26T17:10:47.000Z</time>
      </trkpt>
      <trkpt lat="43.77423" lon="3.82808">
        <ele>302</ele>
        <time>2025-03-26T17:10:50.000Z</time>
      </trkpt>
      <trkpt lat="43.77432" lon="3.82834">
        <ele>302</ele>
        <time>2025-03-26T17:10:53.000Z</time>
      </trkpt>
      <trkpt lat="43.77439" lon="3.82848">
        <ele>302</ele>
        <time>2025-03-26T17:10:56.000Z</time>
      </trkpt>
      <trkpt lat="43.77443" lon="3.8286">
        <ele>302</ele>
        <time>2025-03-26T17:10:59.000Z</time>
      </trkpt>
      <trkpt lat="43.77443" lon="3.82904">
        <ele>303</ele>
        <time>2025-03-26T17:11:02.000Z</time>
      </trkpt>
      <trkpt lat="43.77441" lon="3.82931">
        <ele>304</ele>
        <time>2025-03-26T17:11:05.000Z</time>
      </trkpt>
      <trkpt lat="43.77434" lon="3.82952">
        <ele>304</ele>
        <time>2025-03-26T17:11:08.000Z</time>
      </trkpt>
      <trkpt lat="43.77419" lon="3.82992">
        <ele>305</ele>
        <time>2025-03-26T17:11:11.000Z</time>
      </trkpt>
      <trkpt lat="43.77404" lon="3.83051">
        <ele>306</ele>
        <time>2025-03-26T17:11:14.000Z</time>
      </trkpt>
      <trkpt lat="43.77396" lon="3.83068">
        <ele>306</ele>
        <time>2025-03-26T17:11:17.000Z</time>
      </trkpt>
      <trkpt lat="43.77394" lon="3.8308">
        <ele>307</ele>
        <time>2025-03-26T17:11:20.000Z</time>
      </trkpt>
      <trkpt lat="43.77387" lon="3.83092">
        <ele>307</ele>
        <time>2025-03-26T17:11:23.000Z</time>
      </trkpt>
      <trkpt lat="43.77388" lon="3.831">
        <ele>308</ele>
        <time>2025-03-26T17:11:26.000Z</time>
      </trkpt>
      <trkpt lat="43.77389" lon="3.8313">
        <ele>308</ele>
        <time>2025-03-26T17:11:29.000Z</time>
      </trkpt>
      <trkpt lat="43.77388" lon="3.83143">
        <ele>309</ele>
        <time>2025-03-26T17:11:32.000Z</time>
      </trkpt>
      <trkpt lat="43.77389" lon="3.83153">
        <ele>309</ele>
        <time>2025-03-26T17:11:35.000Z</time>
      </trkpt>
      <trkpt lat="43.77383" lon="3.83171">
        <ele>309</ele>
        <time>2025-03-26T17:11:38.000Z</time>
      </trkpt>
      <trkpt lat="43.77381" lon="3.83195">
        <ele>310</ele>
        <time>2025-03-26T17:11:41.000Z</time>
      </trkpt>
      <trkpt lat="43.77379" lon="3.83204">
        <ele>310</ele>
        <time>2025-03-26T17:11:44.000Z</time>
      </trkpt>
      <trkpt lat="43.77375" lon="3.83271">
        <ele>310</ele>
        <time>2025-03-26T17:11:47.000Z</time>
      </trkpt>
      <trkpt lat="43.77376" lon="3.8332">
        <ele>310</ele>
        <time>2025-03-26T17:11:50.000Z</time>
      </trkpt>
      <trkpt lat="43.77375" lon="3.8334">
        <ele>310</ele>
        <time>2025-03-26T17:11:53.000Z</time>
      </trkpt>
      <trkpt lat="43.77368" lon="3.83374">
        <ele>310</ele>
        <time>2025-03-26T17:11:56.000Z</time>
      </trkpt>
      <trkpt lat="43.77363" lon="3.83384">
        <ele>310</ele>
        <time>2025-03-26T17:11:59.000Z</time>
      </trkpt>
      <trkpt lat="43.77362" lon="3.83396">
        <ele>309</ele>
        <time>2025-03-26T17:12:02.000Z</time>
      </trkpt>
      <trkpt lat="43.77362" lon="3.83412">
        <ele>309</ele>
        <time>2025-03-26T17:12:05.000Z</time>
      </trkpt>
      <trkpt lat="43.77359" lon="3.83424">
        <ele>308</ele>
        <time>2025-03-26T17:12:08.000Z</time>
      </trkpt>
      <trkpt lat="43.77363" lon="3.83438">
        <ele>308</ele>
        <time>2025-03-26T17:12:11.000Z</time>
      </trkpt>
      <trkpt lat="43.77362" lon="3.83455">
        <ele>307</ele>
        <time>2025-03-26T17:12:14.000Z</time>
      </trkpt>
      <trkpt lat="43.7735" lon="3.83516">
        <ele>305</ele>
        <time>2025-03-26T17:12:17.000Z</time>
      </trkpt>
      <trkpt lat="43.77349" lon="3.83527">
        <ele>304</ele>
        <time>2025-03-26T17:12:20.000Z</time>
      </trkpt>
      <trkpt lat="43.7733" lon="3.83632">
        <ele>301</ele>
        <time>2025-03-26T17:12:23.000Z</time>
      </trkpt>
      <trkpt lat="43.77318" lon="3.83712">
        <ele>298</ele>
        <time>2025-03-26T17:12:26.000Z</time>
      </trkpt>
      <trkpt lat="43.77304" lon="3.83773">
        <ele>295</ele>
        <time>2025-03-26T17:12:29.000Z</time>
      </trkpt>
      <trkpt lat="43.77297" lon="3.83803">
        <ele>293</ele>
        <time>2025-03-26T17:12:32.000Z</time>
      </trkpt>
      <trkpt lat="43.77269" lon="3.83864">
        <ele>290</ele>
        <time>2025-03-26T17:12:35.000Z</time>
      </trkpt>
      <trkpt lat="43.77251" lon="3.83919">
        <ele>287</ele>
        <time>2025-03-26T17:12:38.000Z</time>
      </trkpt>
      <trkpt lat="43.77244" lon="3.83956">
        <ele>285</ele>
        <time>2025-03-26T17:12:41.000Z</time>
      </trkpt>
      <trkpt lat="43.77237" lon="3.84022">
        <ele>282</ele>
        <time>2025-03-26T17:12:44.000Z</time>
      </trkpt>
      <trkpt lat="43.77237" lon="3.84042">
        <ele>280</ele>
        <time>2025-03-26T17:12:47.000Z</time>
      </trkpt>
      <trkpt lat="43.77238" lon="3.84062">
        <ele>278</ele>
        <time>2025-03-26T17:12:50.000Z</time>
      </trkpt>
      <trkpt lat="43.77256" lon="3.84129">
        <ele>274</ele>
        <time>2025-03-26T17:12:53.000Z</time>
      </trkpt>
      <trkpt lat="43.77253" lon="3.84142">
        <ele>273</ele>
        <time>2025-03-26T17:12:56.000Z</time>
      </trkpt>
      <trkpt lat="43.77246" lon="3.84148">
        <ele>271</ele>
        <time>2025-03-26T17:12:59.000Z</time>
      </trkpt>
      <trkpt lat="43.77244" lon="3.84154">
        <ele>269</ele>
        <time>2025-03-26T17:13:02.000Z</time>
      </trkpt>
      <trkpt lat="43.77241" lon="3.84153">
        <ele>267</ele>
        <time>2025-03-26T17:13:05.000Z</time>
      </trkpt>
      <trkpt lat="43.77208" lon="3.8413">
        <ele>264</ele>
        <time>2025-03-26T17:13:08.000Z</time>
      </trkpt>
      <trkpt lat="43.77142" lon="3.84058">
        <ele>258</ele>
        <time>2025-03-26T17:13:11.000Z</time>
      </trkpt>
      <trkpt lat="43.77133" lon="3.84066">
        <ele>256</ele>
        <time>2025-03-26T17:13:14.000Z</time>
      </trkpt>
      <trkpt lat="43.77127" lon="3.84068">
        <ele>254</ele>
        <time>2025-03-26T17:13:17.000Z</time>
      </trkpt>
      <trkpt lat="43.77125" lon="3.84071">
        <ele>253</ele>
        <time>2025-03-26T17:13:20.000Z</time>
      </trkpt>
      <trkpt lat="43.77112" lon="3.84079">
        <ele>251</ele>
        <time>2025-03-26T17:13:23.000Z</time>
      </trkpt>
      <trkpt lat="43.77105" lon="3.84091">
        <ele>249</ele>
        <time>2025-03-26T17:13:26.000Z</time>
      </trkpt>
      <trkpt lat="43.77069" lon="3.84133">
        <ele>246</ele>
        <time>2025-03-26T17:13:29.000Z</time>
      </trkpt>
      <trkpt lat="43.77055" lon="3.84149">
        <ele>244</ele>
        <time>2025-03-26T17:13:32.000Z</time>
      </trkpt>
      <trkpt lat="43.77045" lon="3.84164">
        <ele>242</ele>
        <time>2025-03-26T17:13:35.000Z</time>
      </trkpt>
      <trkpt lat="43.77019" lon="3.8419">
        <ele>239</ele>
        <time>2025-03-26T17:13:38.000Z</time>
      </trkpt>
      <trkpt lat="43.77016" lon="3.84196">
        <ele>237</ele>
        <time>2025-03-26T17:13:41.000Z</time>
      </trkpt>
      <trkpt lat="43.76946" lon="3.84246">
        <ele>233</ele>
        <time>2025-03-26T17:13:44.000Z</time>
      </trkpt>
      <trkpt lat="43.76937" lon="3.84249">
        <ele>231</ele>
        <time>2025-03-26T17:13:47.000Z</time>
      </trkpt>
      <trkpt lat="43.76922" lon="3.84258">
        <ele>230</ele>
        <time>2025-03-26T17:13:50.000Z</time>
      </trkpt>
      <trkpt lat="43.76905" lon="3.84274">
        <ele>228</ele>
        <time>2025-03-26T17:13:53.000Z</time>
      </trkpt>
      <trkpt lat="43.76887" lon="3.84295">
        <ele>227</ele>
        <time>2025-03-26T17:13:56.000Z</time>
      </trkpt>
      <trkpt lat="43.76876" lon="3.84317">
        <ele>225</ele>
        <time>2025-03-26T17:13:59.000Z</time>
      </trkpt>
      <trkpt lat="43.76871" lon="3.84341">
        <ele>224</ele>
        <time>2025-03-26T17:14:02.000Z</time>
      </trkpt>
      <trkpt lat="43.7687" lon="3.84351">
        <ele>223</ele>
        <time>2025-03-26T17:14:05.000Z</time>
      </trkpt>
      <trkpt lat="43.76872" lon="3.84357">
        <ele>221</ele>
        <time>2025-03-26T17:14:08.000Z</time>
      </trkpt>
      <trkpt lat="43.76871" lon="3.84389">
        <ele>220</ele>
        <time>2025-03-26T17:14:11.000Z</time>
      </trkpt>
      <trkpt lat="43.76882" lon="3.84441">
        <ele>217</ele>
        <time>2025-03-26T17:14:14.000Z</time>
      </trkpt>
      <trkpt lat="43.76887" lon="3.84453">
        <ele>216</ele>
        <time>2025-03-26T17:14:17.000Z</time>
      </trkpt>
      <trkpt lat="43.76903" lon="3.84474">
        <ele>215</ele>
        <time>2025-03-26T17:14:20.000Z</time>
      </trkpt>
      <trkpt lat="43.76924" lon="3.84499">
        <ele>213</ele>
        <time>2025-03-26T17:14:23.000Z</time>
      </trkpt>
      <trkpt lat="43.76931" lon="3.84501">
        <ele>212</ele>
        <time>2025-03-26T17:14:26.000Z</time>
      </trkpt>
      <trkpt lat="43.76953" lon="3.84519">
        <ele>210</ele>
        <time>2025-03-26T17:14:29.000Z</time>
      </trkpt>
      <trkpt lat="43.76965" lon="3.84524">
        <ele>209</ele>
        <time>2025-03-26T17:14:32.000Z</time>
      </trkpt>
      <trkpt lat="43.76971" lon="3.84534">
        <ele>208</ele>
        <time>2025-03-26T17:14:35.000Z</time>
      </trkpt>
      <trkpt lat="43.7699" lon="3.84529">
        <ele>206</ele>
        <time>2025-03-26T17:14:38.000Z</time>
      </trkpt>
      <trkpt lat="43.76942" lon="3.84542">
        <ele>204</ele>
        <time>2025-03-26T17:14:41.000Z</time>
      </trkpt>
      <trkpt lat="43.7693" lon="3.84558">
        <ele>202</ele>
        <time>2025-03-26T17:14:44.000Z</time>
      </trkpt>
      <trkpt lat="43.76925" lon="3.84574">
        <ele>201</ele>
        <time>2025-03-26T17:14:47.000Z</time>
      </trkpt>
      <trkpt lat="43.76928" lon="3.84587">
        <ele>199</ele>
        <time>2025-03-26T17:14:50.000Z</time>
      </trkpt>
      <trkpt lat="43.76913" lon="3.84611">
        <ele>198</ele>
        <time>2025-03-26T17:14:53.000Z</time>
      </trkpt>
      <trkpt lat="43.769" lon="3.84612">
        <ele>196</ele>
        <time>2025-03-26T17:14:56.000Z</time>
      </trkpt>
      <trkpt lat="43.76887" lon="3.84607">
        <ele>195</ele>
        <time>2025-03-26T17:14:59.000Z</time>
      </trkpt>
      <trkpt lat="43.76876" lon="3.84599">
        <ele>193</ele>
        <time>2025-03-26T17:15:02.000Z</time>
      </trkpt>
      <trkpt lat="43.76873" lon="3.84584">
        <ele>192</ele>
        <time>2025-03-26T17:15:05.000Z</time>
      </trkpt>
      <trkpt lat="43.76874" lon="3.84577">
        <ele>190</ele>
        <time>2025-03-26T17:15:08.000Z</time>
      </trkpt>
      <trkpt lat="43.76874" lon="3.84563">
        <ele>189</ele>
        <time>2025-03-26T17:15:11.000Z</time>
      </trkpt>
      <trkpt lat="43.76873" lon="3.84558">
        <ele>188</ele>
        <time>2025-03-26T17:15:14.000Z</time>
      </trkpt>
      <trkpt lat="43.76868" lon="3.84554">
        <ele>186</ele>
        <time>2025-03-26T17:15:17.000Z</time>
      </trkpt>
      <trkpt lat="43.76852" lon="3.84557">
        <ele>184</ele>
        <time>2025-03-26T17:15:20.000Z</time>
      </trkpt>
      <trkpt lat="43.76836" lon="3.84555">
        <ele>183</ele>
        <time>2025-03-26T17:15:23.000Z</time>
      </trkpt>
      <trkpt lat="43.76802" lon="3.84555">
        <ele>179</ele>
        <time>2025-03-26T17:15:26.000Z</time>
      </trkpt>
      <trkpt lat="43.76781" lon="3.8456">
        <ele>178</ele>
        <time>2025-03-26T17:15:29.000Z</time>
      </trkpt>
      <trkpt lat="43.7675" lon="3.84561">
        <ele>176</ele>
        <time>2025-03-26T17:15:32.000Z</time>
      </trkpt>
      <trkpt lat="43.76732" lon="3.84589">
        <ele>173</ele>
        <time>2025-03-26T17:15:35.000Z</time>
      </trkpt>
      <trkpt lat="43.7676" lon="3.8464">
        <ele>169</ele>
        <time>2025-03-26T17:15:38.000Z</time>
      </trkpt>
      <trkpt lat="43.76775" lon="3.84674">
        <ele>168</ele>
        <time>2025-03-26T17:15:41.000Z</time>
      </trkpt>
      <trkpt lat="43.76792" lon="3.84708">
        <ele>166</ele>
        <time>2025-03-26T17:15:44.000Z</time>
      </trkpt>
      <trkpt lat="43.76808" lon="3.84749">
        <ele>163</ele>
        <time>2025-03-26T17:15:47.000Z</time>
      </trkpt>
      <trkpt lat="43.76819" lon="3.84767">
        <ele>161</ele>
        <time>2025-03-26T17:15:50.000Z</time>
      </trkpt>
      <trkpt lat="43.76832" lon="3.84782">
        <ele>159</ele>
        <time>2025-03-26T17:15:53.000Z</time>
      </trkpt>
      <trkpt lat="43.76837" lon="3.84801">
        <ele>157</ele>
        <time>2025-03-26T17:15:56.000Z</time>
      </trkpt>
      <trkpt lat="43.76828" lon="3.848">
        <ele>156</ele>
        <time>2025-03-26T17:15:59.000Z</time>
      </trkpt>
      <trkpt lat="43.76814" lon="3.84794">
        <ele>155</ele>
        <time>2025-03-26T17:16:02.000Z</time>
      </trkpt>
      <trkpt lat="43.76793" lon="3.84789">
        <ele>153</ele>
        <time>2025-03-26T17:16:05.000Z</time>
      </trkpt>
      <trkpt lat="43.76784" lon="3.8479">
        <ele>152</ele>
        <time>2025-03-26T17:16:08.000Z</time>
      </trkpt>
      <trkpt lat="43.76755" lon="3.84801">
        <ele>151</ele>
        <time>2025-03-26T17:16:11.000Z</time>
      </trkpt>
      <trkpt lat="43.76747" lon="3.84802">
        <ele>150</ele>
        <time>2025-03-26T17:16:14.000Z</time>
      </trkpt>
      <trkpt lat="43.76754" lon="3.84864">
        <ele>148</ele>
        <time>2025-03-26T17:16:17.000Z</time>
      </trkpt>
      <trkpt lat="43.76768" lon="3.84948">
        <ele>145</ele>
        <time>2025-03-26T17:16:20.000Z</time>
      </trkpt>
      <trkpt lat="43.7678" lon="3.84995">
        <ele>143</ele>
        <time>2025-03-26T17:16:23.000Z</time>
      </trkpt>
      <trkpt lat="43.76786" lon="3.85039">
        <ele>141</ele>
        <time>2025-03-26T17:16:26.000Z</time>
      </trkpt>
      <trkpt lat="43.76791" lon="3.8514">
        <ele>138</ele>
        <time>2025-03-26T17:16:29.000Z</time>
      </trkpt>
      <trkpt lat="43.76786" lon="3.85226">
        <ele>137</ele>
        <time>2025-03-26T17:16:32.000Z</time>
      </trkpt>
      <trkpt lat="43.76781" lon="3.8526">
        <ele>136</ele>
        <time>2025-03-26T17:16:35.000Z</time>
      </trkpt>
      <trkpt lat="43.76765" lon="3.85309">
        <ele>134</ele>
        <time>2025-03-26T17:16:38.000Z</time>
      </trkpt>
      <trkpt lat="43.7675" lon="3.85347">
        <ele>133</ele>
        <time>2025-03-26T17:16:41.000Z</time>
      </trkpt>
      <trkpt lat="43.76712" lon="3.85414">
        <ele>132</ele>
        <time>2025-03-26T17:16:44.000Z</time>
      </trkpt>
      <trkpt lat="43.767" lon="3.85443">
        <ele>131</ele>
        <time>2025-03-26T17:16:47.000Z</time>
      </trkpt>
      <trkpt lat="43.76692" lon="3.85472">
        <ele>130</ele>
        <time>2025-03-26T17:16:50.000Z</time>
      </trkpt>
      <trkpt lat="43.76689" lon="3.85497">
        <ele>130</ele>
        <time>2025-03-26T17:16:53.000Z</time>
      </trkpt>
      <trkpt lat="43.76691" lon="3.855">
        <ele>129</ele>
        <time>2025-03-26T17:16:56.000Z</time>
      </trkpt>
      <trkpt lat="43.76695" lon="3.85521">
        <ele>129</ele>
        <time>2025-03-26T17:16:59.000Z</time>
      </trkpt>
      <trkpt lat="43.76708" lon="3.85543">
        <ele>128</ele>
        <time>2025-03-26T17:17:02.000Z</time>
      </trkpt>
      <trkpt lat="43.7674" lon="3.85563">
        <ele>127</ele>
        <time>2025-03-26T17:17:05.000Z</time>
      </trkpt>
      <trkpt lat="43.76748" lon="3.85569">
        <ele>126</ele>
        <time>2025-03-26T17:17:08.000Z</time>
      </trkpt>
      <trkpt lat="43.76761" lon="3.85583">
        <ele>126</ele>
        <time>2025-03-26T17:17:11.000Z</time>
      </trkpt>
      <trkpt lat="43.76767" lon="3.85596">
        <ele>125</ele>
        <time>2025-03-26T17:17:14.000Z</time>
      </trkpt>
      <trkpt lat="43.76769" lon="3.85603">
        <ele>125</ele>
        <time>2025-03-26T17:17:17.000Z</time>
      </trkpt>
      <trkpt lat="43.76771" lon="3.85611">
        <ele>125</ele>
        <time>2025-03-26T17:17:20.000Z</time>
      </trkpt>
      <trkpt lat="43.76776" lon="3.85639">
        <ele>124</ele>
        <time>2025-03-26T17:17:23.000Z</time>
      </trkpt>
      <trkpt lat="43.76774" lon="3.85653">
        <ele>124</ele>
        <time>2025-03-26T17:17:26.000Z</time>
      </trkpt>
      <trkpt lat="43.76768" lon="3.85666">
        <ele>123</ele>
        <time>2025-03-26T17:17:29.000Z</time>
      </trkpt>
      <trkpt lat="43.76752" lon="3.85696">
        <ele>123</ele>
        <time>2025-03-26T17:17:32.000Z</time>
      </trkpt>
      <trkpt lat="43.76749" lon="3.85703">
        <ele>123</ele>
        <time>2025-03-26T17:17:35.000Z</time>
      </trkpt>
      <trkpt lat="43.76749" lon="3.85706">
        <ele>123</ele>
        <time>2025-03-26T17:17:38.000Z</time>
      </trkpt>
      <trkpt lat="43.76752" lon="3.85712">
        <ele>122</ele>
        <time>2025-03-26T17:17:41.000Z</time>
      </trkpt>
      <trkpt lat="43.76754" lon="3.85714">
        <ele>122</ele>
        <time>2025-03-26T17:17:44.000Z</time>
      </trkpt>
      <trkpt lat="43.76773" lon="3.85728">
        <ele>122</ele>
        <time>2025-03-26T17:17:47.000Z</time>
      </trkpt>
      <trkpt lat="43.76818" lon="3.85759">
        <ele>122</ele>
        <time>2025-03-26T17:17:50.000Z</time>
      </trkpt>
      <trkpt lat="43.76822" lon="3.85766">
        <ele>122</ele>
        <time>2025-03-26T17:17:53.000Z</time>
      </trkpt>
      <trkpt lat="43.76819" lon="3.85768">
        <ele>121</ele>
        <time>2025-03-26T17:17:56.000Z</time>
      </trkpt>
      <trkpt lat="43.768" lon="3.85764">
        <ele>121</ele>
        <time>2025-03-26T17:17:59.000Z</time>
      </trkpt>
      <trkpt lat="43.768" lon="3.85766">
        <ele>121</ele>
        <time>2025-03-26T17:18:02.000Z</time>
      </trkpt>
      <trkpt lat="43.76793" lon="3.8576">
        <ele>130.9</ele>
        <time>2025-03-26T17:18:05.000Z</time>
      </trkpt>
      <trkpt lat="43.76787" lon="3.85756">
        <ele>130.7</ele>
        <time>2025-03-26T17:18:08.000Z</time>
      </trkpt>
      <trkpt lat="43.7678" lon="3.8575">
        <ele>130.5</ele>
        <time>2025-03-26T17:18:11.000Z</time>
      </trkpt>
      <trkpt lat="43.76775" lon="3.85745">
        <ele>130</ele>
        <time>2025-03-26T17:18:14.000Z</time>
      </trkpt>
      <trkpt lat="43.76767" lon="3.85742">
        <ele>129.6</ele>
        <time>2025-03-26T17:18:17.000Z</time>
      </trkpt>
      <trkpt lat="43.76759" lon="3.85736">
        <ele>129.2</ele>
        <time>2025-03-26T17:18:20.000Z</time>
      </trkpt>
      <trkpt lat="43.76749" lon="3.85733">
        <ele>128.7</ele>
        <time>2025-03-26T17:18:23.000Z</time>
      </trkpt>
      <trkpt lat="43.76743" lon="3.85731">
        <ele>127.9</ele>
        <time>2025-03-26T17:18:26.000Z</time>
      </trkpt>
      <trkpt lat="43.7673" lon="3.85729">
        <ele>126.5</ele>
        <time>2025-03-26T17:18:35.000Z</time>
      </trkpt>
      <trkpt lat="43.76725" lon="3.85729">
        <ele>125.8</ele>
        <time>2025-03-26T17:18:41.000Z</time>
      </trkpt>
      <trkpt lat="43.76717" lon="3.85733">
        <ele>124.8</ele>
        <time>2025-03-26T17:18:47.000Z</time>
      </trkpt>
      <trkpt lat="43.76712" lon="3.8574">
        <ele>123.9</ele>
        <time>2025-03-26T17:18:53.000Z</time>
      </trkpt>
      <trkpt lat="43.76705" lon="3.85743">
        <ele>122.9</ele>
        <time>2025-03-26T17:18:59.000Z</time>
      </trkpt>
      <trkpt lat="43.76698" lon="3.85747">
        <ele>121.7</ele>
        <time>2025-03-26T17:19:05.000Z</time>
      </trkpt>
      <trkpt lat="43.76693" lon="3.85752">
        <ele>120.7</ele>
        <time>2025-03-26T17:19:08.000Z</time>
      </trkpt>
      <trkpt lat="43.76686" lon="3.85757">
        <ele>119.2</ele>
        <time>2025-03-26T17:19:11.000Z</time>
      </trkpt>
      <trkpt lat="43.76678" lon="3.85763">
        <ele>117.4</ele>
        <time>2025-03-26T17:19:14.000Z</time>
      </trkpt>
      <trkpt lat="43.76669" lon="3.85772">
        <ele>115.1</ele>
        <time>2025-03-26T17:19:17.000Z</time>
      </trkpt>
      <trkpt lat="43.76662" lon="3.85779">
        <ele>113.3</ele>
        <time>2025-03-26T17:19:20.000Z</time>
      </trkpt>
      <trkpt lat="43.76655" lon="3.85786">
        <ele>111.7</ele>
        <time>2025-03-26T17:19:23.000Z</time>
      </trkpt>
      <trkpt lat="43.76647" lon="3.85792">
        <ele>109.9</ele>
        <time>2025-03-26T17:19:26.000Z</time>
      </trkpt>
      <trkpt lat="43.76638" lon="3.85795">
        <ele>108.5</ele>
        <time>2025-03-26T17:19:29.000Z</time>
      </trkpt>
      <trkpt lat="43.76633" lon="3.85798">
        <ele>107.4</ele>
        <time>2025-03-26T17:19:38.000Z</time>
      </trkpt>
      <trkpt lat="43.76625" lon="3.85802">
        <ele>105.9</ele>
        <time>2025-03-26T17:19:41.000Z</time>
      </trkpt>
      <trkpt lat="43.76615" lon="3.85806">
        <ele>104.1</ele>
        <time>2025-03-26T17:19:44.000Z</time>
      </trkpt>
      <trkpt lat="43.76608" lon="3.8581">
        <ele>102.6</ele>
        <time>2025-03-26T17:19:50.000Z</time>
      </trkpt>
      <trkpt lat="43.766" lon="3.85816">
        <ele>100.8</ele>
        <time>2025-03-26T17:19:53.000Z</time>
      </trkpt>
      <trkpt lat="43.76585" lon="3.85826">
        <ele>97.2</ele>
        <time>2025-03-26T17:19:56.000Z</time>
      </trkpt>
      <trkpt lat="43.76569" lon="3.85841">
        <ele>95.9</ele>
        <time>2025-03-26T17:20:05.000Z</time>
      </trkpt>
      <trkpt lat="43.76549" lon="3.85856">
        <ele>95.7</ele>
        <time>2025-03-26T17:20:08.000Z</time>
      </trkpt>
      <trkpt lat="43.76526" lon="3.85872">
        <ele>95.7</ele>
        <time>2025-03-26T17:20:11.000Z</time>
      </trkpt>
      <trkpt lat="43.76498" lon="3.85886">
        <ele>96</ele>
        <time>2025-03-26T17:20:14.000Z</time>
      </trkpt>
      <trkpt lat="43.76464" lon="3.85891">
        <ele>95.7</ele>
        <time>2025-03-26T17:20:17.000Z</time>
      </trkpt>
      <trkpt lat="43.76431" lon="3.859">
        <ele>95.7</ele>
        <time>2025-03-26T17:20:20.000Z</time>
      </trkpt>
      <trkpt lat="43.76401" lon="3.85914">
        <ele>95.4</ele>
        <time>2025-03-26T17:20:23.000Z</time>
      </trkpt>
      <trkpt lat="43.76379" lon="3.85937">
        <ele>94.9</ele>
        <time>2025-03-26T17:20:26.000Z</time>
      </trkpt>
      <trkpt lat="43.76322" lon="3.86007">
        <ele>93.9</ele>
        <time>2025-03-26T17:20:29.000Z</time>
      </trkpt>
      <trkpt lat="43.7628" lon="3.86056">
        <ele>94.3</ele>
        <time>2025-03-26T17:20:32.000Z</time>
      </trkpt>
      <trkpt lat="43.76265" lon="3.86068">
        <ele>94.1</ele>
        <time>2025-03-26T17:20:35.000Z</time>
      </trkpt>
      <trkpt lat="43.76247" lon="3.86079">
        <ele>93.8</ele>
        <time>2025-03-26T17:20:38.000Z</time>
      </trkpt>
      <trkpt lat="43.76236" lon="3.86065">
        <ele>93.4</ele>
        <time>2025-03-26T17:20:41.000Z</time>
      </trkpt>
      <trkpt lat="43.7623" lon="3.8605">
        <ele>92.9</ele>
        <time>2025-03-26T17:20:44.000Z</time>
      </trkpt>
      <trkpt lat="43.76223" lon="3.86012">
        <ele>92</ele>
        <time>2025-03-26T17:20:47.000Z</time>
      </trkpt>
      <trkpt lat="43.76216" lon="3.85988">
        <ele>91.5</ele>
        <time>2025-03-26T17:20:50.000Z</time>
      </trkpt>
      <trkpt lat="43.7621" lon="3.85958">
        <ele>91</ele>
        <time>2025-03-26T17:20:53.000Z</time>
      </trkpt>
      <trkpt lat="43.76202" lon="3.85944">
        <ele>90</ele>
        <time>2025-03-26T17:20:56.000Z</time>
      </trkpt>
      <trkpt lat="43.76199" lon="3.85939">
        <ele>90</ele>
        <time>2025-03-26T17:20:59.000Z</time>
      </trkpt>
      <trkpt lat="43.76193" lon="3.85937">
        <ele>90</ele>
        <time>2025-03-26T17:21:02.000Z</time>
      </trkpt>
      <trkpt lat="43.76174" lon="3.85933">
        <ele>89</ele>
        <time>2025-03-26T17:21:05.000Z</time>
      </trkpt>
      <trkpt lat="43.76163" lon="3.85933">
        <ele>89</ele>
        <time>2025-03-26T17:21:08.000Z</time>
      </trkpt>
      <trkpt lat="43.76159" lon="3.85931">
        <ele>89</ele>
        <time>2025-03-26T17:21:11.000Z</time>
      </trkpt>
      <trkpt lat="43.76148" lon="3.85929">
        <ele>89</ele>
        <time>2025-03-26T17:21:14.000Z</time>
      </trkpt>
      <trkpt lat="43.76111" lon="3.85925">
        <ele>89</ele>
        <time>2025-03-26T17:21:17.000Z</time>
      </trkpt>
      <trkpt lat="43.76092" lon="3.85922">
        <ele>89</ele>
        <time>2025-03-26T17:21:20.000Z</time>
      </trkpt>
      <trkpt lat="43.76073" lon="3.8592">
        <ele>89</ele>
        <time>2025-03-26T17:21:23.000Z</time>
      </trkpt>
      <trkpt lat="43.76057" lon="3.85919">
        <ele>89</ele>
        <time>2025-03-26T17:21:26.000Z</time>
      </trkpt>
      <trkpt lat="43.76056" lon="3.85922">
        <ele>88</ele>
        <time>2025-03-26T17:21:29.000Z</time>
      </trkpt>
      <trkpt lat="43.76056" lon="3.85922">
        <ele>88</ele>
        <time>2025-03-26T17:21:32.000Z</time>
      </trkpt>
      <trkpt lat="43.76106" lon="3.85988">
        <ele>92.4</ele>
        <time>2025-04-16T16:28:17.000Z</time>
      </trkpt>
    </trkseg>
  </trk>
</gpx>